<?xml version="1.0" encoding="UTF-8" standalone="no" ?>
<gpx xmlns="http://www.topografix.com/GPX/1/1" xmlns:xsi="http://www.w3.org/2001/XMLSchema-instance" xsi:schemaLocation="http://www.topografix.com/GPX/1/1 http://www.topografix.com/GPX/1/1/gpx.xsd" version="1.1" creator="VisuGPX - https://www.visugpx.com">
  <metadata>
    <name>rando lac et roche d'antre</name>
    <desc><![CDATA[[img]rando lac et roche d'antre au départ de villards d'heria[/img]]]></desc>
  </metadata>
  <trk>
    <name><![CDATA[2018-10-14 14:59:24]]></name>
    <trkseg>
      <trkpt lat="46.41622" lon="5.73169">
        <ele>657.2</ele>
        <time>2018-10-14T08:22:31Z</time>
      </trkpt>
      <trkpt lat="46.41622" lon="5.7317">
        <ele>657.2</ele>
        <time>2018-10-14T08:22:32Z</time>
      </trkpt>
      <trkpt lat="46.41624" lon="5.73168">
        <ele>657.2</ele>
        <time>2018-10-14T08:22:54Z</time>
      </trkpt>
      <trkpt lat="46.41624" lon="5.73165">
        <ele>657.2</ele>
        <time>2018-10-14T08:23:19Z</time>
      </trkpt>
      <trkpt lat="46.41622" lon="5.73167">
        <ele>657.2</ele>
        <time>2018-10-14T08:23:42Z</time>
      </trkpt>
      <trkpt lat="46.41622" lon="5.73166">
        <ele>657.2</ele>
        <time>2018-10-14T08:24:15Z</time>
      </trkpt>
      <trkpt lat="46.41623" lon="5.73164">
        <ele>657.2</ele>
        <time>2018-10-14T08:24:51Z</time>
      </trkpt>
      <trkpt lat="46.41626" lon="5.73167">
        <ele>657.2</ele>
        <time>2018-10-14T08:25:21Z</time>
      </trkpt>
      <trkpt lat="46.41627" lon="5.73166">
        <ele>657.2</ele>
        <time>2018-10-14T08:25:41Z</time>
      </trkpt>
      <trkpt lat="46.41626" lon="5.73163">
        <ele>657.2</ele>
        <time>2018-10-14T08:26:06Z</time>
      </trkpt>
      <trkpt lat="46.41625" lon="5.73166">
        <ele>657.2</ele>
        <time>2018-10-14T08:26:28Z</time>
      </trkpt>
      <trkpt lat="46.41626" lon="5.73164">
        <ele>656.72</ele>
        <time>2018-10-14T08:27:02Z</time>
      </trkpt>
      <trkpt lat="46.41626" lon="5.73168">
        <ele>656.72</ele>
        <time>2018-10-14T08:27:37Z</time>
      </trkpt>
      <trkpt lat="46.41627" lon="5.73166">
        <ele>656.72</ele>
        <time>2018-10-14T08:27:59Z</time>
      </trkpt>
      <trkpt lat="46.41628" lon="5.73164">
        <ele>656.72</ele>
        <time>2018-10-14T08:28:24Z</time>
      </trkpt>
      <trkpt lat="46.41627" lon="5.73164">
        <ele>656.72</ele>
        <time>2018-10-14T08:28:47Z</time>
      </trkpt>
      <trkpt lat="46.41625" lon="5.73165">
        <ele>656.72</ele>
        <time>2018-10-14T08:29:14Z</time>
      </trkpt>
      <trkpt lat="46.41624" lon="5.73168">
        <ele>656.72</ele>
        <time>2018-10-14T08:29:40Z</time>
      </trkpt>
      <trkpt lat="46.41625" lon="5.73167">
        <ele>656.72</ele>
        <time>2018-10-14T08:29:57Z</time>
      </trkpt>
      <trkpt lat="46.41623" lon="5.73168">
        <ele>656.72</ele>
        <time>2018-10-14T08:30:22Z</time>
      </trkpt>
      <trkpt lat="46.41625" lon="5.73169">
        <ele>656.72</ele>
        <time>2018-10-14T08:30:48Z</time>
      </trkpt>
      <trkpt lat="46.41625" lon="5.73168">
        <ele>656.72</ele>
        <time>2018-10-14T08:31:26Z</time>
      </trkpt>
      <trkpt lat="46.41621" lon="5.73165">
        <ele>656.24</ele>
        <time>2018-10-14T08:31:56Z</time>
      </trkpt>
      <trkpt lat="46.41622" lon="5.73166">
        <ele>656.24</ele>
        <time>2018-10-14T08:32:31Z</time>
      </trkpt>
      <trkpt lat="46.41623" lon="5.73165">
        <ele>656.24</ele>
        <time>2018-10-14T08:32:57Z</time>
      </trkpt>
      <trkpt lat="46.41624" lon="5.73164">
        <ele>656.24</ele>
        <time>2018-10-14T08:33:27Z</time>
      </trkpt>
      <trkpt lat="46.41625" lon="5.73165">
        <ele>656.24</ele>
        <time>2018-10-14T08:33:45Z</time>
      </trkpt>
      <trkpt lat="46.41626" lon="5.73167">
        <ele>656.24</ele>
        <time>2018-10-14T08:34:18Z</time>
      </trkpt>
      <trkpt lat="46.41625" lon="5.73164">
        <ele>656.24</ele>
        <time>2018-10-14T08:34:55Z</time>
      </trkpt>
      <trkpt lat="46.41626" lon="5.73169">
        <ele>656.24</ele>
        <time>2018-10-14T08:35:17Z</time>
      </trkpt>
      <trkpt lat="46.41625" lon="5.73171">
        <ele>654.8</ele>
        <time>2018-10-14T08:35:32Z</time>
      </trkpt>
      <trkpt lat="46.41625" lon="5.7317">
        <ele>656.72</ele>
        <time>2018-10-14T08:35:34Z</time>
      </trkpt>
      <trkpt lat="46.41625" lon="5.73169">
        <ele>656.72</ele>
        <time>2018-10-14T08:36:00Z</time>
      </trkpt>
      <trkpt lat="46.41625" lon="5.73169">
        <ele>655.28</ele>
        <time>2018-10-14T08:36:03Z</time>
      </trkpt>
      <trkpt lat="46.41625" lon="5.73169">
        <ele>656.72</ele>
        <time>2018-10-14T08:36:27Z</time>
      </trkpt>
      <trkpt lat="46.41627" lon="5.7317">
        <ele>656.72</ele>
        <time>2018-10-14T08:36:53Z</time>
      </trkpt>
      <trkpt lat="46.41625" lon="5.73168">
        <ele>657.2</ele>
        <time>2018-10-14T08:37:19Z</time>
      </trkpt>
      <trkpt lat="46.41625" lon="5.73168">
        <ele>657.2</ele>
        <time>2018-10-14T08:37:36Z</time>
      </trkpt>
      <trkpt lat="46.41625" lon="5.73168">
        <ele>657.2</ele>
        <time>2018-10-14T08:37:50Z</time>
      </trkpt>
      <trkpt lat="46.41624" lon="5.73174">
        <ele>657.2</ele>
        <time>2018-10-14T08:38:01Z</time>
      </trkpt>
      <trkpt lat="46.41626" lon="5.7318">
        <ele>657.2</ele>
        <time>2018-10-14T08:38:12Z</time>
      </trkpt>
      <trkpt lat="46.41629" lon="5.73185">
        <ele>657.2</ele>
        <time>2018-10-14T08:38:25Z</time>
      </trkpt>
      <trkpt lat="46.41637" lon="5.73198">
        <ele>657.2</ele>
        <time>2018-10-14T08:38:40Z</time>
      </trkpt>
      <trkpt lat="46.41637" lon="5.73199">
        <ele>657.2</ele>
        <time>2018-10-14T08:38:41Z</time>
      </trkpt>
      <trkpt lat="46.41649" lon="5.73218">
        <ele>657.2</ele>
        <time>2018-10-14T08:39:00Z</time>
      </trkpt>
      <trkpt lat="46.41659" lon="5.73235">
        <ele>657.2</ele>
        <time>2018-10-14T08:39:15Z</time>
      </trkpt>
      <trkpt lat="46.41661" lon="5.73237">
        <ele>657.2</ele>
        <time>2018-10-14T08:39:18Z</time>
      </trkpt>
      <trkpt lat="46.41673" lon="5.73255">
        <ele>657.2</ele>
        <time>2018-10-14T08:39:35Z</time>
      </trkpt>
      <trkpt lat="46.41677" lon="5.73263">
        <ele>657.2</ele>
        <time>2018-10-14T08:39:41Z</time>
      </trkpt>
      <trkpt lat="46.41689" lon="5.73284">
        <ele>657.2</ele>
        <time>2018-10-14T08:39:59Z</time>
      </trkpt>
      <trkpt lat="46.41702" lon="5.73305">
        <ele>657.68</ele>
        <time>2018-10-14T08:40:17Z</time>
      </trkpt>
      <trkpt lat="46.4171" lon="5.73318">
        <ele>658.16</ele>
        <time>2018-10-14T08:40:27Z</time>
      </trkpt>
      <trkpt lat="46.41726" lon="5.73341">
        <ele>658.64</ele>
        <time>2018-10-14T08:40:47Z</time>
      </trkpt>
      <trkpt lat="46.41732" lon="5.73355">
        <ele>659.6</ele>
        <time>2018-10-14T08:41:02Z</time>
      </trkpt>
      <trkpt lat="46.41745" lon="5.73375">
        <ele>660.08</ele>
        <time>2018-10-14T08:41:19Z</time>
      </trkpt>
      <trkpt lat="46.41756" lon="5.7339">
        <ele>661.04</ele>
        <time>2018-10-14T08:41:35Z</time>
      </trkpt>
      <trkpt lat="46.41765" lon="5.73401">
        <ele>661.52</ele>
        <time>2018-10-14T08:41:47Z</time>
      </trkpt>
      <trkpt lat="46.41767" lon="5.73404">
        <ele>661.52</ele>
        <time>2018-10-14T08:41:50Z</time>
      </trkpt>
      <trkpt lat="46.4177" lon="5.73407">
        <ele>661.52</ele>
        <time>2018-10-14T08:41:54Z</time>
      </trkpt>
      <trkpt lat="46.4179" lon="5.73419">
        <ele>662.01</ele>
        <time>2018-10-14T08:42:12Z</time>
      </trkpt>
      <trkpt lat="46.41809" lon="5.73427">
        <ele>662.97</ele>
        <time>2018-10-14T08:42:30Z</time>
      </trkpt>
      <trkpt lat="46.4183" lon="5.73437">
        <ele>663.93</ele>
        <time>2018-10-14T08:42:48Z</time>
      </trkpt>
      <trkpt lat="46.41843" lon="5.73443">
        <ele>664.41</ele>
        <time>2018-10-14T08:43:01Z</time>
      </trkpt>
      <trkpt lat="46.41862" lon="5.73453">
        <ele>664.41</ele>
        <time>2018-10-14T08:43:20Z</time>
      </trkpt>
      <trkpt lat="46.41881" lon="5.73467">
        <ele>664.89</ele>
        <time>2018-10-14T08:43:38Z</time>
      </trkpt>
      <trkpt lat="46.41896" lon="5.73488">
        <ele>665.37</ele>
        <time>2018-10-14T08:43:56Z</time>
      </trkpt>
      <trkpt lat="46.41909" lon="5.73516">
        <ele>665.85</ele>
        <time>2018-10-14T08:44:16Z</time>
      </trkpt>
      <trkpt lat="46.41917" lon="5.7355">
        <ele>666.81</ele>
        <time>2018-10-14T08:44:37Z</time>
      </trkpt>
      <trkpt lat="46.41918" lon="5.73561">
        <ele>666.81</ele>
        <time>2018-10-14T08:44:48Z</time>
      </trkpt>
      <trkpt lat="46.41916" lon="5.73575">
        <ele>666.81</ele>
        <time>2018-10-14T08:44:58Z</time>
      </trkpt>
      <trkpt lat="46.41913" lon="5.73586">
        <ele>666.81</ele>
        <time>2018-10-14T08:45:13Z</time>
      </trkpt>
      <trkpt lat="46.41914" lon="5.73586">
        <ele>666.81</ele>
        <time>2018-10-14T08:45:30Z</time>
      </trkpt>
      <trkpt lat="46.41913" lon="5.73588">
        <ele>666.81</ele>
        <time>2018-10-14T08:45:36Z</time>
      </trkpt>
      <trkpt lat="46.41913" lon="5.73595">
        <ele>666.81</ele>
        <time>2018-10-14T08:45:48Z</time>
      </trkpt>
      <trkpt lat="46.41912" lon="5.73602">
        <ele>666.81</ele>
        <time>2018-10-14T08:46:05Z</time>
      </trkpt>
      <trkpt lat="46.41911" lon="5.73608">
        <ele>667.29</ele>
        <time>2018-10-14T08:46:18Z</time>
      </trkpt>
      <trkpt lat="46.41908" lon="5.73618">
        <ele>667.29</ele>
        <time>2018-10-14T08:46:29Z</time>
      </trkpt>
      <trkpt lat="46.41901" lon="5.73645">
        <ele>667.29</ele>
        <time>2018-10-14T08:46:47Z</time>
      </trkpt>
      <trkpt lat="46.41903" lon="5.73661">
        <ele>667.29</ele>
        <time>2018-10-14T08:47:00Z</time>
      </trkpt>
      <trkpt lat="46.41906" lon="5.73667">
        <ele>667.77</ele>
        <time>2018-10-14T08:47:05Z</time>
      </trkpt>
      <trkpt lat="46.41909" lon="5.73674">
        <ele>667.77</ele>
        <time>2018-10-14T08:47:12Z</time>
      </trkpt>
      <trkpt lat="46.4191" lon="5.73677">
        <ele>667.77</ele>
        <time>2018-10-14T08:47:14Z</time>
      </trkpt>
      <trkpt lat="46.41921" lon="5.73697">
        <ele>667.77</ele>
        <time>2018-10-14T08:47:31Z</time>
      </trkpt>
      <trkpt lat="46.41924" lon="5.73701">
        <ele>667.77</ele>
        <time>2018-10-14T08:47:36Z</time>
      </trkpt>
      <trkpt lat="46.41931" lon="5.73716">
        <ele>666.33</ele>
        <time>2018-10-14T08:47:48Z</time>
      </trkpt>
      <trkpt lat="46.41932" lon="5.73717">
        <ele>666.33</ele>
        <time>2018-10-14T08:47:51Z</time>
      </trkpt>
      <trkpt lat="46.41936" lon="5.73724">
        <ele>666.33</ele>
        <time>2018-10-14T08:47:58Z</time>
      </trkpt>
      <trkpt lat="46.41949" lon="5.73742">
        <ele>668.25</ele>
        <time>2018-10-14T08:48:15Z</time>
      </trkpt>
      <trkpt lat="46.41959" lon="5.7376">
        <ele>669.22</ele>
        <time>2018-10-14T08:48:30Z</time>
      </trkpt>
      <trkpt lat="46.41965" lon="5.73778">
        <ele>670.66</ele>
        <time>2018-10-14T08:48:45Z</time>
      </trkpt>
      <trkpt lat="46.4197" lon="5.73798">
        <ele>672.58</ele>
        <time>2018-10-14T08:48:59Z</time>
      </trkpt>
      <trkpt lat="46.41977" lon="5.73821">
        <ele>674.02</ele>
        <time>2018-10-14T08:49:16Z</time>
      </trkpt>
      <trkpt lat="46.41983" lon="5.73839">
        <ele>675.94</ele>
        <time>2018-10-14T08:49:30Z</time>
      </trkpt>
      <trkpt lat="46.41989" lon="5.73852">
        <ele>677.39</ele>
        <time>2018-10-14T08:49:46Z</time>
      </trkpt>
      <trkpt lat="46.4199" lon="5.73855">
        <ele>677.87</ele>
        <time>2018-10-14T08:49:58Z</time>
      </trkpt>
      <trkpt lat="46.41993" lon="5.7386">
        <ele>678.35</ele>
        <time>2018-10-14T08:50:13Z</time>
      </trkpt>
      <trkpt lat="46.42" lon="5.73873">
        <ele>680.27</ele>
        <time>2018-10-14T08:50:27Z</time>
      </trkpt>
      <trkpt lat="46.42005" lon="5.73883">
        <ele>681.23</ele>
        <time>2018-10-14T08:50:39Z</time>
      </trkpt>
      <trkpt lat="46.42009" lon="5.73891">
        <ele>681.23</ele>
        <time>2018-10-14T08:50:51Z</time>
      </trkpt>
      <trkpt lat="46.42012" lon="5.73891">
        <ele>681.23</ele>
        <time>2018-10-14T08:51:06Z</time>
      </trkpt>
      <trkpt lat="46.42016" lon="5.73893">
        <ele>681.23</ele>
        <time>2018-10-14T08:51:23Z</time>
      </trkpt>
      <trkpt lat="46.42016" lon="5.73897">
        <ele>681.23</ele>
        <time>2018-10-14T08:51:33Z</time>
      </trkpt>
      <trkpt lat="46.42018" lon="5.739">
        <ele>681.23</ele>
        <time>2018-10-14T08:51:41Z</time>
      </trkpt>
      <trkpt lat="46.42021" lon="5.73906">
        <ele>681.23</ele>
        <time>2018-10-14T08:51:52Z</time>
      </trkpt>
      <trkpt lat="46.42022" lon="5.73906">
        <ele>681.23</ele>
        <time>2018-10-14T08:51:53Z</time>
      </trkpt>
      <trkpt lat="46.42034" lon="5.73908">
        <ele>680.27</ele>
        <time>2018-10-14T08:52:05Z</time>
      </trkpt>
      <trkpt lat="46.42036" lon="5.73908">
        <ele>680.27</ele>
        <time>2018-10-14T08:52:07Z</time>
      </trkpt>
      <trkpt lat="46.42038" lon="5.73906">
        <ele>679.79</ele>
        <time>2018-10-14T08:52:10Z</time>
      </trkpt>
      <trkpt lat="46.42042" lon="5.73908">
        <ele>679.31</ele>
        <time>2018-10-14T08:52:14Z</time>
      </trkpt>
      <trkpt lat="46.42046" lon="5.73906">
        <ele>678.83</ele>
        <time>2018-10-14T08:52:27Z</time>
      </trkpt>
      <trkpt lat="46.42045" lon="5.73906">
        <ele>678.83</ele>
        <time>2018-10-14T08:52:44Z</time>
      </trkpt>
      <trkpt lat="46.42059" lon="5.73904">
        <ele>678.35</ele>
        <time>2018-10-14T08:52:59Z</time>
      </trkpt>
      <trkpt lat="46.42071" lon="5.73906">
        <ele>678.35</ele>
        <time>2018-10-14T08:53:15Z</time>
      </trkpt>
      <trkpt lat="46.42072" lon="5.73908">
        <ele>678.35</ele>
        <time>2018-10-14T08:53:30Z</time>
      </trkpt>
      <trkpt lat="46.42072" lon="5.73907">
        <ele>679.79</ele>
        <time>2018-10-14T08:53:38Z</time>
      </trkpt>
      <trkpt lat="46.42076" lon="5.73906">
        <ele>679.79</ele>
        <time>2018-10-14T08:53:52Z</time>
      </trkpt>
      <trkpt lat="46.42079" lon="5.73904">
        <ele>680.27</ele>
        <time>2018-10-14T08:54:04Z</time>
      </trkpt>
      <trkpt lat="46.4208" lon="5.73902">
        <ele>680.27</ele>
        <time>2018-10-14T08:54:30Z</time>
      </trkpt>
      <trkpt lat="46.42082" lon="5.73903">
        <ele>680.75</ele>
        <time>2018-10-14T08:54:44Z</time>
      </trkpt>
      <trkpt lat="46.4208" lon="5.73905">
        <ele>680.75</ele>
        <time>2018-10-14T08:55:03Z</time>
      </trkpt>
      <trkpt lat="46.42078" lon="5.73904">
        <ele>680.75</ele>
        <time>2018-10-14T08:55:22Z</time>
      </trkpt>
      <trkpt lat="46.4208" lon="5.73903">
        <ele>680.75</ele>
        <time>2018-10-14T08:55:26Z</time>
      </trkpt>
      <trkpt lat="46.42081" lon="5.73899">
        <ele>680.75</ele>
        <time>2018-10-14T08:55:29Z</time>
      </trkpt>
      <trkpt lat="46.42083" lon="5.73888">
        <ele>682.19</ele>
        <time>2018-10-14T08:55:36Z</time>
      </trkpt>
      <trkpt lat="46.42078" lon="5.73872">
        <ele>683.63</ele>
        <time>2018-10-14T08:55:47Z</time>
      </trkpt>
      <trkpt lat="46.42078" lon="5.73871">
        <ele>684.12</ele>
        <time>2018-10-14T08:55:58Z</time>
      </trkpt>
      <trkpt lat="46.42079" lon="5.73873">
        <ele>684.12</ele>
        <time>2018-10-14T08:56:17Z</time>
      </trkpt>
      <trkpt lat="46.42077" lon="5.73871">
        <ele>684.6</ele>
        <time>2018-10-14T08:56:35Z</time>
      </trkpt>
      <trkpt lat="46.42077" lon="5.73871">
        <ele>684.6</ele>
        <time>2018-10-14T08:56:36Z</time>
      </trkpt>
      <trkpt lat="46.42066" lon="5.73858">
        <ele>686.52</ele>
        <time>2018-10-14T08:56:51Z</time>
      </trkpt>
      <trkpt lat="46.42054" lon="5.7384">
        <ele>688.44</ele>
        <time>2018-10-14T08:57:08Z</time>
      </trkpt>
      <trkpt lat="46.42048" lon="5.7382">
        <ele>690.36</ele>
        <time>2018-10-14T08:57:22Z</time>
      </trkpt>
      <trkpt lat="46.42049" lon="5.73814">
        <ele>690.84</ele>
        <time>2018-10-14T08:57:26Z</time>
      </trkpt>
      <trkpt lat="46.42051" lon="5.73814">
        <ele>691.33</ele>
        <time>2018-10-14T08:57:28Z</time>
      </trkpt>
      <trkpt lat="46.42063" lon="5.73824">
        <ele>692.77</ele>
        <time>2018-10-14T08:57:43Z</time>
      </trkpt>
      <trkpt lat="46.42074" lon="5.73835">
        <ele>694.69</ele>
        <time>2018-10-14T08:57:57Z</time>
      </trkpt>
      <trkpt lat="46.42081" lon="5.73845">
        <ele>695.65</ele>
        <time>2018-10-14T08:58:09Z</time>
      </trkpt>
      <trkpt lat="46.42083" lon="5.73848">
        <ele>696.61</ele>
        <time>2018-10-14T08:58:14Z</time>
      </trkpt>
      <trkpt lat="46.42094" lon="5.7386">
        <ele>697.57</ele>
        <time>2018-10-14T08:58:29Z</time>
      </trkpt>
      <trkpt lat="46.42097" lon="5.73863">
        <ele>698.05</ele>
        <time>2018-10-14T08:58:46Z</time>
      </trkpt>
      <trkpt lat="46.42112" lon="5.73879">
        <ele>700.46</ele>
        <time>2018-10-14T08:59:03Z</time>
      </trkpt>
      <trkpt lat="46.42126" lon="5.73893">
        <ele>702.38</ele>
        <time>2018-10-14T08:59:19Z</time>
      </trkpt>
      <trkpt lat="46.42138" lon="5.73902">
        <ele>704.3</ele>
        <time>2018-10-14T08:59:33Z</time>
      </trkpt>
      <trkpt lat="46.42141" lon="5.73904">
        <ele>704.78</ele>
        <time>2018-10-14T08:59:36Z</time>
      </trkpt>
      <trkpt lat="46.42157" lon="5.73915">
        <ele>705.75</ele>
        <time>2018-10-14T08:59:53Z</time>
      </trkpt>
      <trkpt lat="46.42173" lon="5.73934">
        <ele>707.67</ele>
        <time>2018-10-14T09:00:12Z</time>
      </trkpt>
      <trkpt lat="46.42186" lon="5.73952">
        <ele>710.07</ele>
        <time>2018-10-14T09:00:28Z</time>
      </trkpt>
      <trkpt lat="46.42193" lon="5.73962">
        <ele>711.51</ele>
        <time>2018-10-14T09:00:40Z</time>
      </trkpt>
      <trkpt lat="46.42201" lon="5.73973">
        <ele>712.95</ele>
        <time>2018-10-14T09:00:51Z</time>
      </trkpt>
      <trkpt lat="46.42203" lon="5.73977">
        <ele>712.95</ele>
        <time>2018-10-14T09:00:55Z</time>
      </trkpt>
      <trkpt lat="46.42214" lon="5.73995">
        <ele>714.88</ele>
        <time>2018-10-14T09:01:11Z</time>
      </trkpt>
      <trkpt lat="46.42227" lon="5.74015">
        <ele>716.8</ele>
        <time>2018-10-14T09:01:27Z</time>
      </trkpt>
      <trkpt lat="46.42246" lon="5.7403">
        <ele>717.28</ele>
        <time>2018-10-14T09:01:45Z</time>
      </trkpt>
      <trkpt lat="46.42266" lon="5.74051">
        <ele>717.76</ele>
        <time>2018-10-14T09:02:02Z</time>
      </trkpt>
      <trkpt lat="46.42281" lon="5.74079">
        <ele>718.72</ele>
        <time>2018-10-14T09:02:19Z</time>
      </trkpt>
      <trkpt lat="46.42292" lon="5.74113">
        <ele>720.16</ele>
        <time>2018-10-14T09:02:41Z</time>
      </trkpt>
      <trkpt lat="46.42302" lon="5.74138">
        <ele>720.65</ele>
        <time>2018-10-14T09:02:58Z</time>
      </trkpt>
      <trkpt lat="46.42306" lon="5.74145">
        <ele>720.65</ele>
        <time>2018-10-14T09:03:04Z</time>
      </trkpt>
      <trkpt lat="46.42316" lon="5.74165">
        <ele>721.13</ele>
        <time>2018-10-14T09:03:18Z</time>
      </trkpt>
      <trkpt lat="46.42321" lon="5.74175">
        <ele>721.13</ele>
        <time>2018-10-14T09:03:25Z</time>
      </trkpt>
      <trkpt lat="46.42323" lon="5.74197">
        <ele>721.61</ele>
        <time>2018-10-14T09:03:41Z</time>
      </trkpt>
      <trkpt lat="46.42324" lon="5.74205">
        <ele>721.61</ele>
        <time>2018-10-14T09:03:53Z</time>
      </trkpt>
      <trkpt lat="46.42327" lon="5.74209">
        <ele>721.61</ele>
        <time>2018-10-14T09:04:09Z</time>
      </trkpt>
      <trkpt lat="46.42329" lon="5.7421">
        <ele>721.61</ele>
        <time>2018-10-14T09:04:21Z</time>
      </trkpt>
      <trkpt lat="46.4233" lon="5.74212">
        <ele>721.61</ele>
        <time>2018-10-14T09:04:45Z</time>
      </trkpt>
      <trkpt lat="46.4233" lon="5.74211">
        <ele>721.61</ele>
        <time>2018-10-14T09:05:06Z</time>
      </trkpt>
      <trkpt lat="46.42328" lon="5.74211">
        <ele>721.61</ele>
        <time>2018-10-14T09:05:24Z</time>
      </trkpt>
      <trkpt lat="46.42327" lon="5.74211">
        <ele>721.61</ele>
        <time>2018-10-14T09:05:42Z</time>
      </trkpt>
      <trkpt lat="46.42328" lon="5.7421">
        <ele>721.61</ele>
        <time>2018-10-14T09:05:55Z</time>
      </trkpt>
      <trkpt lat="46.42327" lon="5.74208">
        <ele>721.61</ele>
        <time>2018-10-14T09:06:06Z</time>
      </trkpt>
      <trkpt lat="46.42328" lon="5.74208">
        <ele>721.61</ele>
        <time>2018-10-14T09:06:07Z</time>
      </trkpt>
      <trkpt lat="46.42331" lon="5.74214">
        <ele>722.09</ele>
        <time>2018-10-14T09:06:18Z</time>
      </trkpt>
      <trkpt lat="46.42334" lon="5.74223">
        <ele>722.09</ele>
        <time>2018-10-14T09:06:31Z</time>
      </trkpt>
      <trkpt lat="46.42336" lon="5.74225">
        <ele>723.05</ele>
        <time>2018-10-14T09:06:47Z</time>
      </trkpt>
      <trkpt lat="46.42339" lon="5.74229">
        <ele>723.05</ele>
        <time>2018-10-14T09:06:58Z</time>
      </trkpt>
      <trkpt lat="46.42339" lon="5.74229">
        <ele>723.05</ele>
        <time>2018-10-14T09:06:59Z</time>
      </trkpt>
      <trkpt lat="46.42338" lon="5.74234">
        <ele>723.53</ele>
        <time>2018-10-14T09:07:11Z</time>
      </trkpt>
      <trkpt lat="46.42336" lon="5.7424">
        <ele>723.53</ele>
        <time>2018-10-14T09:07:25Z</time>
      </trkpt>
      <trkpt lat="46.42338" lon="5.74238">
        <ele>723.53</ele>
        <time>2018-10-14T09:07:44Z</time>
      </trkpt>
      <trkpt lat="46.42338" lon="5.74239">
        <ele>723.53</ele>
        <time>2018-10-14T09:07:57Z</time>
      </trkpt>
      <trkpt lat="46.42337" lon="5.74238">
        <ele>723.53</ele>
        <time>2018-10-14T09:07:59Z</time>
      </trkpt>
      <trkpt lat="46.42334" lon="5.74238">
        <ele>723.53</ele>
        <time>2018-10-14T09:08:12Z</time>
      </trkpt>
      <trkpt lat="46.42332" lon="5.74237">
        <ele>723.53</ele>
        <time>2018-10-14T09:08:30Z</time>
      </trkpt>
      <trkpt lat="46.42332" lon="5.74237">
        <ele>723.53</ele>
        <time>2018-10-14T09:08:43Z</time>
      </trkpt>
      <trkpt lat="46.42329" lon="5.74234">
        <ele>723.53</ele>
        <time>2018-10-14T09:09:00Z</time>
      </trkpt>
      <trkpt lat="46.42331" lon="5.74236">
        <ele>723.53</ele>
        <time>2018-10-14T09:09:20Z</time>
      </trkpt>
      <trkpt lat="46.42332" lon="5.74236">
        <ele>723.53</ele>
        <time>2018-10-14T09:09:36Z</time>
      </trkpt>
      <trkpt lat="46.42333" lon="5.74238">
        <ele>723.53</ele>
        <time>2018-10-14T09:09:55Z</time>
      </trkpt>
      <trkpt lat="46.42329" lon="5.74238">
        <ele>723.53</ele>
        <time>2018-10-14T09:10:18Z</time>
      </trkpt>
      <trkpt lat="46.42331" lon="5.74238">
        <ele>723.53</ele>
        <time>2018-10-14T09:10:35Z</time>
      </trkpt>
      <trkpt lat="46.42333" lon="5.74238">
        <ele>723.53</ele>
        <time>2018-10-14T09:10:57Z</time>
      </trkpt>
      <trkpt lat="46.42337" lon="5.74236">
        <ele>723.53</ele>
        <time>2018-10-14T09:11:07Z</time>
      </trkpt>
      <trkpt lat="46.42339" lon="5.74233">
        <ele>723.53</ele>
        <time>2018-10-14T09:11:18Z</time>
      </trkpt>
      <trkpt lat="46.4234" lon="5.74227">
        <ele>723.53</ele>
        <time>2018-10-14T09:11:27Z</time>
      </trkpt>
      <trkpt lat="46.42338" lon="5.74218">
        <ele>723.53</ele>
        <time>2018-10-14T09:11:39Z</time>
      </trkpt>
      <trkpt lat="46.42337" lon="5.74217">
        <ele>723.53</ele>
        <time>2018-10-14T09:11:54Z</time>
      </trkpt>
      <trkpt lat="46.42335" lon="5.7422">
        <ele>723.53</ele>
        <time>2018-10-14T09:12:01Z</time>
      </trkpt>
      <trkpt lat="46.42332" lon="5.74214">
        <ele>722.57</ele>
        <time>2018-10-14T09:12:11Z</time>
      </trkpt>
      <trkpt lat="46.42329" lon="5.74207">
        <ele>721.61</ele>
        <time>2018-10-14T09:12:22Z</time>
      </trkpt>
      <trkpt lat="46.42331" lon="5.74205">
        <ele>721.61</ele>
        <time>2018-10-14T09:12:25Z</time>
      </trkpt>
      <trkpt lat="46.42336" lon="5.74201">
        <ele>721.61</ele>
        <time>2018-10-14T09:12:31Z</time>
      </trkpt>
      <trkpt lat="46.42343" lon="5.74199">
        <ele>723.05</ele>
        <time>2018-10-14T09:12:38Z</time>
      </trkpt>
      <trkpt lat="46.42344" lon="5.742">
        <ele>723.05</ele>
        <time>2018-10-14T09:12:40Z</time>
      </trkpt>
      <trkpt lat="46.4235" lon="5.74199">
        <ele>723.53</ele>
        <time>2018-10-14T09:12:45Z</time>
      </trkpt>
      <trkpt lat="46.42352" lon="5.74199">
        <ele>723.53</ele>
        <time>2018-10-14T09:12:51Z</time>
      </trkpt>
      <trkpt lat="46.42354" lon="5.74202">
        <ele>724.01</ele>
        <time>2018-10-14T09:12:54Z</time>
      </trkpt>
      <trkpt lat="46.42365" lon="5.74208">
        <ele>724.97</ele>
        <time>2018-10-14T09:13:07Z</time>
      </trkpt>
      <trkpt lat="46.42382" lon="5.74218">
        <ele>726.41</ele>
        <time>2018-10-14T09:13:24Z</time>
      </trkpt>
      <trkpt lat="46.42401" lon="5.7423">
        <ele>726.89</ele>
        <time>2018-10-14T09:13:43Z</time>
      </trkpt>
      <trkpt lat="46.42409" lon="5.7424">
        <ele>727.86</ele>
        <time>2018-10-14T09:13:55Z</time>
      </trkpt>
      <trkpt lat="46.42427" lon="5.74258">
        <ele>729.78</ele>
        <time>2018-10-14T09:14:14Z</time>
      </trkpt>
      <trkpt lat="46.42444" lon="5.74267">
        <ele>730.74</ele>
        <time>2018-10-14T09:14:30Z</time>
      </trkpt>
      <trkpt lat="46.42453" lon="5.74272">
        <ele>731.22</ele>
        <time>2018-10-14T09:14:44Z</time>
      </trkpt>
      <trkpt lat="46.4246" lon="5.74278">
        <ele>731.7</ele>
        <time>2018-10-14T09:14:56Z</time>
      </trkpt>
      <trkpt lat="46.42469" lon="5.74288">
        <ele>732.18</ele>
        <time>2018-10-14T09:15:12Z</time>
      </trkpt>
      <trkpt lat="46.42471" lon="5.74289">
        <ele>732.18</ele>
        <time>2018-10-14T09:15:28Z</time>
      </trkpt>
      <trkpt lat="46.42474" lon="5.74294">
        <ele>732.66</ele>
        <time>2018-10-14T09:15:39Z</time>
      </trkpt>
      <trkpt lat="46.42477" lon="5.74299">
        <ele>732.66</ele>
        <time>2018-10-14T09:15:50Z</time>
      </trkpt>
      <trkpt lat="46.42489" lon="5.74313">
        <ele>732.66</ele>
        <time>2018-10-14T09:16:06Z</time>
      </trkpt>
      <trkpt lat="46.42506" lon="5.74332">
        <ele>733.14</ele>
        <time>2018-10-14T09:16:26Z</time>
      </trkpt>
      <trkpt lat="46.42518" lon="5.7435">
        <ele>733.14</ele>
        <time>2018-10-14T09:16:43Z</time>
      </trkpt>
      <trkpt lat="46.42525" lon="5.7437">
        <ele>733.14</ele>
        <time>2018-10-14T09:16:58Z</time>
      </trkpt>
      <trkpt lat="46.42533" lon="5.74391">
        <ele>733.14</ele>
        <time>2018-10-14T09:17:14Z</time>
      </trkpt>
      <trkpt lat="46.42534" lon="5.74392">
        <ele>733.14</ele>
        <time>2018-10-14T09:17:15Z</time>
      </trkpt>
      <trkpt lat="46.42543" lon="5.74405">
        <ele>733.14</ele>
        <time>2018-10-14T09:17:29Z</time>
      </trkpt>
      <trkpt lat="46.42557" lon="5.74414">
        <ele>733.62</ele>
        <time>2018-10-14T09:17:42Z</time>
      </trkpt>
      <trkpt lat="46.42569" lon="5.74424">
        <ele>733.62</ele>
        <time>2018-10-14T09:17:55Z</time>
      </trkpt>
      <trkpt lat="46.42578" lon="5.74426">
        <ele>733.62</ele>
        <time>2018-10-14T09:18:06Z</time>
      </trkpt>
      <trkpt lat="46.42581" lon="5.74431">
        <ele>733.62</ele>
        <time>2018-10-14T09:18:22Z</time>
      </trkpt>
      <trkpt lat="46.42582" lon="5.74436">
        <ele>734.1</ele>
        <time>2018-10-14T09:18:53Z</time>
      </trkpt>
      <trkpt lat="46.42583" lon="5.74442">
        <ele>734.1</ele>
        <time>2018-10-14T09:19:07Z</time>
      </trkpt>
      <trkpt lat="46.42584" lon="5.74444">
        <ele>732.66</ele>
        <time>2018-10-14T09:19:15Z</time>
      </trkpt>
      <trkpt lat="46.42585" lon="5.74447">
        <ele>732.18</ele>
        <time>2018-10-14T09:19:19Z</time>
      </trkpt>
      <trkpt lat="46.42586" lon="5.74456">
        <ele>731.7</ele>
        <time>2018-10-14T09:19:33Z</time>
      </trkpt>
      <trkpt lat="46.42588" lon="5.74459">
        <ele>731.7</ele>
        <time>2018-10-14T09:19:54Z</time>
      </trkpt>
      <trkpt lat="46.42583" lon="5.74464">
        <ele>733.14</ele>
        <time>2018-10-14T09:20:05Z</time>
      </trkpt>
      <trkpt lat="46.42583" lon="5.74465">
        <ele>733.14</ele>
        <time>2018-10-14T09:20:06Z</time>
      </trkpt>
      <trkpt lat="46.42579" lon="5.74468">
        <ele>734.1</ele>
        <time>2018-10-14T09:20:18Z</time>
      </trkpt>
      <trkpt lat="46.42572" lon="5.74478">
        <ele>736.03</ele>
        <time>2018-10-14T09:20:30Z</time>
      </trkpt>
      <trkpt lat="46.42563" lon="5.74496">
        <ele>736.51</ele>
        <time>2018-10-14T09:20:46Z</time>
      </trkpt>
      <trkpt lat="46.42556" lon="5.74518">
        <ele>736.99</ele>
        <time>2018-10-14T09:21:01Z</time>
      </trkpt>
      <trkpt lat="46.4255" lon="5.74534">
        <ele>736.99</ele>
        <time>2018-10-14T09:21:15Z</time>
      </trkpt>
      <trkpt lat="46.42547" lon="5.74545">
        <ele>737.47</ele>
        <time>2018-10-14T09:21:27Z</time>
      </trkpt>
      <trkpt lat="46.42546" lon="5.74552">
        <ele>737.47</ele>
        <time>2018-10-14T09:21:39Z</time>
      </trkpt>
      <trkpt lat="46.42551" lon="5.7458">
        <ele>737.95</ele>
        <time>2018-10-14T09:22:05Z</time>
      </trkpt>
      <trkpt lat="46.42558" lon="5.74581">
        <ele>738.43</ele>
        <time>2018-10-14T09:22:19Z</time>
      </trkpt>
      <trkpt lat="46.42578" lon="5.74587">
        <ele>738.43</ele>
        <time>2018-10-14T09:22:33Z</time>
      </trkpt>
      <trkpt lat="46.42588" lon="5.74577">
        <ele>737.95</ele>
        <time>2018-10-14T09:22:45Z</time>
      </trkpt>
      <trkpt lat="46.42596" lon="5.74566">
        <ele>737.95</ele>
        <time>2018-10-14T09:23:00Z</time>
      </trkpt>
      <trkpt lat="46.42594" lon="5.7457">
        <ele>738.43</ele>
        <time>2018-10-14T09:23:22Z</time>
      </trkpt>
      <trkpt lat="46.42595" lon="5.74567">
        <ele>738.43</ele>
        <time>2018-10-14T09:23:34Z</time>
      </trkpt>
      <trkpt lat="46.42596" lon="5.74562">
        <ele>738.91</ele>
        <time>2018-10-14T09:23:51Z</time>
      </trkpt>
      <trkpt lat="46.426" lon="5.74563">
        <ele>738.91</ele>
        <time>2018-10-14T09:24:03Z</time>
      </trkpt>
      <trkpt lat="46.42603" lon="5.74565">
        <ele>738.91</ele>
        <time>2018-10-14T09:24:17Z</time>
      </trkpt>
      <trkpt lat="46.42607" lon="5.74565">
        <ele>739.39</ele>
        <time>2018-10-14T09:24:50Z</time>
      </trkpt>
      <trkpt lat="46.42607" lon="5.74562">
        <ele>739.87</ele>
        <time>2018-10-14T09:25:16Z</time>
      </trkpt>
      <trkpt lat="46.42609" lon="5.74554">
        <ele>739.87</ele>
        <time>2018-10-14T09:25:29Z</time>
      </trkpt>
      <trkpt lat="46.4261" lon="5.74546">
        <ele>739.87</ele>
        <time>2018-10-14T09:25:49Z</time>
      </trkpt>
      <trkpt lat="46.42613" lon="5.74543">
        <ele>739.87</ele>
        <time>2018-10-14T09:26:05Z</time>
      </trkpt>
      <trkpt lat="46.42617" lon="5.74538">
        <ele>739.87</ele>
        <time>2018-10-14T09:26:19Z</time>
      </trkpt>
      <trkpt lat="46.42618" lon="5.74537">
        <ele>741.31</ele>
        <time>2018-10-14T09:26:27Z</time>
      </trkpt>
      <trkpt lat="46.42623" lon="5.74529">
        <ele>742.28</ele>
        <time>2018-10-14T09:26:39Z</time>
      </trkpt>
      <trkpt lat="46.42631" lon="5.74527">
        <ele>742.28</ele>
        <time>2018-10-14T09:26:53Z</time>
      </trkpt>
      <trkpt lat="46.42638" lon="5.74524">
        <ele>742.76</ele>
        <time>2018-10-14T09:27:06Z</time>
      </trkpt>
      <trkpt lat="46.42648" lon="5.74521">
        <ele>742.76</ele>
        <time>2018-10-14T09:27:19Z</time>
      </trkpt>
      <trkpt lat="46.42647" lon="5.7451">
        <ele>743.72</ele>
        <time>2018-10-14T09:27:33Z</time>
      </trkpt>
      <trkpt lat="46.42643" lon="5.74491">
        <ele>743.72</ele>
        <time>2018-10-14T09:27:49Z</time>
      </trkpt>
      <trkpt lat="46.42642" lon="5.74489">
        <ele>742.28</ele>
        <time>2018-10-14T09:27:51Z</time>
      </trkpt>
      <trkpt lat="46.42635" lon="5.7447">
        <ele>741.79</ele>
        <time>2018-10-14T09:28:06Z</time>
      </trkpt>
      <trkpt lat="46.42631" lon="5.74467">
        <ele>741.79</ele>
        <time>2018-10-14T09:28:18Z</time>
      </trkpt>
      <trkpt lat="46.4263" lon="5.74466">
        <ele>741.79</ele>
        <time>2018-10-14T09:28:19Z</time>
      </trkpt>
      <trkpt lat="46.42617" lon="5.74456">
        <ele>741.31</ele>
        <time>2018-10-14T09:28:36Z</time>
      </trkpt>
      <trkpt lat="46.42605" lon="5.7445">
        <ele>740.83</ele>
        <time>2018-10-14T09:28:50Z</time>
      </trkpt>
      <trkpt lat="46.42595" lon="5.74442">
        <ele>739.87</ele>
        <time>2018-10-14T09:29:07Z</time>
      </trkpt>
      <trkpt lat="46.42595" lon="5.74443">
        <ele>740.35</ele>
        <time>2018-10-14T09:29:27Z</time>
      </trkpt>
      <trkpt lat="46.42585" lon="5.74434">
        <ele>739.87</ele>
        <time>2018-10-14T09:29:44Z</time>
      </trkpt>
      <trkpt lat="46.42576" lon="5.74431">
        <ele>739.87</ele>
        <time>2018-10-14T09:29:58Z</time>
      </trkpt>
      <trkpt lat="46.42564" lon="5.74425">
        <ele>739.87</ele>
        <time>2018-10-14T09:30:12Z</time>
      </trkpt>
      <trkpt lat="46.4255" lon="5.74412">
        <ele>739.87</ele>
        <time>2018-10-14T09:30:29Z</time>
      </trkpt>
      <trkpt lat="46.42542" lon="5.74398">
        <ele>739.87</ele>
        <time>2018-10-14T09:30:43Z</time>
      </trkpt>
      <trkpt lat="46.42531" lon="5.74374">
        <ele>739.87</ele>
        <time>2018-10-14T09:31:01Z</time>
      </trkpt>
      <trkpt lat="46.42521" lon="5.74351">
        <ele>740.35</ele>
        <time>2018-10-14T09:31:18Z</time>
      </trkpt>
      <trkpt lat="46.42509" lon="5.74333">
        <ele>740.35</ele>
        <time>2018-10-14T09:31:35Z</time>
      </trkpt>
      <trkpt lat="46.42494" lon="5.74314">
        <ele>739.87</ele>
        <time>2018-10-14T09:31:52Z</time>
      </trkpt>
      <trkpt lat="46.42483" lon="5.74303">
        <ele>739.87</ele>
        <time>2018-10-14T09:32:04Z</time>
      </trkpt>
      <trkpt lat="46.42478" lon="5.74299">
        <ele>739.87</ele>
        <time>2018-10-14T09:32:20Z</time>
      </trkpt>
      <trkpt lat="46.42468" lon="5.74288">
        <ele>739.87</ele>
        <time>2018-10-14T09:32:37Z</time>
      </trkpt>
      <trkpt lat="46.4245" lon="5.74271">
        <ele>739.39</ele>
        <time>2018-10-14T09:32:59Z</time>
      </trkpt>
      <trkpt lat="46.42449" lon="5.74271">
        <ele>738.91</ele>
        <time>2018-10-14T09:33:00Z</time>
      </trkpt>
      <trkpt lat="46.42444" lon="5.74272">
        <ele>738.91</ele>
        <time>2018-10-14T09:33:05Z</time>
      </trkpt>
      <trkpt lat="46.42437" lon="5.74276">
        <ele>738.43</ele>
        <time>2018-10-14T09:33:16Z</time>
      </trkpt>
      <trkpt lat="46.42422" lon="5.74296">
        <ele>737.95</ele>
        <time>2018-10-14T09:33:34Z</time>
      </trkpt>
      <trkpt lat="46.42414" lon="5.74317">
        <ele>736.99</ele>
        <time>2018-10-14T09:33:51Z</time>
      </trkpt>
      <trkpt lat="46.42409" lon="5.74335">
        <ele>735.55</ele>
        <time>2018-10-14T09:34:06Z</time>
      </trkpt>
      <trkpt lat="46.42404" lon="5.7435">
        <ele>735.07</ele>
        <time>2018-10-14T09:34:20Z</time>
      </trkpt>
      <trkpt lat="46.42405" lon="5.74357">
        <ele>734.58</ele>
        <time>2018-10-14T09:34:37Z</time>
      </trkpt>
      <trkpt lat="46.42403" lon="5.74354">
        <ele>735.07</ele>
        <time>2018-10-14T09:35:01Z</time>
      </trkpt>
      <trkpt lat="46.42405" lon="5.74354">
        <ele>735.07</ele>
        <time>2018-10-14T09:35:28Z</time>
      </trkpt>
      <trkpt lat="46.42405" lon="5.74357">
        <ele>734.58</ele>
        <time>2018-10-14T09:35:48Z</time>
      </trkpt>
      <trkpt lat="46.42406" lon="5.74358">
        <ele>734.58</ele>
        <time>2018-10-14T09:36:11Z</time>
      </trkpt>
      <trkpt lat="46.42404" lon="5.74364">
        <ele>734.58</ele>
        <time>2018-10-14T09:36:19Z</time>
      </trkpt>
      <trkpt lat="46.42402" lon="5.7437">
        <ele>734.58</ele>
        <time>2018-10-14T09:36:24Z</time>
      </trkpt>
      <trkpt lat="46.42392" lon="5.74381">
        <ele>736.99</ele>
        <time>2018-10-14T09:36:36Z</time>
      </trkpt>
      <trkpt lat="46.42376" lon="5.7439">
        <ele>738.91</ele>
        <time>2018-10-14T09:36:52Z</time>
      </trkpt>
      <trkpt lat="46.4237" lon="5.74395">
        <ele>739.39</ele>
        <time>2018-10-14T09:36:58Z</time>
      </trkpt>
      <trkpt lat="46.42351" lon="5.74414">
        <ele>739.39</ele>
        <time>2018-10-14T09:37:17Z</time>
      </trkpt>
      <trkpt lat="46.42338" lon="5.74428">
        <ele>739.87</ele>
        <time>2018-10-14T09:37:33Z</time>
      </trkpt>
      <trkpt lat="46.42337" lon="5.74431">
        <ele>740.35</ele>
        <time>2018-10-14T09:37:36Z</time>
      </trkpt>
      <trkpt lat="46.42335" lon="5.74445">
        <ele>741.79</ele>
        <time>2018-10-14T09:37:50Z</time>
      </trkpt>
      <trkpt lat="46.42332" lon="5.74457">
        <ele>743.72</ele>
        <time>2018-10-14T09:38:02Z</time>
      </trkpt>
      <trkpt lat="46.42331" lon="5.7447">
        <ele>745.16</ele>
        <time>2018-10-14T09:38:15Z</time>
      </trkpt>
      <trkpt lat="46.4233" lon="5.7448">
        <ele>746.6</ele>
        <time>2018-10-14T09:38:25Z</time>
      </trkpt>
      <trkpt lat="46.42326" lon="5.7449">
        <ele>747.56</ele>
        <time>2018-10-14T09:38:37Z</time>
      </trkpt>
      <trkpt lat="46.42323" lon="5.74503">
        <ele>749.49</ele>
        <time>2018-10-14T09:38:50Z</time>
      </trkpt>
      <trkpt lat="46.4232" lon="5.74514">
        <ele>751.41</ele>
        <time>2018-10-14T09:39:06Z</time>
      </trkpt>
      <trkpt lat="46.42321" lon="5.74527">
        <ele>753.33</ele>
        <time>2018-10-14T09:39:20Z</time>
      </trkpt>
      <trkpt lat="46.42324" lon="5.7454">
        <ele>754.77</ele>
        <time>2018-10-14T09:39:35Z</time>
      </trkpt>
      <trkpt lat="46.42328" lon="5.74549">
        <ele>755.73</ele>
        <time>2018-10-14T09:39:48Z</time>
      </trkpt>
      <trkpt lat="46.42332" lon="5.74555">
        <ele>756.69</ele>
        <time>2018-10-14T09:40:00Z</time>
      </trkpt>
      <trkpt lat="46.42339" lon="5.74568">
        <ele>758.14</ele>
        <time>2018-10-14T09:40:16Z</time>
      </trkpt>
      <trkpt lat="46.42344" lon="5.74578">
        <ele>759.1</ele>
        <time>2018-10-14T09:40:30Z</time>
      </trkpt>
      <trkpt lat="46.42346" lon="5.7459">
        <ele>760.54</ele>
        <time>2018-10-14T09:40:42Z</time>
      </trkpt>
      <trkpt lat="46.42347" lon="5.74601">
        <ele>761.5</ele>
        <time>2018-10-14T09:40:54Z</time>
      </trkpt>
      <trkpt lat="46.42347" lon="5.74615">
        <ele>763.42</ele>
        <time>2018-10-14T09:41:09Z</time>
      </trkpt>
      <trkpt lat="46.42344" lon="5.74627">
        <ele>764.39</ele>
        <time>2018-10-14T09:41:22Z</time>
      </trkpt>
      <trkpt lat="46.4234" lon="5.74636">
        <ele>764.87</ele>
        <time>2018-10-14T09:41:34Z</time>
      </trkpt>
      <trkpt lat="46.42337" lon="5.74646">
        <ele>766.31</ele>
        <time>2018-10-14T09:41:45Z</time>
      </trkpt>
      <trkpt lat="46.42338" lon="5.74658">
        <ele>767.75</ele>
        <time>2018-10-14T09:41:57Z</time>
      </trkpt>
      <trkpt lat="46.4234" lon="5.74666">
        <ele>769.19</ele>
        <time>2018-10-14T09:42:08Z</time>
      </trkpt>
      <trkpt lat="46.42343" lon="5.7468">
        <ele>770.63</ele>
        <time>2018-10-14T09:42:21Z</time>
      </trkpt>
      <trkpt lat="46.42349" lon="5.7469">
        <ele>772.56</ele>
        <time>2018-10-14T09:42:32Z</time>
      </trkpt>
      <trkpt lat="46.42356" lon="5.74702">
        <ele>774.96</ele>
        <time>2018-10-14T09:42:49Z</time>
      </trkpt>
      <trkpt lat="46.42364" lon="5.74715">
        <ele>776.4</ele>
        <time>2018-10-14T09:43:04Z</time>
      </trkpt>
      <trkpt lat="46.42372" lon="5.74724">
        <ele>778.81</ele>
        <time>2018-10-14T09:43:17Z</time>
      </trkpt>
      <trkpt lat="46.42381" lon="5.74732">
        <ele>779.77</ele>
        <time>2018-10-14T09:43:31Z</time>
      </trkpt>
      <trkpt lat="46.42392" lon="5.74741">
        <ele>781.21</ele>
        <time>2018-10-14T09:43:45Z</time>
      </trkpt>
      <trkpt lat="46.42398" lon="5.74749">
        <ele>782.17</ele>
        <time>2018-10-14T09:43:57Z</time>
      </trkpt>
      <trkpt lat="46.42409" lon="5.74757">
        <ele>783.13</ele>
        <time>2018-10-14T09:44:10Z</time>
      </trkpt>
      <trkpt lat="46.42416" lon="5.74763">
        <ele>784.09</ele>
        <time>2018-10-14T09:44:22Z</time>
      </trkpt>
      <trkpt lat="46.42424" lon="5.74775">
        <ele>785.05</ele>
        <time>2018-10-14T09:44:35Z</time>
      </trkpt>
      <trkpt lat="46.42432" lon="5.74786">
        <ele>786.98</ele>
        <time>2018-10-14T09:44:49Z</time>
      </trkpt>
      <trkpt lat="46.42435" lon="5.74794">
        <ele>787.94</ele>
        <time>2018-10-14T09:45:01Z</time>
      </trkpt>
      <trkpt lat="46.42442" lon="5.74806">
        <ele>789.86</ele>
        <time>2018-10-14T09:45:14Z</time>
      </trkpt>
      <trkpt lat="46.42448" lon="5.74815">
        <ele>790.82</ele>
        <time>2018-10-14T09:45:27Z</time>
      </trkpt>
      <trkpt lat="46.42454" lon="5.74824">
        <ele>792.26</ele>
        <time>2018-10-14T09:45:40Z</time>
      </trkpt>
      <trkpt lat="46.42455" lon="5.74827">
        <ele>792.74</ele>
        <time>2018-10-14T09:45:44Z</time>
      </trkpt>
      <trkpt lat="46.42461" lon="5.74839">
        <ele>793.71</ele>
        <time>2018-10-14T09:45:58Z</time>
      </trkpt>
      <trkpt lat="46.42462" lon="5.74842">
        <ele>793.71</ele>
        <time>2018-10-14T09:46:17Z</time>
      </trkpt>
      <trkpt lat="46.42469" lon="5.74854">
        <ele>795.63</ele>
        <time>2018-10-14T09:46:31Z</time>
      </trkpt>
      <trkpt lat="46.42475" lon="5.74867">
        <ele>797.55</ele>
        <time>2018-10-14T09:46:45Z</time>
      </trkpt>
      <trkpt lat="46.4248" lon="5.74874">
        <ele>798.99</ele>
        <time>2018-10-14T09:46:56Z</time>
      </trkpt>
      <trkpt lat="46.42484" lon="5.74885">
        <ele>800.44</ele>
        <time>2018-10-14T09:47:10Z</time>
      </trkpt>
      <trkpt lat="46.42488" lon="5.74894">
        <ele>801.88</ele>
        <time>2018-10-14T09:47:23Z</time>
      </trkpt>
      <trkpt lat="46.42493" lon="5.74906">
        <ele>803.32</ele>
        <time>2018-10-14T09:47:35Z</time>
      </trkpt>
      <trkpt lat="46.42498" lon="5.74916">
        <ele>805.24</ele>
        <time>2018-10-14T09:47:47Z</time>
      </trkpt>
      <trkpt lat="46.42503" lon="5.74928">
        <ele>807.64</ele>
        <time>2018-10-14T09:48:01Z</time>
      </trkpt>
      <trkpt lat="46.42505" lon="5.74934">
        <ele>808.13</ele>
        <time>2018-10-14T09:48:21Z</time>
      </trkpt>
      <trkpt lat="46.42506" lon="5.74943">
        <ele>810.05</ele>
        <time>2018-10-14T09:48:35Z</time>
      </trkpt>
      <trkpt lat="46.42508" lon="5.7496">
        <ele>811.49</ele>
        <time>2018-10-14T09:48:50Z</time>
      </trkpt>
      <trkpt lat="46.42509" lon="5.74974">
        <ele>812.93</ele>
        <time>2018-10-14T09:49:04Z</time>
      </trkpt>
      <trkpt lat="46.42508" lon="5.74984">
        <ele>814.85</ele>
        <time>2018-10-14T09:49:15Z</time>
      </trkpt>
      <trkpt lat="46.42508" lon="5.74987">
        <ele>815.82</ele>
        <time>2018-10-14T09:49:19Z</time>
      </trkpt>
      <trkpt lat="46.42506" lon="5.74995">
        <ele>817.26</ele>
        <time>2018-10-14T09:49:32Z</time>
      </trkpt>
      <trkpt lat="46.42502" lon="5.75">
        <ele>818.22</ele>
        <time>2018-10-14T09:49:45Z</time>
      </trkpt>
      <trkpt lat="46.42498" lon="5.75005">
        <ele>819.66</ele>
        <time>2018-10-14T09:49:58Z</time>
      </trkpt>
      <trkpt lat="46.42492" lon="5.75004">
        <ele>821.1</ele>
        <time>2018-10-14T09:50:13Z</time>
      </trkpt>
      <trkpt lat="46.42483" lon="5.74997">
        <ele>823.03</ele>
        <time>2018-10-14T09:50:28Z</time>
      </trkpt>
      <trkpt lat="46.42474" lon="5.74992">
        <ele>823.99</ele>
        <time>2018-10-14T09:50:41Z</time>
      </trkpt>
      <trkpt lat="46.42465" lon="5.74985">
        <ele>824.47</ele>
        <time>2018-10-14T09:50:54Z</time>
      </trkpt>
      <trkpt lat="46.42457" lon="5.74976">
        <ele>824.95</ele>
        <time>2018-10-14T09:51:07Z</time>
      </trkpt>
      <trkpt lat="46.42447" lon="5.74971">
        <ele>825.43</ele>
        <time>2018-10-14T09:51:21Z</time>
      </trkpt>
      <trkpt lat="46.42445" lon="5.7497">
        <ele>823.51</ele>
        <time>2018-10-14T09:51:31Z</time>
      </trkpt>
      <trkpt lat="46.42436" lon="5.74974">
        <ele>824.47</ele>
        <time>2018-10-14T09:51:53Z</time>
      </trkpt>
      <trkpt lat="46.42428" lon="5.74977">
        <ele>824.47</ele>
        <time>2018-10-14T09:52:25Z</time>
      </trkpt>
      <trkpt lat="46.42433" lon="5.74973">
        <ele>825.91</ele>
        <time>2018-10-14T09:52:47Z</time>
      </trkpt>
      <trkpt lat="46.42435" lon="5.7497">
        <ele>825.91</ele>
        <time>2018-10-14T09:53:03Z</time>
      </trkpt>
      <trkpt lat="46.42429" lon="5.74973">
        <ele>827.35</ele>
        <time>2018-10-14T09:53:22Z</time>
      </trkpt>
      <trkpt lat="46.42424" lon="5.74979">
        <ele>828.79</ele>
        <time>2018-10-14T09:53:34Z</time>
      </trkpt>
      <trkpt lat="46.42421" lon="5.74986">
        <ele>831.2</ele>
        <time>2018-10-14T09:53:46Z</time>
      </trkpt>
      <trkpt lat="46.42423" lon="5.75">
        <ele>832.64</ele>
        <time>2018-10-14T09:53:59Z</time>
      </trkpt>
      <trkpt lat="46.4242" lon="5.75011">
        <ele>833.6</ele>
        <time>2018-10-14T09:54:13Z</time>
      </trkpt>
      <trkpt lat="46.42416" lon="5.75022">
        <ele>836</ele>
        <time>2018-10-14T09:54:25Z</time>
      </trkpt>
      <trkpt lat="46.42411" lon="5.75033">
        <ele>838.41</ele>
        <time>2018-10-14T09:54:37Z</time>
      </trkpt>
      <trkpt lat="46.42406" lon="5.75046">
        <ele>838.89</ele>
        <time>2018-10-14T09:54:52Z</time>
      </trkpt>
      <trkpt lat="46.42406" lon="5.75046">
        <ele>838.89</ele>
        <time>2018-10-14T09:54:53Z</time>
      </trkpt>
      <trkpt lat="46.42395" lon="5.75049">
        <ele>839.37</ele>
        <time>2018-10-14T09:55:07Z</time>
      </trkpt>
      <trkpt lat="46.4238" lon="5.75051">
        <ele>839.85</ele>
        <time>2018-10-14T09:55:20Z</time>
      </trkpt>
      <trkpt lat="46.42364" lon="5.75055">
        <ele>840.81</ele>
        <time>2018-10-14T09:55:36Z</time>
      </trkpt>
      <trkpt lat="46.42348" lon="5.75057">
        <ele>841.77</ele>
        <time>2018-10-14T09:55:53Z</time>
      </trkpt>
      <trkpt lat="46.42341" lon="5.7505">
        <ele>843.21</ele>
        <time>2018-10-14T09:56:08Z</time>
      </trkpt>
      <trkpt lat="46.42331" lon="5.7504">
        <ele>845.62</ele>
        <time>2018-10-14T09:56:21Z</time>
      </trkpt>
      <trkpt lat="46.42329" lon="5.75038">
        <ele>845.62</ele>
        <time>2018-10-14T09:56:23Z</time>
      </trkpt>
      <trkpt lat="46.42317" lon="5.75034">
        <ele>846.58</ele>
        <time>2018-10-14T09:56:34Z</time>
      </trkpt>
      <trkpt lat="46.42293" lon="5.75029">
        <ele>848.98</ele>
        <time>2018-10-14T09:56:50Z</time>
      </trkpt>
      <trkpt lat="46.42278" lon="5.75035">
        <ele>850.42</ele>
        <time>2018-10-14T09:57:05Z</time>
      </trkpt>
      <trkpt lat="46.42266" lon="5.7504">
        <ele>851.87</ele>
        <time>2018-10-14T09:57:20Z</time>
      </trkpt>
      <trkpt lat="46.42259" lon="5.7504">
        <ele>854.27</ele>
        <time>2018-10-14T09:57:35Z</time>
      </trkpt>
      <trkpt lat="46.42254" lon="5.75037">
        <ele>855.71</ele>
        <time>2018-10-14T09:57:46Z</time>
      </trkpt>
      <trkpt lat="46.4224" lon="5.75038">
        <ele>857.15</ele>
        <time>2018-10-14T09:57:57Z</time>
      </trkpt>
      <trkpt lat="46.42232" lon="5.75031">
        <ele>859.08</ele>
        <time>2018-10-14T09:58:12Z</time>
      </trkpt>
      <trkpt lat="46.42223" lon="5.75027">
        <ele>861</ele>
        <time>2018-10-14T09:58:24Z</time>
      </trkpt>
      <trkpt lat="46.42215" lon="5.7502">
        <ele>862.92</ele>
        <time>2018-10-14T09:58:37Z</time>
      </trkpt>
      <trkpt lat="46.42199" lon="5.75015">
        <ele>864.84</ele>
        <time>2018-10-14T09:58:53Z</time>
      </trkpt>
      <trkpt lat="46.42189" lon="5.75011">
        <ele>867.25</ele>
        <time>2018-10-14T09:59:05Z</time>
      </trkpt>
      <trkpt lat="46.42173" lon="5.75004">
        <ele>868.69</ele>
        <time>2018-10-14T09:59:16Z</time>
      </trkpt>
      <trkpt lat="46.42165" lon="5.74997">
        <ele>870.13</ele>
        <time>2018-10-14T09:59:29Z</time>
      </trkpt>
      <trkpt lat="46.42155" lon="5.74991">
        <ele>872.05</ele>
        <time>2018-10-14T09:59:40Z</time>
      </trkpt>
      <trkpt lat="46.42146" lon="5.74984">
        <ele>873.5</ele>
        <time>2018-10-14T09:59:52Z</time>
      </trkpt>
      <trkpt lat="46.42134" lon="5.74979">
        <ele>875.42</ele>
        <time>2018-10-14T10:00:05Z</time>
      </trkpt>
      <trkpt lat="46.42117" lon="5.7497">
        <ele>877.34</ele>
        <time>2018-10-14T10:00:18Z</time>
      </trkpt>
      <trkpt lat="46.42101" lon="5.74962">
        <ele>878.3</ele>
        <time>2018-10-14T10:00:33Z</time>
      </trkpt>
      <trkpt lat="46.42085" lon="5.74955">
        <ele>878.3</ele>
        <time>2018-10-14T10:00:47Z</time>
      </trkpt>
      <trkpt lat="46.42076" lon="5.7495">
        <ele>878.3</ele>
        <time>2018-10-14T10:01:02Z</time>
      </trkpt>
      <trkpt lat="46.42074" lon="5.7495">
        <ele>878.3</ele>
        <time>2018-10-14T10:01:13Z</time>
      </trkpt>
      <trkpt lat="46.42066" lon="5.74948">
        <ele>878.78</ele>
        <time>2018-10-14T10:01:25Z</time>
      </trkpt>
      <trkpt lat="46.4205" lon="5.74948">
        <ele>878.78</ele>
        <time>2018-10-14T10:01:44Z</time>
      </trkpt>
      <trkpt lat="46.42038" lon="5.74946">
        <ele>879.26</ele>
        <time>2018-10-14T10:01:59Z</time>
      </trkpt>
      <trkpt lat="46.42022" lon="5.74949">
        <ele>881.19</ele>
        <time>2018-10-14T10:02:14Z</time>
      </trkpt>
      <trkpt lat="46.42008" lon="5.74955">
        <ele>882.63</ele>
        <time>2018-10-14T10:02:28Z</time>
      </trkpt>
      <trkpt lat="46.42009" lon="5.74966">
        <ele>884.55</ele>
        <time>2018-10-14T10:02:41Z</time>
      </trkpt>
      <trkpt lat="46.42013" lon="5.74977">
        <ele>886.95</ele>
        <time>2018-10-14T10:02:55Z</time>
      </trkpt>
      <trkpt lat="46.42014" lon="5.74976">
        <ele>887.43</ele>
        <time>2018-10-14T10:03:12Z</time>
      </trkpt>
      <trkpt lat="46.42018" lon="5.74988">
        <ele>889.36</ele>
        <time>2018-10-14T10:03:26Z</time>
      </trkpt>
      <trkpt lat="46.42021" lon="5.75">
        <ele>890.8</ele>
        <time>2018-10-14T10:03:40Z</time>
      </trkpt>
      <trkpt lat="46.42024" lon="5.75012">
        <ele>892.24</ele>
        <time>2018-10-14T10:03:54Z</time>
      </trkpt>
      <trkpt lat="46.42027" lon="5.75023">
        <ele>894.64</ele>
        <time>2018-10-14T10:04:08Z</time>
      </trkpt>
      <trkpt lat="46.42029" lon="5.75033">
        <ele>896.57</ele>
        <time>2018-10-14T10:04:22Z</time>
      </trkpt>
      <trkpt lat="46.42033" lon="5.75041">
        <ele>898.49</ele>
        <time>2018-10-14T10:04:38Z</time>
      </trkpt>
      <trkpt lat="46.42037" lon="5.75047">
        <ele>899.93</ele>
        <time>2018-10-14T10:04:51Z</time>
      </trkpt>
      <trkpt lat="46.42038" lon="5.7505">
        <ele>900.89</ele>
        <time>2018-10-14T10:05:01Z</time>
      </trkpt>
      <trkpt lat="46.4204" lon="5.75064">
        <ele>902.33</ele>
        <time>2018-10-14T10:05:14Z</time>
      </trkpt>
      <trkpt lat="46.42038" lon="5.7508">
        <ele>903.78</ele>
        <time>2018-10-14T10:05:30Z</time>
      </trkpt>
      <trkpt lat="46.42042" lon="5.75093">
        <ele>905.22</ele>
        <time>2018-10-14T10:05:43Z</time>
      </trkpt>
      <trkpt lat="46.42041" lon="5.75104">
        <ele>907.14</ele>
        <time>2018-10-14T10:05:56Z</time>
      </trkpt>
      <trkpt lat="46.42041" lon="5.75106">
        <ele>907.14</ele>
        <time>2018-10-14T10:05:58Z</time>
      </trkpt>
      <trkpt lat="46.42039" lon="5.75119">
        <ele>908.58</ele>
        <time>2018-10-14T10:06:11Z</time>
      </trkpt>
      <trkpt lat="46.42036" lon="5.75122">
        <ele>909.06</ele>
        <time>2018-10-14T10:06:26Z</time>
      </trkpt>
      <trkpt lat="46.42033" lon="5.75137">
        <ele>910.99</ele>
        <time>2018-10-14T10:06:42Z</time>
      </trkpt>
      <trkpt lat="46.42032" lon="5.75148">
        <ele>912.91</ele>
        <time>2018-10-14T10:06:56Z</time>
      </trkpt>
      <trkpt lat="46.42031" lon="5.7516">
        <ele>914.35</ele>
        <time>2018-10-14T10:07:09Z</time>
      </trkpt>
      <trkpt lat="46.42036" lon="5.75173">
        <ele>914.35</ele>
        <time>2018-10-14T10:07:30Z</time>
      </trkpt>
      <trkpt lat="46.42032" lon="5.7518">
        <ele>916.75</ele>
        <time>2018-10-14T10:07:45Z</time>
      </trkpt>
      <trkpt lat="46.42024" lon="5.75187">
        <ele>919.64</ele>
        <time>2018-10-14T10:08:00Z</time>
      </trkpt>
      <trkpt lat="46.42021" lon="5.75194">
        <ele>920.12</ele>
        <time>2018-10-14T10:08:17Z</time>
      </trkpt>
      <trkpt lat="46.42015" lon="5.75198">
        <ele>920.12</ele>
        <time>2018-10-14T10:08:49Z</time>
      </trkpt>
      <trkpt lat="46.42013" lon="5.75201">
        <ele>920.6</ele>
        <time>2018-10-14T10:09:15Z</time>
      </trkpt>
      <trkpt lat="46.42011" lon="5.75203">
        <ele>920.6</ele>
        <time>2018-10-14T10:09:41Z</time>
      </trkpt>
      <trkpt lat="46.42012" lon="5.75204">
        <ele>920.6</ele>
        <time>2018-10-14T10:10:10Z</time>
      </trkpt>
      <trkpt lat="46.42013" lon="5.75198">
        <ele>921.08</ele>
        <time>2018-10-14T10:10:26Z</time>
      </trkpt>
      <trkpt lat="46.42012" lon="5.75187">
        <ele>922.04</ele>
        <time>2018-10-14T10:10:40Z</time>
      </trkpt>
      <trkpt lat="46.42004" lon="5.75181">
        <ele>923</ele>
        <time>2018-10-14T10:10:51Z</time>
      </trkpt>
      <trkpt lat="46.41996" lon="5.75173">
        <ele>926.37</ele>
        <time>2018-10-14T10:11:06Z</time>
      </trkpt>
      <trkpt lat="46.41989" lon="5.75167">
        <ele>928.77</ele>
        <time>2018-10-14T10:11:21Z</time>
      </trkpt>
      <trkpt lat="46.41971" lon="5.75163">
        <ele>930.21</ele>
        <time>2018-10-14T10:11:32Z</time>
      </trkpt>
      <trkpt lat="46.41975" lon="5.75165">
        <ele>932.62</ele>
        <time>2018-10-14T10:11:44Z</time>
      </trkpt>
      <trkpt lat="46.41959" lon="5.75163">
        <ele>933.58</ele>
        <time>2018-10-14T10:12:00Z</time>
      </trkpt>
      <trkpt lat="46.41952" lon="5.75163">
        <ele>935.02</ele>
        <time>2018-10-14T10:12:16Z</time>
      </trkpt>
      <trkpt lat="46.41948" lon="5.75165">
        <ele>936.94</ele>
        <time>2018-10-14T10:12:31Z</time>
      </trkpt>
      <trkpt lat="46.41943" lon="5.75168">
        <ele>938.86</ele>
        <time>2018-10-14T10:12:43Z</time>
      </trkpt>
      <trkpt lat="46.41939" lon="5.75172">
        <ele>941.27</ele>
        <time>2018-10-14T10:12:56Z</time>
      </trkpt>
      <trkpt lat="46.41932" lon="5.75179">
        <ele>943.19</ele>
        <time>2018-10-14T10:13:10Z</time>
      </trkpt>
      <trkpt lat="46.41929" lon="5.75186">
        <ele>944.63</ele>
        <time>2018-10-14T10:13:24Z</time>
      </trkpt>
      <trkpt lat="46.41924" lon="5.75189">
        <ele>945.59</ele>
        <time>2018-10-14T10:13:42Z</time>
      </trkpt>
      <trkpt lat="46.41923" lon="5.75188">
        <ele>946.07</ele>
        <time>2018-10-14T10:13:43Z</time>
      </trkpt>
      <trkpt lat="46.41914" lon="5.75193">
        <ele>948.48</ele>
        <time>2018-10-14T10:13:57Z</time>
      </trkpt>
      <trkpt lat="46.4191" lon="5.75193">
        <ele>950.4</ele>
        <time>2018-10-14T10:14:09Z</time>
      </trkpt>
      <trkpt lat="46.41902" lon="5.75191">
        <ele>950.88</ele>
        <time>2018-10-14T10:14:22Z</time>
      </trkpt>
      <trkpt lat="46.41891" lon="5.75189">
        <ele>951.36</ele>
        <time>2018-10-14T10:14:37Z</time>
      </trkpt>
      <trkpt lat="46.41887" lon="5.7519">
        <ele>952.8</ele>
        <time>2018-10-14T10:14:51Z</time>
      </trkpt>
      <trkpt lat="46.41884" lon="5.75189">
        <ele>952.8</ele>
        <time>2018-10-14T10:15:12Z</time>
      </trkpt>
      <trkpt lat="46.41883" lon="5.75186">
        <ele>952.8</ele>
        <time>2018-10-14T10:15:32Z</time>
      </trkpt>
      <trkpt lat="46.41882" lon="5.75185">
        <ele>952.8</ele>
        <time>2018-10-14T10:15:53Z</time>
      </trkpt>
      <trkpt lat="46.41882" lon="5.75191">
        <ele>952.8</ele>
        <time>2018-10-14T10:16:20Z</time>
      </trkpt>
      <trkpt lat="46.4188" lon="5.75193">
        <ele>953.28</ele>
        <time>2018-10-14T10:16:39Z</time>
      </trkpt>
      <trkpt lat="46.41879" lon="5.75198">
        <ele>954.25</ele>
        <time>2018-10-14T10:16:55Z</time>
      </trkpt>
      <trkpt lat="46.41872" lon="5.75201">
        <ele>957.61</ele>
        <time>2018-10-14T10:17:09Z</time>
      </trkpt>
      <trkpt lat="46.41865" lon="5.75199">
        <ele>958.09</ele>
        <time>2018-10-14T10:17:23Z</time>
      </trkpt>
      <trkpt lat="46.41863" lon="5.75201">
        <ele>958.09</ele>
        <time>2018-10-14T10:17:43Z</time>
      </trkpt>
      <trkpt lat="46.41864" lon="5.75207">
        <ele>959.53</ele>
        <time>2018-10-14T10:18:01Z</time>
      </trkpt>
      <trkpt lat="46.41857" lon="5.75213">
        <ele>961.94</ele>
        <time>2018-10-14T10:18:16Z</time>
      </trkpt>
      <trkpt lat="46.41854" lon="5.75221">
        <ele>962.42</ele>
        <time>2018-10-14T10:18:33Z</time>
      </trkpt>
      <trkpt lat="46.41852" lon="5.75224">
        <ele>962.42</ele>
        <time>2018-10-14T10:18:37Z</time>
      </trkpt>
      <trkpt lat="46.41845" lon="5.75234">
        <ele>963.38</ele>
        <time>2018-10-14T10:18:52Z</time>
      </trkpt>
      <trkpt lat="46.41837" lon="5.75239">
        <ele>965.3</ele>
        <time>2018-10-14T10:19:04Z</time>
      </trkpt>
      <trkpt lat="46.41834" lon="5.75253">
        <ele>968.18</ele>
        <time>2018-10-14T10:19:17Z</time>
      </trkpt>
      <trkpt lat="46.41828" lon="5.75262">
        <ele>970.11</ele>
        <time>2018-10-14T10:19:35Z</time>
      </trkpt>
      <trkpt lat="46.41823" lon="5.75263">
        <ele>971.07</ele>
        <time>2018-10-14T10:19:39Z</time>
      </trkpt>
      <trkpt lat="46.41811" lon="5.75267">
        <ele>973.47</ele>
        <time>2018-10-14T10:19:53Z</time>
      </trkpt>
      <trkpt lat="46.41809" lon="5.7527">
        <ele>973.47</ele>
        <time>2018-10-14T10:20:06Z</time>
      </trkpt>
      <trkpt lat="46.41811" lon="5.75273">
        <ele>973.47</ele>
        <time>2018-10-14T10:20:21Z</time>
      </trkpt>
      <trkpt lat="46.41811" lon="5.75276">
        <ele>973.47</ele>
        <time>2018-10-14T10:20:47Z</time>
      </trkpt>
      <trkpt lat="46.41812" lon="5.75274">
        <ele>972.99</ele>
        <time>2018-10-14T10:21:21Z</time>
      </trkpt>
      <trkpt lat="46.41812" lon="5.75277">
        <ele>972.03</ele>
        <time>2018-10-14T10:21:56Z</time>
      </trkpt>
      <trkpt lat="46.41812" lon="5.75272">
        <ele>971.55</ele>
        <time>2018-10-14T10:22:34Z</time>
      </trkpt>
      <trkpt lat="46.41813" lon="5.75272">
        <ele>971.55</ele>
        <time>2018-10-14T10:23:11Z</time>
      </trkpt>
      <trkpt lat="46.41808" lon="5.75275">
        <ele>971.07</ele>
        <time>2018-10-14T10:23:49Z</time>
      </trkpt>
      <trkpt lat="46.41804" lon="5.75264">
        <ele>971.07</ele>
        <time>2018-10-14T10:24:29Z</time>
      </trkpt>
      <trkpt lat="46.41805" lon="5.75271">
        <ele>970.59</ele>
        <time>2018-10-14T10:25:06Z</time>
      </trkpt>
      <trkpt lat="46.41806" lon="5.75275">
        <ele>970.59</ele>
        <time>2018-10-14T10:25:41Z</time>
      </trkpt>
      <trkpt lat="46.41807" lon="5.75276">
        <ele>970.11</ele>
        <time>2018-10-14T10:26:17Z</time>
      </trkpt>
      <trkpt lat="46.41813" lon="5.75269">
        <ele>970.11</ele>
        <time>2018-10-14T10:26:54Z</time>
      </trkpt>
      <trkpt lat="46.4181" lon="5.75268">
        <ele>969.63</ele>
        <time>2018-10-14T10:27:33Z</time>
      </trkpt>
      <trkpt lat="46.41808" lon="5.75268">
        <ele>969.63</ele>
        <time>2018-10-14T10:28:10Z</time>
      </trkpt>
      <trkpt lat="46.41808" lon="5.75273">
        <ele>969.15</ele>
        <time>2018-10-14T10:28:53Z</time>
      </trkpt>
      <trkpt lat="46.41803" lon="5.75269">
        <ele>970.11</ele>
        <time>2018-10-14T10:29:01Z</time>
      </trkpt>
      <trkpt lat="46.41802" lon="5.75268">
        <ele>970.11</ele>
        <time>2018-10-14T10:29:02Z</time>
      </trkpt>
      <trkpt lat="46.41798" lon="5.75267">
        <ele>971.55</ele>
        <time>2018-10-14T10:29:14Z</time>
      </trkpt>
      <trkpt lat="46.41797" lon="5.75266">
        <ele>971.55</ele>
        <time>2018-10-14T10:29:44Z</time>
      </trkpt>
      <trkpt lat="46.41798" lon="5.75266">
        <ele>971.07</ele>
        <time>2018-10-14T10:30:16Z</time>
      </trkpt>
      <trkpt lat="46.41798" lon="5.75265">
        <ele>971.07</ele>
        <time>2018-10-14T10:30:55Z</time>
      </trkpt>
      <trkpt lat="46.41799" lon="5.75267">
        <ele>970.59</ele>
        <time>2018-10-14T10:31:26Z</time>
      </trkpt>
      <trkpt lat="46.418" lon="5.75259">
        <ele>971.07</ele>
        <time>2018-10-14T10:31:50Z</time>
      </trkpt>
      <trkpt lat="46.41801" lon="5.75257">
        <ele>970.59</ele>
        <time>2018-10-14T10:32:16Z</time>
      </trkpt>
      <trkpt lat="46.418" lon="5.75258">
        <ele>970.59</ele>
        <time>2018-10-14T10:32:53Z</time>
      </trkpt>
      <trkpt lat="46.41801" lon="5.75264">
        <ele>970.59</ele>
        <time>2018-10-14T10:33:13Z</time>
      </trkpt>
      <trkpt lat="46.41801" lon="5.75264">
        <ele>970.11</ele>
        <time>2018-10-14T10:33:36Z</time>
      </trkpt>
      <trkpt lat="46.41802" lon="5.7526">
        <ele>970.11</ele>
        <time>2018-10-14T10:34:11Z</time>
      </trkpt>
      <trkpt lat="46.41798" lon="5.75264">
        <ele>969.63</ele>
        <time>2018-10-14T10:34:46Z</time>
      </trkpt>
      <trkpt lat="46.41799" lon="5.75265">
        <ele>969.63</ele>
        <time>2018-10-14T10:35:19Z</time>
      </trkpt>
      <trkpt lat="46.41799" lon="5.75266">
        <ele>969.15</ele>
        <time>2018-10-14T10:35:52Z</time>
      </trkpt>
      <trkpt lat="46.41798" lon="5.7527">
        <ele>968.67</ele>
        <time>2018-10-14T10:36:33Z</time>
      </trkpt>
      <trkpt lat="46.41796" lon="5.75267">
        <ele>968.67</ele>
        <time>2018-10-14T10:37:10Z</time>
      </trkpt>
      <trkpt lat="46.41797" lon="5.75272">
        <ele>968.67</ele>
        <time>2018-10-14T10:37:54Z</time>
      </trkpt>
      <trkpt lat="46.41797" lon="5.75275">
        <ele>968.18</ele>
        <time>2018-10-14T10:38:39Z</time>
      </trkpt>
      <trkpt lat="46.418" lon="5.7527">
        <ele>968.67</ele>
        <time>2018-10-14T10:39:20Z</time>
      </trkpt>
      <trkpt lat="46.41802" lon="5.75271">
        <ele>968.18</ele>
        <time>2018-10-14T10:40:03Z</time>
      </trkpt>
      <trkpt lat="46.41802" lon="5.75274">
        <ele>967.7</ele>
        <time>2018-10-14T10:40:46Z</time>
      </trkpt>
      <trkpt lat="46.418" lon="5.75268">
        <ele>967.7</ele>
        <time>2018-10-14T10:41:18Z</time>
      </trkpt>
      <trkpt lat="46.41798" lon="5.75267">
        <ele>967.22</ele>
        <time>2018-10-14T10:41:55Z</time>
      </trkpt>
      <trkpt lat="46.41799" lon="5.7527">
        <ele>967.22</ele>
        <time>2018-10-14T10:42:25Z</time>
      </trkpt>
      <trkpt lat="46.41801" lon="5.7527">
        <ele>966.74</ele>
        <time>2018-10-14T10:42:59Z</time>
      </trkpt>
      <trkpt lat="46.41801" lon="5.75274">
        <ele>966.74</ele>
        <time>2018-10-14T10:43:29Z</time>
      </trkpt>
      <trkpt lat="46.41801" lon="5.75274">
        <ele>966.26</ele>
        <time>2018-10-14T10:44:09Z</time>
      </trkpt>
      <trkpt lat="46.418" lon="5.75271">
        <ele>966.26</ele>
        <time>2018-10-14T10:44:50Z</time>
      </trkpt>
      <trkpt lat="46.41798" lon="5.75273">
        <ele>966.26</ele>
        <time>2018-10-14T10:45:20Z</time>
      </trkpt>
      <trkpt lat="46.418" lon="5.75272">
        <ele>965.78</ele>
        <time>2018-10-14T10:46:05Z</time>
      </trkpt>
      <trkpt lat="46.418" lon="5.75267">
        <ele>965.78</ele>
        <time>2018-10-14T10:46:43Z</time>
      </trkpt>
      <trkpt lat="46.41798" lon="5.75269">
        <ele>966.26</ele>
        <time>2018-10-14T10:47:24Z</time>
      </trkpt>
      <trkpt lat="46.41798" lon="5.7527">
        <ele>966.26</ele>
        <time>2018-10-14T10:48:04Z</time>
      </trkpt>
      <trkpt lat="46.41796" lon="5.75273">
        <ele>966.26</ele>
        <time>2018-10-14T10:48:37Z</time>
      </trkpt>
      <trkpt lat="46.41796" lon="5.75268">
        <ele>966.26</ele>
        <time>2018-10-14T10:49:18Z</time>
      </trkpt>
      <trkpt lat="46.41795" lon="5.7527">
        <ele>966.26</ele>
        <time>2018-10-14T10:50:03Z</time>
      </trkpt>
      <trkpt lat="46.41796" lon="5.75268">
        <ele>966.26</ele>
        <time>2018-10-14T10:50:47Z</time>
      </trkpt>
      <trkpt lat="46.41797" lon="5.75268">
        <ele>967.22</ele>
        <time>2018-10-14T10:51:17Z</time>
      </trkpt>
      <trkpt lat="46.41798" lon="5.75272">
        <ele>967.22</ele>
        <time>2018-10-14T10:51:51Z</time>
      </trkpt>
      <trkpt lat="46.41795" lon="5.75273">
        <ele>967.22</ele>
        <time>2018-10-14T10:52:26Z</time>
      </trkpt>
      <trkpt lat="46.41795" lon="5.7527">
        <ele>967.22</ele>
        <time>2018-10-14T10:53:01Z</time>
      </trkpt>
      <trkpt lat="46.41796" lon="5.75266">
        <ele>967.22</ele>
        <time>2018-10-14T10:53:30Z</time>
      </trkpt>
      <trkpt lat="46.41798" lon="5.7527">
        <ele>967.22</ele>
        <time>2018-10-14T10:54:05Z</time>
      </trkpt>
      <trkpt lat="46.41795" lon="5.7527">
        <ele>967.7</ele>
        <time>2018-10-14T10:54:44Z</time>
      </trkpt>
      <trkpt lat="46.41795" lon="5.7527">
        <ele>967.7</ele>
        <time>2018-10-14T10:55:17Z</time>
      </trkpt>
      <trkpt lat="46.41796" lon="5.75269">
        <ele>967.7</ele>
        <time>2018-10-14T10:55:43Z</time>
      </trkpt>
      <trkpt lat="46.41794" lon="5.75271">
        <ele>967.7</ele>
        <time>2018-10-14T10:56:10Z</time>
      </trkpt>
      <trkpt lat="46.41793" lon="5.75272">
        <ele>968.18</ele>
        <time>2018-10-14T10:56:37Z</time>
      </trkpt>
      <trkpt lat="46.41793" lon="5.75272">
        <ele>968.18</ele>
        <time>2018-10-14T10:57:09Z</time>
      </trkpt>
      <trkpt lat="46.41795" lon="5.7527">
        <ele>968.18</ele>
        <time>2018-10-14T10:57:42Z</time>
      </trkpt>
      <trkpt lat="46.41795" lon="5.75271">
        <ele>968.18</ele>
        <time>2018-10-14T10:58:15Z</time>
      </trkpt>
      <trkpt lat="46.41795" lon="5.75273">
        <ele>968.18</ele>
        <time>2018-10-14T10:58:53Z</time>
      </trkpt>
      <trkpt lat="46.41797" lon="5.75277">
        <ele>968.18</ele>
        <time>2018-10-14T10:59:34Z</time>
      </trkpt>
      <trkpt lat="46.41797" lon="5.75272">
        <ele>968.67</ele>
        <time>2018-10-14T11:00:07Z</time>
      </trkpt>
      <trkpt lat="46.41798" lon="5.75271">
        <ele>968.18</ele>
        <time>2018-10-14T11:00:46Z</time>
      </trkpt>
      <trkpt lat="46.41797" lon="5.75273">
        <ele>968.18</ele>
        <time>2018-10-14T11:01:23Z</time>
      </trkpt>
      <trkpt lat="46.41796" lon="5.75273">
        <ele>968.18</ele>
        <time>2018-10-14T11:01:58Z</time>
      </trkpt>
      <trkpt lat="46.41796" lon="5.75274">
        <ele>968.18</ele>
        <time>2018-10-14T11:02:33Z</time>
      </trkpt>
      <trkpt lat="46.41795" lon="5.7527">
        <ele>968.18</ele>
        <time>2018-10-14T11:03:11Z</time>
      </trkpt>
      <trkpt lat="46.41797" lon="5.75269">
        <ele>967.22</ele>
        <time>2018-10-14T11:03:58Z</time>
      </trkpt>
      <trkpt lat="46.41797" lon="5.75269">
        <ele>967.22</ele>
        <time>2018-10-14T11:04:36Z</time>
      </trkpt>
      <trkpt lat="46.41799" lon="5.75269">
        <ele>967.22</ele>
        <time>2018-10-14T11:05:15Z</time>
      </trkpt>
      <trkpt lat="46.41796" lon="5.75273">
        <ele>967.22</ele>
        <time>2018-10-14T11:05:53Z</time>
      </trkpt>
      <trkpt lat="46.41796" lon="5.75275">
        <ele>968.18</ele>
        <time>2018-10-14T11:06:05Z</time>
      </trkpt>
      <trkpt lat="46.41799" lon="5.75274">
        <ele>968.18</ele>
        <time>2018-10-14T11:06:41Z</time>
      </trkpt>
      <trkpt lat="46.418" lon="5.75275">
        <ele>967.22</ele>
        <time>2018-10-14T11:06:59Z</time>
      </trkpt>
      <trkpt lat="46.41798" lon="5.75272">
        <ele>966.26</ele>
        <time>2018-10-14T11:07:32Z</time>
      </trkpt>
      <trkpt lat="46.41797" lon="5.75271">
        <ele>966.26</ele>
        <time>2018-10-14T11:08:10Z</time>
      </trkpt>
      <trkpt lat="46.41797" lon="5.7527">
        <ele>967.7</ele>
        <time>2018-10-14T11:08:38Z</time>
      </trkpt>
      <trkpt lat="46.41799" lon="5.75271">
        <ele>966.26</ele>
        <time>2018-10-14T11:09:23Z</time>
      </trkpt>
      <trkpt lat="46.41797" lon="5.75271">
        <ele>966.26</ele>
        <time>2018-10-14T11:10:08Z</time>
      </trkpt>
      <trkpt lat="46.41794" lon="5.75274">
        <ele>966.26</ele>
        <time>2018-10-14T11:10:51Z</time>
      </trkpt>
      <trkpt lat="46.41794" lon="5.7527">
        <ele>966.26</ele>
        <time>2018-10-14T11:11:30Z</time>
      </trkpt>
      <trkpt lat="46.41799" lon="5.75272">
        <ele>965.78</ele>
        <time>2018-10-14T11:12:01Z</time>
      </trkpt>
      <trkpt lat="46.41797" lon="5.75273">
        <ele>965.78</ele>
        <time>2018-10-14T11:12:39Z</time>
      </trkpt>
      <trkpt lat="46.41799" lon="5.75272">
        <ele>965.78</ele>
        <time>2018-10-14T11:13:19Z</time>
      </trkpt>
      <trkpt lat="46.41796" lon="5.75272">
        <ele>965.78</ele>
        <time>2018-10-14T11:13:56Z</time>
      </trkpt>
      <trkpt lat="46.41795" lon="5.75272">
        <ele>965.78</ele>
        <time>2018-10-14T11:14:40Z</time>
      </trkpt>
      <trkpt lat="46.41797" lon="5.75273">
        <ele>965.78</ele>
        <time>2018-10-14T11:15:23Z</time>
      </trkpt>
      <trkpt lat="46.41795" lon="5.75272">
        <ele>966.74</ele>
        <time>2018-10-14T11:16:07Z</time>
      </trkpt>
      <trkpt lat="46.41798" lon="5.75272">
        <ele>966.74</ele>
        <time>2018-10-14T11:16:51Z</time>
      </trkpt>
      <trkpt lat="46.41795" lon="5.75271">
        <ele>966.74</ele>
        <time>2018-10-14T11:17:29Z</time>
      </trkpt>
      <trkpt lat="46.41792" lon="5.75274">
        <ele>966.74</ele>
        <time>2018-10-14T11:17:56Z</time>
      </trkpt>
      <trkpt lat="46.41795" lon="5.75276">
        <ele>966.26</ele>
        <time>2018-10-14T11:18:29Z</time>
      </trkpt>
      <trkpt lat="46.41795" lon="5.75271">
        <ele>966.26</ele>
        <time>2018-10-14T11:19:13Z</time>
      </trkpt>
      <trkpt lat="46.41796" lon="5.75269">
        <ele>966.74</ele>
        <time>2018-10-14T11:19:47Z</time>
      </trkpt>
      <trkpt lat="46.41801" lon="5.75272">
        <ele>966.26</ele>
        <time>2018-10-14T11:20:25Z</time>
      </trkpt>
      <trkpt lat="46.41799" lon="5.7527">
        <ele>967.7</ele>
        <time>2018-10-14T11:20:54Z</time>
      </trkpt>
      <trkpt lat="46.41798" lon="5.75268">
        <ele>967.7</ele>
        <time>2018-10-14T11:21:23Z</time>
      </trkpt>
      <trkpt lat="46.41798" lon="5.75272">
        <ele>967.7</ele>
        <time>2018-10-14T11:21:47Z</time>
      </trkpt>
      <trkpt lat="46.41799" lon="5.75271">
        <ele>968.67</ele>
        <time>2018-10-14T11:22:06Z</time>
      </trkpt>
      <trkpt lat="46.41799" lon="5.75269">
        <ele>968.18</ele>
        <time>2018-10-14T11:22:32Z</time>
      </trkpt>
      <trkpt lat="46.41799" lon="5.75269">
        <ele>968.18</ele>
        <time>2018-10-14T11:22:55Z</time>
      </trkpt>
      <trkpt lat="46.41797" lon="5.7527">
        <ele>968.18</ele>
        <time>2018-10-14T11:23:23Z</time>
      </trkpt>
      <trkpt lat="46.41799" lon="5.75268">
        <ele>968.67</ele>
        <time>2018-10-14T11:23:46Z</time>
      </trkpt>
      <trkpt lat="46.418" lon="5.75269">
        <ele>969.15</ele>
        <time>2018-10-14T11:23:56Z</time>
      </trkpt>
      <trkpt lat="46.41799" lon="5.7527">
        <ele>969.15</ele>
        <time>2018-10-14T11:24:05Z</time>
      </trkpt>
      <trkpt lat="46.41797" lon="5.75268">
        <ele>969.15</ele>
        <time>2018-10-14T11:24:18Z</time>
      </trkpt>
      <trkpt lat="46.41796" lon="5.75269">
        <ele>969.15</ele>
        <time>2018-10-14T11:24:42Z</time>
      </trkpt>
      <trkpt lat="46.41797" lon="5.75271">
        <ele>969.15</ele>
        <time>2018-10-14T11:25:07Z</time>
      </trkpt>
      <trkpt lat="46.41797" lon="5.75271">
        <ele>969.15</ele>
        <time>2018-10-14T11:25:35Z</time>
      </trkpt>
      <trkpt lat="46.41798" lon="5.7527">
        <ele>969.15</ele>
        <time>2018-10-14T11:25:53Z</time>
      </trkpt>
      <trkpt lat="46.41797" lon="5.75269">
        <ele>969.15</ele>
        <time>2018-10-14T11:26:07Z</time>
      </trkpt>
      <trkpt lat="46.41797" lon="5.75269">
        <ele>969.63</ele>
        <time>2018-10-14T11:26:24Z</time>
      </trkpt>
      <trkpt lat="46.41797" lon="5.7527">
        <ele>969.63</ele>
        <time>2018-10-14T11:26:42Z</time>
      </trkpt>
      <trkpt lat="46.41797" lon="5.7527">
        <ele>969.63</ele>
        <time>2018-10-14T11:27:01Z</time>
      </trkpt>
      <trkpt lat="46.41796" lon="5.7527">
        <ele>969.63</ele>
        <time>2018-10-14T11:27:26Z</time>
      </trkpt>
      <trkpt lat="46.41796" lon="5.75263">
        <ele>969.63</ele>
        <time>2018-10-14T11:27:41Z</time>
      </trkpt>
      <trkpt lat="46.41794" lon="5.75262">
        <ele>969.63</ele>
        <time>2018-10-14T11:27:52Z</time>
      </trkpt>
      <trkpt lat="46.41792" lon="5.75257">
        <ele>968.18</ele>
        <time>2018-10-14T11:28:08Z</time>
      </trkpt>
      <trkpt lat="46.41789" lon="5.75252">
        <ele>968.18</ele>
        <time>2018-10-14T11:28:20Z</time>
      </trkpt>
      <trkpt lat="46.41788" lon="5.75251">
        <ele>968.18</ele>
        <time>2018-10-14T11:28:37Z</time>
      </trkpt>
      <trkpt lat="46.4179" lon="5.75249">
        <ele>967.22</ele>
        <time>2018-10-14T11:28:55Z</time>
      </trkpt>
      <trkpt lat="46.4179" lon="5.75242">
        <ele>966.26</ele>
        <time>2018-10-14T11:29:10Z</time>
      </trkpt>
      <trkpt lat="46.41788" lon="5.75235">
        <ele>964.82</ele>
        <time>2018-10-14T11:29:24Z</time>
      </trkpt>
      <trkpt lat="46.41788" lon="5.75233">
        <ele>964.82</ele>
        <time>2018-10-14T11:29:39Z</time>
      </trkpt>
      <trkpt lat="46.41785" lon="5.75227">
        <ele>964.34</ele>
        <time>2018-10-14T11:29:50Z</time>
      </trkpt>
      <trkpt lat="46.41783" lon="5.75225">
        <ele>964.34</ele>
        <time>2018-10-14T11:30:01Z</time>
      </trkpt>
      <trkpt lat="46.41782" lon="5.75224">
        <ele>964.34</ele>
        <time>2018-10-14T11:30:17Z</time>
      </trkpt>
      <trkpt lat="46.41782" lon="5.75221">
        <ele>963.86</ele>
        <time>2018-10-14T11:30:30Z</time>
      </trkpt>
      <trkpt lat="46.41779" lon="5.75207">
        <ele>961.46</ele>
        <time>2018-10-14T11:30:44Z</time>
      </trkpt>
      <trkpt lat="46.41779" lon="5.75202">
        <ele>960.98</ele>
        <time>2018-10-14T11:30:57Z</time>
      </trkpt>
      <trkpt lat="46.41777" lon="5.75202">
        <ele>961.94</ele>
        <time>2018-10-14T11:31:12Z</time>
      </trkpt>
      <trkpt lat="46.41774" lon="5.75202">
        <ele>961.94</ele>
        <time>2018-10-14T11:31:25Z</time>
      </trkpt>
      <trkpt lat="46.41775" lon="5.75202">
        <ele>962.42</ele>
        <time>2018-10-14T11:31:42Z</time>
      </trkpt>
      <trkpt lat="46.41778" lon="5.75203">
        <ele>962.42</ele>
        <time>2018-10-14T11:31:55Z</time>
      </trkpt>
      <trkpt lat="46.41779" lon="5.75203">
        <ele>960.98</ele>
        <time>2018-10-14T11:32:08Z</time>
      </trkpt>
      <trkpt lat="46.41779" lon="5.75193">
        <ele>959.53</ele>
        <time>2018-10-14T11:32:23Z</time>
      </trkpt>
      <trkpt lat="46.41778" lon="5.75185">
        <ele>957.13</ele>
        <time>2018-10-14T11:32:36Z</time>
      </trkpt>
      <trkpt lat="46.41779" lon="5.75174">
        <ele>955.69</ele>
        <time>2018-10-14T11:32:51Z</time>
      </trkpt>
      <trkpt lat="46.41778" lon="5.7517">
        <ele>954.25</ele>
        <time>2018-10-14T11:32:58Z</time>
      </trkpt>
      <trkpt lat="46.41777" lon="5.75158">
        <ele>953.28</ele>
        <time>2018-10-14T11:33:10Z</time>
      </trkpt>
      <trkpt lat="46.41775" lon="5.75156">
        <ele>952.8</ele>
        <time>2018-10-14T11:33:22Z</time>
      </trkpt>
      <trkpt lat="46.41775" lon="5.75158">
        <ele>952.8</ele>
        <time>2018-10-14T11:33:33Z</time>
      </trkpt>
      <trkpt lat="46.41775" lon="5.75156">
        <ele>952.8</ele>
        <time>2018-10-14T11:33:51Z</time>
      </trkpt>
      <trkpt lat="46.41779" lon="5.75149">
        <ele>952.8</ele>
        <time>2018-10-14T11:34:11Z</time>
      </trkpt>
      <trkpt lat="46.41779" lon="5.75149">
        <ele>952.8</ele>
        <time>2018-10-14T11:34:26Z</time>
      </trkpt>
      <trkpt lat="46.41774" lon="5.75152">
        <ele>952.8</ele>
        <time>2018-10-14T11:34:46Z</time>
      </trkpt>
      <trkpt lat="46.41773" lon="5.75152">
        <ele>954.25</ele>
        <time>2018-10-14T11:34:48Z</time>
      </trkpt>
      <trkpt lat="46.41765" lon="5.75148">
        <ele>955.69</ele>
        <time>2018-10-14T11:35:02Z</time>
      </trkpt>
      <trkpt lat="46.4176" lon="5.75149">
        <ele>956.17</ele>
        <time>2018-10-14T11:35:15Z</time>
      </trkpt>
      <trkpt lat="46.41761" lon="5.75151">
        <ele>956.17</ele>
        <time>2018-10-14T11:35:30Z</time>
      </trkpt>
      <trkpt lat="46.41761" lon="5.75156">
        <ele>956.65</ele>
        <time>2018-10-14T11:35:43Z</time>
      </trkpt>
      <trkpt lat="46.41761" lon="5.7515">
        <ele>956.17</ele>
        <time>2018-10-14T11:35:54Z</time>
      </trkpt>
      <trkpt lat="46.41756" lon="5.75145">
        <ele>956.17</ele>
        <time>2018-10-14T11:36:09Z</time>
      </trkpt>
      <trkpt lat="46.41759" lon="5.75147">
        <ele>956.65</ele>
        <time>2018-10-14T11:36:21Z</time>
      </trkpt>
      <trkpt lat="46.41758" lon="5.75145">
        <ele>956.65</ele>
        <time>2018-10-14T11:36:34Z</time>
      </trkpt>
      <trkpt lat="46.41755" lon="5.75142">
        <ele>956.65</ele>
        <time>2018-10-14T11:36:48Z</time>
      </trkpt>
      <trkpt lat="46.41754" lon="5.75141">
        <ele>957.13</ele>
        <time>2018-10-14T11:37:00Z</time>
      </trkpt>
      <trkpt lat="46.41755" lon="5.75144">
        <ele>957.13</ele>
        <time>2018-10-14T11:37:13Z</time>
      </trkpt>
      <trkpt lat="46.41756" lon="5.75142">
        <ele>957.13</ele>
        <time>2018-10-14T11:37:24Z</time>
      </trkpt>
      <trkpt lat="46.41764" lon="5.75149">
        <ele>955.69</ele>
        <time>2018-10-14T11:37:38Z</time>
      </trkpt>
      <trkpt lat="46.41768" lon="5.75156">
        <ele>955.21</ele>
        <time>2018-10-14T11:37:44Z</time>
      </trkpt>
      <trkpt lat="46.41777" lon="5.75155">
        <ele>952.32</ele>
        <time>2018-10-14T11:37:59Z</time>
      </trkpt>
      <trkpt lat="46.41781" lon="5.75156">
        <ele>951.36</ele>
        <time>2018-10-14T11:38:10Z</time>
      </trkpt>
      <trkpt lat="46.41779" lon="5.75153">
        <ele>952.32</ele>
        <time>2018-10-14T11:38:24Z</time>
      </trkpt>
      <trkpt lat="46.41777" lon="5.75158">
        <ele>952.8</ele>
        <time>2018-10-14T11:38:40Z</time>
      </trkpt>
      <trkpt lat="46.41777" lon="5.75159">
        <ele>953.28</ele>
        <time>2018-10-14T11:38:59Z</time>
      </trkpt>
      <trkpt lat="46.41778" lon="5.75159">
        <ele>953.77</ele>
        <time>2018-10-14T11:39:19Z</time>
      </trkpt>
      <trkpt lat="46.41776" lon="5.75158">
        <ele>953.77</ele>
        <time>2018-10-14T11:39:38Z</time>
      </trkpt>
      <trkpt lat="46.41778" lon="5.75159">
        <ele>953.77</ele>
        <time>2018-10-14T11:39:56Z</time>
      </trkpt>
      <trkpt lat="46.41778" lon="5.75158">
        <ele>953.77</ele>
        <time>2018-10-14T11:40:19Z</time>
      </trkpt>
      <trkpt lat="46.4178" lon="5.75156">
        <ele>952.32</ele>
        <time>2018-10-14T11:40:28Z</time>
      </trkpt>
      <trkpt lat="46.41785" lon="5.75155">
        <ele>950.4</ele>
        <time>2018-10-14T11:40:40Z</time>
      </trkpt>
      <trkpt lat="46.4179" lon="5.75147">
        <ele>947.52</ele>
        <time>2018-10-14T11:40:53Z</time>
      </trkpt>
      <trkpt lat="46.41794" lon="5.75141">
        <ele>945.11</ele>
        <time>2018-10-14T11:41:04Z</time>
      </trkpt>
      <trkpt lat="46.41799" lon="5.75136">
        <ele>941.75</ele>
        <time>2018-10-14T11:41:15Z</time>
      </trkpt>
      <trkpt lat="46.41804" lon="5.75128">
        <ele>938.38</ele>
        <time>2018-10-14T11:41:26Z</time>
      </trkpt>
      <trkpt lat="46.41805" lon="5.75126">
        <ele>937.9</ele>
        <time>2018-10-14T11:41:28Z</time>
      </trkpt>
      <trkpt lat="46.41805" lon="5.75123">
        <ele>936.94</ele>
        <time>2018-10-14T11:41:30Z</time>
      </trkpt>
      <trkpt lat="46.41807" lon="5.75117">
        <ele>935.5</ele>
        <time>2018-10-14T11:41:34Z</time>
      </trkpt>
      <trkpt lat="46.41809" lon="5.75108">
        <ele>934.54</ele>
        <time>2018-10-14T11:41:40Z</time>
      </trkpt>
      <trkpt lat="46.41812" lon="5.75096">
        <ele>934.06</ele>
        <time>2018-10-14T11:41:54Z</time>
      </trkpt>
      <trkpt lat="46.41818" lon="5.75089">
        <ele>931.65</ele>
        <time>2018-10-14T11:42:05Z</time>
      </trkpt>
      <trkpt lat="46.41825" lon="5.75079">
        <ele>928.77</ele>
        <time>2018-10-14T11:42:17Z</time>
      </trkpt>
      <trkpt lat="46.41832" lon="5.75073">
        <ele>927.33</ele>
        <time>2018-10-14T11:42:30Z</time>
      </trkpt>
      <trkpt lat="46.41837" lon="5.75069">
        <ele>925.41</ele>
        <time>2018-10-14T11:42:41Z</time>
      </trkpt>
      <trkpt lat="46.41843" lon="5.75071">
        <ele>924.93</ele>
        <time>2018-10-14T11:42:49Z</time>
      </trkpt>
      <trkpt lat="46.4186" lon="5.75075">
        <ele>924.45</ele>
        <time>2018-10-14T11:43:02Z</time>
      </trkpt>
      <trkpt lat="46.41871" lon="5.75082">
        <ele>926.37</ele>
        <time>2018-10-14T11:43:13Z</time>
      </trkpt>
      <trkpt lat="46.4188" lon="5.75092">
        <ele>926.37</ele>
        <time>2018-10-14T11:43:27Z</time>
      </trkpt>
      <trkpt lat="46.41889" lon="5.75099">
        <ele>926.37</ele>
        <time>2018-10-14T11:43:40Z</time>
      </trkpt>
      <trkpt lat="46.41897" lon="5.75104">
        <ele>925.41</ele>
        <time>2018-10-14T11:43:49Z</time>
      </trkpt>
      <trkpt lat="46.41898" lon="5.75105">
        <ele>925.41</ele>
        <time>2018-10-14T11:43:51Z</time>
      </trkpt>
      <trkpt lat="46.41906" lon="5.75109">
        <ele>924.45</ele>
        <time>2018-10-14T11:44:02Z</time>
      </trkpt>
      <trkpt lat="46.41909" lon="5.7511">
        <ele>924.45</ele>
        <time>2018-10-14T11:44:06Z</time>
      </trkpt>
      <trkpt lat="46.4192" lon="5.75114">
        <ele>924.45</ele>
        <time>2018-10-14T11:44:15Z</time>
      </trkpt>
      <trkpt lat="46.41927" lon="5.75116">
        <ele>924.45</ele>
        <time>2018-10-14T11:44:21Z</time>
      </trkpt>
      <trkpt lat="46.4194" lon="5.75125">
        <ele>924.45</ele>
        <time>2018-10-14T11:44:35Z</time>
      </trkpt>
      <trkpt lat="46.41942" lon="5.75127">
        <ele>924.45</ele>
        <time>2018-10-14T11:44:38Z</time>
      </trkpt>
      <trkpt lat="46.41953" lon="5.75139">
        <ele>924.45</ele>
        <time>2018-10-14T11:44:52Z</time>
      </trkpt>
      <trkpt lat="46.4196" lon="5.75147">
        <ele>924.45</ele>
        <time>2018-10-14T11:45:04Z</time>
      </trkpt>
      <trkpt lat="46.41964" lon="5.75151">
        <ele>924.45</ele>
        <time>2018-10-14T11:45:10Z</time>
      </trkpt>
      <trkpt lat="46.41973" lon="5.75157">
        <ele>923</ele>
        <time>2018-10-14T11:45:23Z</time>
      </trkpt>
      <trkpt lat="46.41976" lon="5.75166">
        <ele>921.56</ele>
        <time>2018-10-14T11:45:34Z</time>
      </trkpt>
      <trkpt lat="46.41984" lon="5.7517">
        <ele>919.16</ele>
        <time>2018-10-14T11:45:48Z</time>
      </trkpt>
      <trkpt lat="46.41997" lon="5.75177">
        <ele>919.16</ele>
        <time>2018-10-14T11:46:03Z</time>
      </trkpt>
      <trkpt lat="46.42008" lon="5.75182">
        <ele>919.16</ele>
        <time>2018-10-14T11:46:16Z</time>
      </trkpt>
      <trkpt lat="46.42014" lon="5.75186">
        <ele>918.68</ele>
        <time>2018-10-14T11:46:28Z</time>
      </trkpt>
      <trkpt lat="46.42021" lon="5.75185">
        <ele>917.24</ele>
        <time>2018-10-14T11:46:41Z</time>
      </trkpt>
      <trkpt lat="46.42028" lon="5.75181">
        <ele>915.31</ele>
        <time>2018-10-14T11:46:55Z</time>
      </trkpt>
      <trkpt lat="46.4203" lon="5.7517">
        <ele>913.39</ele>
        <time>2018-10-14T11:47:07Z</time>
      </trkpt>
      <trkpt lat="46.42031" lon="5.7516">
        <ele>911.47</ele>
        <time>2018-10-14T11:47:16Z</time>
      </trkpt>
      <trkpt lat="46.4203" lon="5.75147">
        <ele>910.51</ele>
        <time>2018-10-14T11:47:24Z</time>
      </trkpt>
      <trkpt lat="46.4203" lon="5.75136">
        <ele>910.03</ele>
        <time>2018-10-14T11:47:38Z</time>
      </trkpt>
      <trkpt lat="46.42035" lon="5.75123">
        <ele>908.58</ele>
        <time>2018-10-14T11:47:51Z</time>
      </trkpt>
      <trkpt lat="46.42036" lon="5.75116">
        <ele>907.62</ele>
        <time>2018-10-14T11:48:03Z</time>
      </trkpt>
      <trkpt lat="46.42038" lon="5.75113">
        <ele>907.14</ele>
        <time>2018-10-14T11:48:18Z</time>
      </trkpt>
      <trkpt lat="46.4204" lon="5.751">
        <ele>905.7</ele>
        <time>2018-10-14T11:48:30Z</time>
      </trkpt>
      <trkpt lat="46.42042" lon="5.7509">
        <ele>904.26</ele>
        <time>2018-10-14T11:48:43Z</time>
      </trkpt>
      <trkpt lat="46.42043" lon="5.75086">
        <ele>904.26</ele>
        <time>2018-10-14T11:48:47Z</time>
      </trkpt>
      <trkpt lat="46.4204" lon="5.75065">
        <ele>902.33</ele>
        <time>2018-10-14T11:49:01Z</time>
      </trkpt>
      <trkpt lat="46.42036" lon="5.75052">
        <ele>899.93</ele>
        <time>2018-10-14T11:49:15Z</time>
      </trkpt>
      <trkpt lat="46.42035" lon="5.75051">
        <ele>899.93</ele>
        <time>2018-10-14T11:49:16Z</time>
      </trkpt>
      <trkpt lat="46.42031" lon="5.75039">
        <ele>897.53</ele>
        <time>2018-10-14T11:49:28Z</time>
      </trkpt>
      <trkpt lat="46.42026" lon="5.75021">
        <ele>894.64</ele>
        <time>2018-10-14T11:49:43Z</time>
      </trkpt>
      <trkpt lat="46.42023" lon="5.75015">
        <ele>894.16</ele>
        <time>2018-10-14T11:49:50Z</time>
      </trkpt>
      <trkpt lat="46.42018" lon="5.75">
        <ele>891.76</ele>
        <time>2018-10-14T11:50:04Z</time>
      </trkpt>
      <trkpt lat="46.42015" lon="5.74988">
        <ele>889.84</ele>
        <time>2018-10-14T11:50:15Z</time>
      </trkpt>
      <trkpt lat="46.4201" lon="5.74979">
        <ele>887.91</ele>
        <time>2018-10-14T11:50:27Z</time>
      </trkpt>
      <trkpt lat="46.42006" lon="5.74973">
        <ele>886.95</ele>
        <time>2018-10-14T11:50:35Z</time>
      </trkpt>
      <trkpt lat="46.42005" lon="5.7496">
        <ele>885.51</ele>
        <time>2018-10-14T11:50:48Z</time>
      </trkpt>
      <trkpt lat="46.42006" lon="5.7495">
        <ele>885.03</ele>
        <time>2018-10-14T11:50:57Z</time>
      </trkpt>
      <trkpt lat="46.42009" lon="5.74945">
        <ele>883.59</ele>
        <time>2018-10-14T11:51:04Z</time>
      </trkpt>
      <trkpt lat="46.42012" lon="5.74945">
        <ele>883.59</ele>
        <time>2018-10-14T11:51:08Z</time>
      </trkpt>
      <trkpt lat="46.42022" lon="5.74941">
        <ele>882.15</ele>
        <time>2018-10-14T11:51:20Z</time>
      </trkpt>
      <trkpt lat="46.42026" lon="5.74941">
        <ele>881.67</ele>
        <time>2018-10-14T11:51:25Z</time>
      </trkpt>
      <trkpt lat="46.42044" lon="5.74945">
        <ele>882.15</ele>
        <time>2018-10-14T11:51:42Z</time>
      </trkpt>
      <trkpt lat="46.42057" lon="5.74942">
        <ele>881.19</ele>
        <time>2018-10-14T11:51:57Z</time>
      </trkpt>
      <trkpt lat="46.4206" lon="5.7494">
        <ele>881.19</ele>
        <time>2018-10-14T11:52:17Z</time>
      </trkpt>
      <trkpt lat="46.42062" lon="5.7494">
        <ele>881.19</ele>
        <time>2018-10-14T11:52:34Z</time>
      </trkpt>
      <trkpt lat="46.42064" lon="5.74941">
        <ele>881.19</ele>
        <time>2018-10-14T11:52:53Z</time>
      </trkpt>
      <trkpt lat="46.42064" lon="5.74939">
        <ele>881.19</ele>
        <time>2018-10-14T11:53:06Z</time>
      </trkpt>
      <trkpt lat="46.42064" lon="5.7494">
        <ele>881.19</ele>
        <time>2018-10-14T11:53:30Z</time>
      </trkpt>
      <trkpt lat="46.42064" lon="5.7494">
        <ele>881.19</ele>
        <time>2018-10-14T11:53:47Z</time>
      </trkpt>
      <trkpt lat="46.42065" lon="5.7494">
        <ele>881.19</ele>
        <time>2018-10-14T11:54:04Z</time>
      </trkpt>
      <trkpt lat="46.42067" lon="5.7494">
        <ele>881.19</ele>
        <time>2018-10-14T11:54:22Z</time>
      </trkpt>
      <trkpt lat="46.42065" lon="5.74943">
        <ele>881.19</ele>
        <time>2018-10-14T11:54:39Z</time>
      </trkpt>
      <trkpt lat="46.42066" lon="5.74942">
        <ele>881.19</ele>
        <time>2018-10-14T11:54:59Z</time>
      </trkpt>
      <trkpt lat="46.42065" lon="5.74943">
        <ele>880.71</ele>
        <time>2018-10-14T11:55:14Z</time>
      </trkpt>
      <trkpt lat="46.42064" lon="5.7494">
        <ele>880.71</ele>
        <time>2018-10-14T11:55:31Z</time>
      </trkpt>
      <trkpt lat="46.42065" lon="5.74938">
        <ele>880.71</ele>
        <time>2018-10-14T11:55:51Z</time>
      </trkpt>
      <trkpt lat="46.42065" lon="5.74938">
        <ele>880.71</ele>
        <time>2018-10-14T11:56:08Z</time>
      </trkpt>
      <trkpt lat="46.42065" lon="5.74941">
        <ele>880.71</ele>
        <time>2018-10-14T11:56:28Z</time>
      </trkpt>
      <trkpt lat="46.42065" lon="5.7494">
        <ele>880.71</ele>
        <time>2018-10-14T11:56:45Z</time>
      </trkpt>
      <trkpt lat="46.42066" lon="5.74937">
        <ele>880.71</ele>
        <time>2018-10-14T11:57:05Z</time>
      </trkpt>
      <trkpt lat="46.42067" lon="5.7494">
        <ele>880.71</ele>
        <time>2018-10-14T11:57:20Z</time>
      </trkpt>
      <trkpt lat="46.42064" lon="5.7494">
        <ele>880.71</ele>
        <time>2018-10-14T11:57:33Z</time>
      </trkpt>
      <trkpt lat="46.42058" lon="5.74934">
        <ele>879.74</ele>
        <time>2018-10-14T11:57:43Z</time>
      </trkpt>
      <trkpt lat="46.42047" lon="5.74926">
        <ele>878.3</ele>
        <time>2018-10-14T11:57:57Z</time>
      </trkpt>
      <trkpt lat="46.42037" lon="5.74918">
        <ele>876.38</ele>
        <time>2018-10-14T11:58:09Z</time>
      </trkpt>
      <trkpt lat="46.42025" lon="5.74915">
        <ele>874.94</ele>
        <time>2018-10-14T11:58:23Z</time>
      </trkpt>
      <trkpt lat="46.42012" lon="5.7492">
        <ele>873.01</ele>
        <time>2018-10-14T11:58:37Z</time>
      </trkpt>
      <trkpt lat="46.41996" lon="5.74922">
        <ele>871.09</ele>
        <time>2018-10-14T11:58:51Z</time>
      </trkpt>
      <trkpt lat="46.4199" lon="5.74922">
        <ele>871.09</ele>
        <time>2018-10-14T11:58:56Z</time>
      </trkpt>
      <trkpt lat="46.41986" lon="5.74921">
        <ele>870.61</ele>
        <time>2018-10-14T11:59:00Z</time>
      </trkpt>
      <trkpt lat="46.4198" lon="5.74918">
        <ele>870.13</ele>
        <time>2018-10-14T11:59:05Z</time>
      </trkpt>
      <trkpt lat="46.41972" lon="5.74915">
        <ele>869.17</ele>
        <time>2018-10-14T11:59:15Z</time>
      </trkpt>
      <trkpt lat="46.41961" lon="5.74903">
        <ele>868.21</ele>
        <time>2018-10-14T11:59:28Z</time>
      </trkpt>
      <trkpt lat="46.41956" lon="5.74897">
        <ele>867.73</ele>
        <time>2018-10-14T11:59:35Z</time>
      </trkpt>
      <trkpt lat="46.41945" lon="5.74883">
        <ele>866.77</ele>
        <time>2018-10-14T11:59:49Z</time>
      </trkpt>
      <trkpt lat="46.41933" lon="5.74874">
        <ele>865.8</ele>
        <time>2018-10-14T12:00:01Z</time>
      </trkpt>
      <trkpt lat="46.41922" lon="5.7487">
        <ele>865.32</ele>
        <time>2018-10-14T12:00:15Z</time>
      </trkpt>
      <trkpt lat="46.41918" lon="5.74868">
        <ele>864.84</ele>
        <time>2018-10-14T12:00:21Z</time>
      </trkpt>
      <trkpt lat="46.41903" lon="5.74861">
        <ele>863.4</ele>
        <time>2018-10-14T12:00:37Z</time>
      </trkpt>
      <trkpt lat="46.41898" lon="5.7486">
        <ele>862.44</ele>
        <time>2018-10-14T12:00:42Z</time>
      </trkpt>
      <trkpt lat="46.41885" lon="5.74855">
        <ele>860.04</ele>
        <time>2018-10-14T12:00:56Z</time>
      </trkpt>
      <trkpt lat="46.41874" lon="5.74848">
        <ele>859.08</ele>
        <time>2018-10-14T12:01:09Z</time>
      </trkpt>
      <trkpt lat="46.41871" lon="5.74847">
        <ele>857.63</ele>
        <time>2018-10-14T12:01:13Z</time>
      </trkpt>
      <trkpt lat="46.41856" lon="5.74846">
        <ele>856.19</ele>
        <time>2018-10-14T12:01:27Z</time>
      </trkpt>
      <trkpt lat="46.41841" lon="5.74843">
        <ele>854.27</ele>
        <time>2018-10-14T12:01:42Z</time>
      </trkpt>
      <trkpt lat="46.41826" lon="5.74837">
        <ele>853.31</ele>
        <time>2018-10-14T12:01:57Z</time>
      </trkpt>
      <trkpt lat="46.41809" lon="5.74829">
        <ele>853.31</ele>
        <time>2018-10-14T12:02:12Z</time>
      </trkpt>
      <trkpt lat="46.41793" lon="5.74819">
        <ele>852.83</ele>
        <time>2018-10-14T12:02:27Z</time>
      </trkpt>
      <trkpt lat="46.41776" lon="5.74809">
        <ele>851.87</ele>
        <time>2018-10-14T12:02:41Z</time>
      </trkpt>
      <trkpt lat="46.41763" lon="5.74802">
        <ele>851.38</ele>
        <time>2018-10-14T12:02:52Z</time>
      </trkpt>
      <trkpt lat="46.41748" lon="5.74796">
        <ele>850.9</ele>
        <time>2018-10-14T12:03:04Z</time>
      </trkpt>
      <trkpt lat="46.4173" lon="5.74784">
        <ele>849.94</ele>
        <time>2018-10-14T12:03:22Z</time>
      </trkpt>
      <trkpt lat="46.41712" lon="5.74772">
        <ele>849.94</ele>
        <time>2018-10-14T12:03:38Z</time>
      </trkpt>
      <trkpt lat="46.41698" lon="5.74762">
        <ele>849.94</ele>
        <time>2018-10-14T12:03:52Z</time>
      </trkpt>
      <trkpt lat="46.41683" lon="5.74749">
        <ele>848.5</ele>
        <time>2018-10-14T12:04:10Z</time>
      </trkpt>
      <trkpt lat="46.41668" lon="5.74729">
        <ele>847.06</ele>
        <time>2018-10-14T12:04:29Z</time>
      </trkpt>
      <trkpt lat="46.41654" lon="5.74709">
        <ele>845.14</ele>
        <time>2018-10-14T12:04:46Z</time>
      </trkpt>
      <trkpt lat="46.41644" lon="5.74696">
        <ele>844.18</ele>
        <time>2018-10-14T12:04:58Z</time>
      </trkpt>
      <trkpt lat="46.41626" lon="5.747">
        <ele>841.77</ele>
        <time>2018-10-14T12:05:16Z</time>
      </trkpt>
      <trkpt lat="46.41621" lon="5.74715">
        <ele>840.81</ele>
        <time>2018-10-14T12:05:27Z</time>
      </trkpt>
      <trkpt lat="46.41619" lon="5.74725">
        <ele>839.85</ele>
        <time>2018-10-14T12:05:34Z</time>
      </trkpt>
      <trkpt lat="46.41612" lon="5.74736">
        <ele>838.41</ele>
        <time>2018-10-14T12:05:44Z</time>
      </trkpt>
      <trkpt lat="46.41604" lon="5.74746">
        <ele>836</ele>
        <time>2018-10-14T12:05:54Z</time>
      </trkpt>
      <trkpt lat="46.41595" lon="5.7476">
        <ele>834.56</ele>
        <time>2018-10-14T12:06:10Z</time>
      </trkpt>
      <trkpt lat="46.41594" lon="5.74764">
        <ele>834.56</ele>
        <time>2018-10-14T12:06:27Z</time>
      </trkpt>
      <trkpt lat="46.41598" lon="5.74775">
        <ele>834.08</ele>
        <time>2018-10-14T12:06:38Z</time>
      </trkpt>
      <trkpt lat="46.41609" lon="5.74786">
        <ele>832.64</ele>
        <time>2018-10-14T12:06:52Z</time>
      </trkpt>
      <trkpt lat="46.41624" lon="5.7479">
        <ele>830.72</ele>
        <time>2018-10-14T12:07:08Z</time>
      </trkpt>
      <trkpt lat="46.41637" lon="5.74798">
        <ele>829.27</ele>
        <time>2018-10-14T12:07:23Z</time>
      </trkpt>
      <trkpt lat="46.41653" lon="5.74809">
        <ele>828.31</ele>
        <time>2018-10-14T12:07:39Z</time>
      </trkpt>
      <trkpt lat="46.41669" lon="5.7482">
        <ele>826.87</ele>
        <time>2018-10-14T12:07:54Z</time>
      </trkpt>
      <trkpt lat="46.41673" lon="5.74823">
        <ele>826.87</ele>
        <time>2018-10-14T12:07:59Z</time>
      </trkpt>
      <trkpt lat="46.41685" lon="5.74838">
        <ele>826.87</ele>
        <time>2018-10-14T12:08:13Z</time>
      </trkpt>
      <trkpt lat="46.41686" lon="5.74843">
        <ele>826.87</ele>
        <time>2018-10-14T12:08:17Z</time>
      </trkpt>
      <trkpt lat="46.41686" lon="5.7486">
        <ele>826.87</ele>
        <time>2018-10-14T12:08:28Z</time>
      </trkpt>
      <trkpt lat="46.41686" lon="5.74867">
        <ele>826.87</ele>
        <time>2018-10-14T12:08:32Z</time>
      </trkpt>
      <trkpt lat="46.41679" lon="5.74894">
        <ele>826.87</ele>
        <time>2018-10-14T12:08:50Z</time>
      </trkpt>
      <trkpt lat="46.41673" lon="5.74917">
        <ele>826.87</ele>
        <time>2018-10-14T12:09:07Z</time>
      </trkpt>
      <trkpt lat="46.41667" lon="5.74932">
        <ele>826.87</ele>
        <time>2018-10-14T12:09:18Z</time>
      </trkpt>
      <trkpt lat="46.41659" lon="5.74956">
        <ele>826.87</ele>
        <time>2018-10-14T12:09:35Z</time>
      </trkpt>
      <trkpt lat="46.4165" lon="5.74982">
        <ele>827.83</ele>
        <time>2018-10-14T12:09:52Z</time>
      </trkpt>
      <trkpt lat="46.41646" lon="5.74995">
        <ele>828.31</ele>
        <time>2018-10-14T12:10:01Z</time>
      </trkpt>
      <trkpt lat="46.41639" lon="5.75022">
        <ele>827.83</ele>
        <time>2018-10-14T12:10:19Z</time>
      </trkpt>
      <trkpt lat="46.41632" lon="5.75053">
        <ele>827.83</ele>
        <time>2018-10-14T12:10:38Z</time>
      </trkpt>
      <trkpt lat="46.41629" lon="5.75081">
        <ele>827.83</ele>
        <time>2018-10-14T12:10:55Z</time>
      </trkpt>
      <trkpt lat="46.41623" lon="5.75111">
        <ele>828.31</ele>
        <time>2018-10-14T12:11:14Z</time>
      </trkpt>
      <trkpt lat="46.41617" lon="5.75135">
        <ele>827.83</ele>
        <time>2018-10-14T12:11:30Z</time>
      </trkpt>
      <trkpt lat="46.41611" lon="5.75164">
        <ele>826.87</ele>
        <time>2018-10-14T12:11:48Z</time>
      </trkpt>
      <trkpt lat="46.41611" lon="5.75168">
        <ele>826.87</ele>
        <time>2018-10-14T12:11:51Z</time>
      </trkpt>
      <trkpt lat="46.41607" lon="5.75195">
        <ele>826.39</ele>
        <time>2018-10-14T12:12:07Z</time>
      </trkpt>
      <trkpt lat="46.41601" lon="5.75222">
        <ele>825.91</ele>
        <time>2018-10-14T12:12:24Z</time>
      </trkpt>
      <trkpt lat="46.41592" lon="5.75253">
        <ele>825.43</ele>
        <time>2018-10-14T12:12:43Z</time>
      </trkpt>
      <trkpt lat="46.41592" lon="5.75257">
        <ele>825.43</ele>
        <time>2018-10-14T12:12:59Z</time>
      </trkpt>
      <trkpt lat="46.41594" lon="5.75257">
        <ele>825.43</ele>
        <time>2018-10-14T12:13:16Z</time>
      </trkpt>
      <trkpt lat="46.41588" lon="5.75271">
        <ele>825.43</ele>
        <time>2018-10-14T12:13:30Z</time>
      </trkpt>
      <trkpt lat="46.41584" lon="5.75293">
        <ele>824.95</ele>
        <time>2018-10-14T12:13:47Z</time>
      </trkpt>
      <trkpt lat="46.41582" lon="5.75296">
        <ele>824.47</ele>
        <time>2018-10-14T12:14:00Z</time>
      </trkpt>
      <trkpt lat="46.41571" lon="5.75305">
        <ele>824.47</ele>
        <time>2018-10-14T12:14:12Z</time>
      </trkpt>
      <trkpt lat="46.41562" lon="5.75312">
        <ele>823.99</ele>
        <time>2018-10-14T12:14:29Z</time>
      </trkpt>
      <trkpt lat="46.4156" lon="5.75312">
        <ele>823.99</ele>
        <time>2018-10-14T12:14:36Z</time>
      </trkpt>
      <trkpt lat="46.41544" lon="5.7532">
        <ele>823.51</ele>
        <time>2018-10-14T12:14:51Z</time>
      </trkpt>
      <trkpt lat="46.41521" lon="5.75334">
        <ele>821.58</ele>
        <time>2018-10-14T12:15:13Z</time>
      </trkpt>
      <trkpt lat="46.41516" lon="5.75336">
        <ele>821.58</ele>
        <time>2018-10-14T12:15:18Z</time>
      </trkpt>
      <trkpt lat="46.41506" lon="5.7534">
        <ele>821.1</ele>
        <time>2018-10-14T12:15:28Z</time>
      </trkpt>
      <trkpt lat="46.41503" lon="5.7534">
        <ele>821.1</ele>
        <time>2018-10-14T12:15:46Z</time>
      </trkpt>
      <trkpt lat="46.41499" lon="5.75345">
        <ele>820.62</ele>
        <time>2018-10-14T12:16:02Z</time>
      </trkpt>
      <trkpt lat="46.4149" lon="5.75355">
        <ele>820.14</ele>
        <time>2018-10-14T12:16:16Z</time>
      </trkpt>
      <trkpt lat="46.41486" lon="5.75358">
        <ele>820.14</ele>
        <time>2018-10-14T12:16:24Z</time>
      </trkpt>
      <trkpt lat="46.4148" lon="5.75365">
        <ele>819.66</ele>
        <time>2018-10-14T12:16:34Z</time>
      </trkpt>
      <trkpt lat="46.41474" lon="5.75368">
        <ele>819.66</ele>
        <time>2018-10-14T12:16:48Z</time>
      </trkpt>
      <trkpt lat="46.41469" lon="5.75369">
        <ele>819.18</ele>
        <time>2018-10-14T12:16:58Z</time>
      </trkpt>
      <trkpt lat="46.41466" lon="5.75371">
        <ele>819.18</ele>
        <time>2018-10-14T12:17:05Z</time>
      </trkpt>
      <trkpt lat="46.41456" lon="5.75376">
        <ele>818.7</ele>
        <time>2018-10-14T12:17:18Z</time>
      </trkpt>
      <trkpt lat="46.41448" lon="5.75372">
        <ele>818.22</ele>
        <time>2018-10-14T12:17:29Z</time>
      </trkpt>
      <trkpt lat="46.41442" lon="5.75373">
        <ele>817.74</ele>
        <time>2018-10-14T12:17:38Z</time>
      </trkpt>
      <trkpt lat="46.41436" lon="5.75374">
        <ele>819.66</ele>
        <time>2018-10-14T12:17:49Z</time>
      </trkpt>
      <trkpt lat="46.4143" lon="5.75372">
        <ele>820.14</ele>
        <time>2018-10-14T12:17:58Z</time>
      </trkpt>
      <trkpt lat="46.41427" lon="5.75371">
        <ele>820.62</ele>
        <time>2018-10-14T12:18:08Z</time>
      </trkpt>
      <trkpt lat="46.41424" lon="5.75376">
        <ele>820.14</ele>
        <time>2018-10-14T12:18:26Z</time>
      </trkpt>
      <trkpt lat="46.41422" lon="5.75376">
        <ele>820.14</ele>
        <time>2018-10-14T12:18:28Z</time>
      </trkpt>
      <trkpt lat="46.41418" lon="5.75377">
        <ele>821.1</ele>
        <time>2018-10-14T12:18:37Z</time>
      </trkpt>
      <trkpt lat="46.41409" lon="5.75377">
        <ele>821.1</ele>
        <time>2018-10-14T12:18:49Z</time>
      </trkpt>
      <trkpt lat="46.41408" lon="5.75376">
        <ele>821.1</ele>
        <time>2018-10-14T12:18:50Z</time>
      </trkpt>
      <trkpt lat="46.41402" lon="5.75373">
        <ele>821.1</ele>
        <time>2018-10-14T12:18:56Z</time>
      </trkpt>
      <trkpt lat="46.4139" lon="5.7537">
        <ele>819.18</ele>
        <time>2018-10-14T12:19:05Z</time>
      </trkpt>
      <trkpt lat="46.41376" lon="5.75362">
        <ele>819.18</ele>
        <time>2018-10-14T12:19:20Z</time>
      </trkpt>
      <trkpt lat="46.41368" lon="5.75354">
        <ele>819.18</ele>
        <time>2018-10-14T12:19:30Z</time>
      </trkpt>
      <trkpt lat="46.41365" lon="5.75351">
        <ele>819.18</ele>
        <time>2018-10-14T12:19:33Z</time>
      </trkpt>
      <trkpt lat="46.41364" lon="5.75348">
        <ele>820.14</ele>
        <time>2018-10-14T12:19:36Z</time>
      </trkpt>
      <trkpt lat="46.41362" lon="5.75346">
        <ele>820.14</ele>
        <time>2018-10-14T12:19:38Z</time>
      </trkpt>
      <trkpt lat="46.41353" lon="5.75332">
        <ele>820.14</ele>
        <time>2018-10-14T12:19:52Z</time>
      </trkpt>
      <trkpt lat="46.4135" lon="5.75323">
        <ele>819.18</ele>
        <time>2018-10-14T12:20:03Z</time>
      </trkpt>
      <trkpt lat="46.41348" lon="5.75321">
        <ele>819.18</ele>
        <time>2018-10-14T12:20:05Z</time>
      </trkpt>
      <trkpt lat="46.41341" lon="5.7531">
        <ele>819.18</ele>
        <time>2018-10-14T12:20:17Z</time>
      </trkpt>
      <trkpt lat="46.41335" lon="5.75298">
        <ele>818.7</ele>
        <time>2018-10-14T12:20:28Z</time>
      </trkpt>
      <trkpt lat="46.41327" lon="5.75284">
        <ele>818.7</ele>
        <time>2018-10-14T12:20:39Z</time>
      </trkpt>
      <trkpt lat="46.4132" lon="5.7527">
        <ele>818.7</ele>
        <time>2018-10-14T12:20:50Z</time>
      </trkpt>
      <trkpt lat="46.41317" lon="5.75265">
        <ele>818.7</ele>
        <time>2018-10-14T12:20:55Z</time>
      </trkpt>
      <trkpt lat="46.41307" lon="5.75251">
        <ele>818.7</ele>
        <time>2018-10-14T12:21:09Z</time>
      </trkpt>
      <trkpt lat="46.41299" lon="5.7524">
        <ele>818.22</ele>
        <time>2018-10-14T12:21:21Z</time>
      </trkpt>
      <trkpt lat="46.41294" lon="5.75238">
        <ele>817.26</ele>
        <time>2018-10-14T12:21:31Z</time>
      </trkpt>
      <trkpt lat="46.41294" lon="5.75229">
        <ele>815.34</ele>
        <time>2018-10-14T12:21:45Z</time>
      </trkpt>
      <trkpt lat="46.41295" lon="5.75225">
        <ele>815.82</ele>
        <time>2018-10-14T12:22:00Z</time>
      </trkpt>
      <trkpt lat="46.41297" lon="5.75212">
        <ele>815.82</ele>
        <time>2018-10-14T12:22:13Z</time>
      </trkpt>
      <trkpt lat="46.41297" lon="5.75207">
        <ele>815.82</ele>
        <time>2018-10-14T12:22:23Z</time>
      </trkpt>
      <trkpt lat="46.41296" lon="5.75201">
        <ele>814.85</ele>
        <time>2018-10-14T12:22:35Z</time>
      </trkpt>
      <trkpt lat="46.41292" lon="5.752">
        <ele>814.85</ele>
        <time>2018-10-14T12:22:45Z</time>
      </trkpt>
      <trkpt lat="46.41291" lon="5.75206">
        <ele>814.85</ele>
        <time>2018-10-14T12:23:00Z</time>
      </trkpt>
      <trkpt lat="46.41291" lon="5.75207">
        <ele>814.85</ele>
        <time>2018-10-14T12:23:18Z</time>
      </trkpt>
      <trkpt lat="46.41291" lon="5.75206">
        <ele>814.85</ele>
        <time>2018-10-14T12:23:41Z</time>
      </trkpt>
      <trkpt lat="46.4129" lon="5.75204">
        <ele>814.37</ele>
        <time>2018-10-14T12:24:01Z</time>
      </trkpt>
      <trkpt lat="46.41291" lon="5.75204">
        <ele>814.37</ele>
        <time>2018-10-14T12:24:18Z</time>
      </trkpt>
      <trkpt lat="46.41287" lon="5.75196">
        <ele>814.37</ele>
        <time>2018-10-14T12:24:34Z</time>
      </trkpt>
      <trkpt lat="46.41285" lon="5.75193">
        <ele>814.37</ele>
        <time>2018-10-14T12:24:38Z</time>
      </trkpt>
      <trkpt lat="46.4128" lon="5.7519">
        <ele>814.37</ele>
        <time>2018-10-14T12:24:50Z</time>
      </trkpt>
      <trkpt lat="46.41279" lon="5.7519">
        <ele>813.89</ele>
        <time>2018-10-14T12:25:06Z</time>
      </trkpt>
      <trkpt lat="46.41279" lon="5.75188">
        <ele>813.89</ele>
        <time>2018-10-14T12:25:23Z</time>
      </trkpt>
      <trkpt lat="46.41278" lon="5.75184">
        <ele>813.41</ele>
        <time>2018-10-14T12:25:38Z</time>
      </trkpt>
      <trkpt lat="46.41272" lon="5.75174">
        <ele>813.41</ele>
        <time>2018-10-14T12:25:54Z</time>
      </trkpt>
      <trkpt lat="46.41268" lon="5.75168">
        <ele>813.41</ele>
        <time>2018-10-14T12:26:05Z</time>
      </trkpt>
      <trkpt lat="46.41266" lon="5.75167">
        <ele>813.41</ele>
        <time>2018-10-14T12:26:19Z</time>
      </trkpt>
      <trkpt lat="46.41265" lon="5.75164">
        <ele>812.93</ele>
        <time>2018-10-14T12:26:33Z</time>
      </trkpt>
      <trkpt lat="46.41264" lon="5.75163">
        <ele>812.93</ele>
        <time>2018-10-14T12:26:50Z</time>
      </trkpt>
      <trkpt lat="46.41264" lon="5.75161">
        <ele>812.93</ele>
        <time>2018-10-14T12:27:06Z</time>
      </trkpt>
      <trkpt lat="46.41264" lon="5.75163">
        <ele>812.93</ele>
        <time>2018-10-14T12:27:32Z</time>
      </trkpt>
      <trkpt lat="46.41265" lon="5.75163">
        <ele>812.45</ele>
        <time>2018-10-14T12:27:52Z</time>
      </trkpt>
      <trkpt lat="46.41264" lon="5.75163">
        <ele>812.45</ele>
        <time>2018-10-14T12:28:07Z</time>
      </trkpt>
      <trkpt lat="46.41263" lon="5.75162">
        <ele>812.45</ele>
        <time>2018-10-14T12:28:23Z</time>
      </trkpt>
      <trkpt lat="46.41261" lon="5.7516">
        <ele>812.45</ele>
        <time>2018-10-14T12:28:36Z</time>
      </trkpt>
      <trkpt lat="46.41258" lon="5.75155">
        <ele>812.45</ele>
        <time>2018-10-14T12:28:43Z</time>
      </trkpt>
      <trkpt lat="46.41256" lon="5.75144">
        <ele>813.41</ele>
        <time>2018-10-14T12:28:56Z</time>
      </trkpt>
      <trkpt lat="46.41254" lon="5.75146">
        <ele>813.41</ele>
        <time>2018-10-14T12:29:12Z</time>
      </trkpt>
      <trkpt lat="46.41252" lon="5.75142">
        <ele>812.93</ele>
        <time>2018-10-14T12:29:33Z</time>
      </trkpt>
      <trkpt lat="46.41251" lon="5.75143">
        <ele>812.93</ele>
        <time>2018-10-14T12:29:50Z</time>
      </trkpt>
      <trkpt lat="46.41253" lon="5.75143">
        <ele>812.93</ele>
        <time>2018-10-14T12:30:10Z</time>
      </trkpt>
      <trkpt lat="46.41254" lon="5.75136">
        <ele>812.93</ele>
        <time>2018-10-14T12:30:19Z</time>
      </trkpt>
      <trkpt lat="46.41254" lon="5.75132">
        <ele>812.93</ele>
        <time>2018-10-14T12:30:33Z</time>
      </trkpt>
      <trkpt lat="46.41252" lon="5.75123">
        <ele>812.93</ele>
        <time>2018-10-14T12:30:47Z</time>
      </trkpt>
      <trkpt lat="46.41247" lon="5.75114">
        <ele>812.45</ele>
        <time>2018-10-14T12:30:59Z</time>
      </trkpt>
      <trkpt lat="46.41243" lon="5.75108">
        <ele>812.45</ele>
        <time>2018-10-14T12:31:11Z</time>
      </trkpt>
      <trkpt lat="46.41242" lon="5.751">
        <ele>812.45</ele>
        <time>2018-10-14T12:31:26Z</time>
      </trkpt>
      <trkpt lat="46.41246" lon="5.75096">
        <ele>811.49</ele>
        <time>2018-10-14T12:31:39Z</time>
      </trkpt>
      <trkpt lat="46.4124" lon="5.75092">
        <ele>812.45</ele>
        <time>2018-10-14T12:31:53Z</time>
      </trkpt>
      <trkpt lat="46.41239" lon="5.75094">
        <ele>812.45</ele>
        <time>2018-10-14T12:32:07Z</time>
      </trkpt>
      <trkpt lat="46.41239" lon="5.75083">
        <ele>812.45</ele>
        <time>2018-10-14T12:32:24Z</time>
      </trkpt>
      <trkpt lat="46.41239" lon="5.75072">
        <ele>812.45</ele>
        <time>2018-10-14T12:32:39Z</time>
      </trkpt>
      <trkpt lat="46.41242" lon="5.75069">
        <ele>811.01</ele>
        <time>2018-10-14T12:32:50Z</time>
      </trkpt>
      <trkpt lat="46.41239" lon="5.75067">
        <ele>811.97</ele>
        <time>2018-10-14T12:33:02Z</time>
      </trkpt>
      <trkpt lat="46.41238" lon="5.75068">
        <ele>812.45</ele>
        <time>2018-10-14T12:33:15Z</time>
      </trkpt>
      <trkpt lat="46.41237" lon="5.75067">
        <ele>812.45</ele>
        <time>2018-10-14T12:33:27Z</time>
      </trkpt>
      <trkpt lat="46.41236" lon="5.75068">
        <ele>811.01</ele>
        <time>2018-10-14T12:33:33Z</time>
      </trkpt>
      <trkpt lat="46.41235" lon="5.75069">
        <ele>810.53</ele>
        <time>2018-10-14T12:33:54Z</time>
      </trkpt>
      <trkpt lat="46.41236" lon="5.75068">
        <ele>811.97</ele>
        <time>2018-10-14T12:34:01Z</time>
      </trkpt>
      <trkpt lat="46.4124" lon="5.75068">
        <ele>810.53</ele>
        <time>2018-10-14T12:34:22Z</time>
      </trkpt>
      <trkpt lat="46.41235" lon="5.75067">
        <ele>811.01</ele>
        <time>2018-10-14T12:34:52Z</time>
      </trkpt>
      <trkpt lat="46.41236" lon="5.75068">
        <ele>810.53</ele>
        <time>2018-10-14T12:35:05Z</time>
      </trkpt>
      <trkpt lat="46.41235" lon="5.75063">
        <ele>810.53</ele>
        <time>2018-10-14T12:35:20Z</time>
      </trkpt>
      <trkpt lat="46.41237" lon="5.75053">
        <ele>810.53</ele>
        <time>2018-10-14T12:35:32Z</time>
      </trkpt>
      <trkpt lat="46.4124" lon="5.7504">
        <ele>810.53</ele>
        <time>2018-10-14T12:35:44Z</time>
      </trkpt>
      <trkpt lat="46.4124" lon="5.75039">
        <ele>810.53</ele>
        <time>2018-10-14T12:35:45Z</time>
      </trkpt>
      <trkpt lat="46.41241" lon="5.75029">
        <ele>810.53</ele>
        <time>2018-10-14T12:35:55Z</time>
      </trkpt>
      <trkpt lat="46.4124" lon="5.75025">
        <ele>811.49</ele>
        <time>2018-10-14T12:35:58Z</time>
      </trkpt>
      <trkpt lat="46.41245" lon="5.75008">
        <ele>811.49</ele>
        <time>2018-10-14T12:36:14Z</time>
      </trkpt>
      <trkpt lat="46.41245" lon="5.75008">
        <ele>811.01</ele>
        <time>2018-10-14T12:36:28Z</time>
      </trkpt>
      <trkpt lat="46.41247" lon="5.75008">
        <ele>811.01</ele>
        <time>2018-10-14T12:36:53Z</time>
      </trkpt>
      <trkpt lat="46.41248" lon="5.75005">
        <ele>811.01</ele>
        <time>2018-10-14T12:37:08Z</time>
      </trkpt>
      <trkpt lat="46.41251" lon="5.74997">
        <ele>811.01</ele>
        <time>2018-10-14T12:37:24Z</time>
      </trkpt>
      <trkpt lat="46.41256" lon="5.74983">
        <ele>811.01</ele>
        <time>2018-10-14T12:37:38Z</time>
      </trkpt>
      <trkpt lat="46.41258" lon="5.74975">
        <ele>810.53</ele>
        <time>2018-10-14T12:37:52Z</time>
      </trkpt>
      <trkpt lat="46.41257" lon="5.74972">
        <ele>810.53</ele>
        <time>2018-10-14T12:38:09Z</time>
      </trkpt>
      <trkpt lat="46.41259" lon="5.74968">
        <ele>810.53</ele>
        <time>2018-10-14T12:38:22Z</time>
      </trkpt>
      <trkpt lat="46.41254" lon="5.74963">
        <ele>810.53</ele>
        <time>2018-10-14T12:38:35Z</time>
      </trkpt>
      <trkpt lat="46.4125" lon="5.7496">
        <ele>812.45</ele>
        <time>2018-10-14T12:38:46Z</time>
      </trkpt>
      <trkpt lat="46.41248" lon="5.74952">
        <ele>814.85</ele>
        <time>2018-10-14T12:38:58Z</time>
      </trkpt>
      <trkpt lat="46.41247" lon="5.7495">
        <ele>815.34</ele>
        <time>2018-10-14T12:39:13Z</time>
      </trkpt>
      <trkpt lat="46.41247" lon="5.74949">
        <ele>815.34</ele>
        <time>2018-10-14T12:39:25Z</time>
      </trkpt>
      <trkpt lat="46.41247" lon="5.74949">
        <ele>815.34</ele>
        <time>2018-10-14T12:39:37Z</time>
      </trkpt>
      <trkpt lat="46.41247" lon="5.7495">
        <ele>815.34</ele>
        <time>2018-10-14T12:39:46Z</time>
      </trkpt>
      <trkpt lat="46.41246" lon="5.74949">
        <ele>814.85</ele>
        <time>2018-10-14T12:40:00Z</time>
      </trkpt>
      <trkpt lat="46.41245" lon="5.74951">
        <ele>814.85</ele>
        <time>2018-10-14T12:40:31Z</time>
      </trkpt>
      <trkpt lat="46.41247" lon="5.74955">
        <ele>815.34</ele>
        <time>2018-10-14T12:40:45Z</time>
      </trkpt>
      <trkpt lat="46.4125" lon="5.74949">
        <ele>815.34</ele>
        <time>2018-10-14T12:40:58Z</time>
      </trkpt>
      <trkpt lat="46.41254" lon="5.74944">
        <ele>815.82</ele>
        <time>2018-10-14T12:41:10Z</time>
      </trkpt>
      <trkpt lat="46.41259" lon="5.7494">
        <ele>815.82</ele>
        <time>2018-10-14T12:41:22Z</time>
      </trkpt>
      <trkpt lat="46.41267" lon="5.74939">
        <ele>813.89</ele>
        <time>2018-10-14T12:41:36Z</time>
      </trkpt>
      <trkpt lat="46.41272" lon="5.7493">
        <ele>813.89</ele>
        <time>2018-10-14T12:41:48Z</time>
      </trkpt>
      <trkpt lat="46.41275" lon="5.74929">
        <ele>813.41</ele>
        <time>2018-10-14T12:42:02Z</time>
      </trkpt>
      <trkpt lat="46.41277" lon="5.74927">
        <ele>812.93</ele>
        <time>2018-10-14T12:42:10Z</time>
      </trkpt>
      <trkpt lat="46.41284" lon="5.74922">
        <ele>811.97</ele>
        <time>2018-10-14T12:42:22Z</time>
      </trkpt>
      <trkpt lat="46.41284" lon="5.74917">
        <ele>811.97</ele>
        <time>2018-10-14T12:42:35Z</time>
      </trkpt>
      <trkpt lat="46.4129" lon="5.74908">
        <ele>811.97</ele>
        <time>2018-10-14T12:42:47Z</time>
      </trkpt>
      <trkpt lat="46.41291" lon="5.74908">
        <ele>811.97</ele>
        <time>2018-10-14T12:42:59Z</time>
      </trkpt>
      <trkpt lat="46.41295" lon="5.74904">
        <ele>811.97</ele>
        <time>2018-10-14T12:43:12Z</time>
      </trkpt>
      <trkpt lat="46.41297" lon="5.74899">
        <ele>812.93</ele>
        <time>2018-10-14T12:43:31Z</time>
      </trkpt>
      <trkpt lat="46.41298" lon="5.74899">
        <ele>813.41</ele>
        <time>2018-10-14T12:43:42Z</time>
      </trkpt>
      <trkpt lat="46.41297" lon="5.74899">
        <ele>813.41</ele>
        <time>2018-10-14T12:43:58Z</time>
      </trkpt>
      <trkpt lat="46.413" lon="5.74897">
        <ele>813.41</ele>
        <time>2018-10-14T12:44:15Z</time>
      </trkpt>
      <trkpt lat="46.41299" lon="5.74896">
        <ele>813.41</ele>
        <time>2018-10-14T12:44:29Z</time>
      </trkpt>
      <trkpt lat="46.41305" lon="5.74891">
        <ele>814.85</ele>
        <time>2018-10-14T12:44:39Z</time>
      </trkpt>
      <trkpt lat="46.41312" lon="5.74885">
        <ele>815.82</ele>
        <time>2018-10-14T12:44:51Z</time>
      </trkpt>
      <trkpt lat="46.41313" lon="5.74878">
        <ele>817.26</ele>
        <time>2018-10-14T12:45:04Z</time>
      </trkpt>
      <trkpt lat="46.41316" lon="5.74875">
        <ele>817.26</ele>
        <time>2018-10-14T12:45:18Z</time>
      </trkpt>
      <trkpt lat="46.4132" lon="5.74874">
        <ele>815.82</ele>
        <time>2018-10-14T12:45:26Z</time>
      </trkpt>
      <trkpt lat="46.41321" lon="5.74865">
        <ele>817.26</ele>
        <time>2018-10-14T12:45:36Z</time>
      </trkpt>
      <trkpt lat="46.41326" lon="5.74859">
        <ele>817.26</ele>
        <time>2018-10-14T12:45:44Z</time>
      </trkpt>
      <trkpt lat="46.41328" lon="5.74857">
        <ele>817.26</ele>
        <time>2018-10-14T12:45:47Z</time>
      </trkpt>
      <trkpt lat="46.41332" lon="5.74854">
        <ele>817.26</ele>
        <time>2018-10-14T12:45:59Z</time>
      </trkpt>
      <trkpt lat="46.41334" lon="5.74853">
        <ele>815.82</ele>
        <time>2018-10-14T12:46:02Z</time>
      </trkpt>
      <trkpt lat="46.4134" lon="5.74846">
        <ele>815.34</ele>
        <time>2018-10-14T12:46:15Z</time>
      </trkpt>
      <trkpt lat="46.41341" lon="5.74844">
        <ele>816.78</ele>
        <time>2018-10-14T12:46:21Z</time>
      </trkpt>
      <trkpt lat="46.41346" lon="5.74839">
        <ele>817.26</ele>
        <time>2018-10-14T12:46:34Z</time>
      </trkpt>
      <trkpt lat="46.41352" lon="5.74832">
        <ele>818.7</ele>
        <time>2018-10-14T12:46:46Z</time>
      </trkpt>
      <trkpt lat="46.41359" lon="5.74822">
        <ele>818.7</ele>
        <time>2018-10-14T12:46:58Z</time>
      </trkpt>
      <trkpt lat="46.41359" lon="5.74821">
        <ele>818.7</ele>
        <time>2018-10-14T12:46:59Z</time>
      </trkpt>
      <trkpt lat="46.41365" lon="5.74808">
        <ele>820.14</ele>
        <time>2018-10-14T12:47:13Z</time>
      </trkpt>
      <trkpt lat="46.41366" lon="5.74808">
        <ele>820.14</ele>
        <time>2018-10-14T12:47:20Z</time>
      </trkpt>
      <trkpt lat="46.4137" lon="5.74807">
        <ele>818.7</ele>
        <time>2018-10-14T12:47:33Z</time>
      </trkpt>
      <trkpt lat="46.41371" lon="5.74807">
        <ele>818.7</ele>
        <time>2018-10-14T12:47:34Z</time>
      </trkpt>
      <trkpt lat="46.41374" lon="5.74804">
        <ele>816.78</ele>
        <time>2018-10-14T12:47:49Z</time>
      </trkpt>
      <trkpt lat="46.41378" lon="5.74801">
        <ele>815.34</ele>
        <time>2018-10-14T12:48:00Z</time>
      </trkpt>
      <trkpt lat="46.41385" lon="5.748">
        <ele>814.85</ele>
        <time>2018-10-14T12:48:11Z</time>
      </trkpt>
      <trkpt lat="46.41394" lon="5.7479">
        <ele>814.37</ele>
        <time>2018-10-14T12:48:25Z</time>
      </trkpt>
      <trkpt lat="46.414" lon="5.74787">
        <ele>814.37</ele>
        <time>2018-10-14T12:48:37Z</time>
      </trkpt>
      <trkpt lat="46.41403" lon="5.74783">
        <ele>813.89</ele>
        <time>2018-10-14T12:48:50Z</time>
      </trkpt>
      <trkpt lat="46.41405" lon="5.74782">
        <ele>813.41</ele>
        <time>2018-10-14T12:49:01Z</time>
      </trkpt>
      <trkpt lat="46.41409" lon="5.74778">
        <ele>813.41</ele>
        <time>2018-10-14T12:49:14Z</time>
      </trkpt>
      <trkpt lat="46.41416" lon="5.74773">
        <ele>813.41</ele>
        <time>2018-10-14T12:49:25Z</time>
      </trkpt>
      <trkpt lat="46.41428" lon="5.74761">
        <ele>813.41</ele>
        <time>2018-10-14T12:49:41Z</time>
      </trkpt>
      <trkpt lat="46.41433" lon="5.74752">
        <ele>814.37</ele>
        <time>2018-10-14T12:49:53Z</time>
      </trkpt>
      <trkpt lat="46.41441" lon="5.74745">
        <ele>814.37</ele>
        <time>2018-10-14T12:50:08Z</time>
      </trkpt>
      <trkpt lat="46.41447" lon="5.74744">
        <ele>813.41</ele>
        <time>2018-10-14T12:50:20Z</time>
      </trkpt>
      <trkpt lat="46.4145" lon="5.74741">
        <ele>812.45</ele>
        <time>2018-10-14T12:50:32Z</time>
      </trkpt>
      <trkpt lat="46.41456" lon="5.74742">
        <ele>811.49</ele>
        <time>2018-10-14T12:50:46Z</time>
      </trkpt>
      <trkpt lat="46.41459" lon="5.74742">
        <ele>811.49</ele>
        <time>2018-10-14T12:51:02Z</time>
      </trkpt>
      <trkpt lat="46.41462" lon="5.74741">
        <ele>811.01</ele>
        <time>2018-10-14T12:51:20Z</time>
      </trkpt>
      <trkpt lat="46.41463" lon="5.74741">
        <ele>811.01</ele>
        <time>2018-10-14T12:51:42Z</time>
      </trkpt>
      <trkpt lat="46.41462" lon="5.74738">
        <ele>811.01</ele>
        <time>2018-10-14T12:52:04Z</time>
      </trkpt>
      <trkpt lat="46.41463" lon="5.74741">
        <ele>811.01</ele>
        <time>2018-10-14T12:52:28Z</time>
      </trkpt>
      <trkpt lat="46.41461" lon="5.74739">
        <ele>811.01</ele>
        <time>2018-10-14T12:52:46Z</time>
      </trkpt>
      <trkpt lat="46.41466" lon="5.74731">
        <ele>811.01</ele>
        <time>2018-10-14T12:52:58Z</time>
      </trkpt>
      <trkpt lat="46.41466" lon="5.7473">
        <ele>811.01</ele>
        <time>2018-10-14T12:53:11Z</time>
      </trkpt>
      <trkpt lat="46.41467" lon="5.74726">
        <ele>811.01</ele>
        <time>2018-10-14T12:53:33Z</time>
      </trkpt>
      <trkpt lat="46.41471" lon="5.74726">
        <ele>811.01</ele>
        <time>2018-10-14T12:53:46Z</time>
      </trkpt>
      <trkpt lat="46.41471" lon="5.74731">
        <ele>811.01</ele>
        <time>2018-10-14T12:53:58Z</time>
      </trkpt>
      <trkpt lat="46.41475" lon="5.74738">
        <ele>812.45</ele>
        <time>2018-10-14T12:54:14Z</time>
      </trkpt>
      <trkpt lat="46.41477" lon="5.74739">
        <ele>812.93</ele>
        <time>2018-10-14T12:54:27Z</time>
      </trkpt>
      <trkpt lat="46.41477" lon="5.7474">
        <ele>812.93</ele>
        <time>2018-10-14T12:54:45Z</time>
      </trkpt>
      <trkpt lat="46.41483" lon="5.7474">
        <ele>813.89</ele>
        <time>2018-10-14T12:55:03Z</time>
      </trkpt>
      <trkpt lat="46.41484" lon="5.74741">
        <ele>813.89</ele>
        <time>2018-10-14T12:55:08Z</time>
      </trkpt>
      <trkpt lat="46.41502" lon="5.74743">
        <ele>814.37</ele>
        <time>2018-10-14T12:55:25Z</time>
      </trkpt>
      <trkpt lat="46.41515" lon="5.74741">
        <ele>815.82</ele>
        <time>2018-10-14T12:55:37Z</time>
      </trkpt>
      <trkpt lat="46.41526" lon="5.74738">
        <ele>818.22</ele>
        <time>2018-10-14T12:55:51Z</time>
      </trkpt>
      <trkpt lat="46.41533" lon="5.74742">
        <ele>819.66</ele>
        <time>2018-10-14T12:56:04Z</time>
      </trkpt>
      <trkpt lat="46.41531" lon="5.7475">
        <ele>820.14</ele>
        <time>2018-10-14T12:56:17Z</time>
      </trkpt>
      <trkpt lat="46.41528" lon="5.74749">
        <ele>820.14</ele>
        <time>2018-10-14T12:56:33Z</time>
      </trkpt>
      <trkpt lat="46.41528" lon="5.7475">
        <ele>820.14</ele>
        <time>2018-10-14T12:56:59Z</time>
      </trkpt>
      <trkpt lat="46.41529" lon="5.74752">
        <ele>820.14</ele>
        <time>2018-10-14T12:57:21Z</time>
      </trkpt>
      <trkpt lat="46.41528" lon="5.74753">
        <ele>820.14</ele>
        <time>2018-10-14T12:57:33Z</time>
      </trkpt>
      <trkpt lat="46.41533" lon="5.74749">
        <ele>820.14</ele>
        <time>2018-10-14T12:58:00Z</time>
      </trkpt>
      <trkpt lat="46.4154" lon="5.74741">
        <ele>821.1</ele>
        <time>2018-10-14T12:58:10Z</time>
      </trkpt>
      <trkpt lat="46.41547" lon="5.74742">
        <ele>821.1</ele>
        <time>2018-10-14T12:58:22Z</time>
      </trkpt>
      <trkpt lat="46.41555" lon="5.74743">
        <ele>822.06</ele>
        <time>2018-10-14T12:58:31Z</time>
      </trkpt>
      <trkpt lat="46.41565" lon="5.74757">
        <ele>824.95</ele>
        <time>2018-10-14T12:58:47Z</time>
      </trkpt>
      <trkpt lat="46.41577" lon="5.74762">
        <ele>827.83</ele>
        <time>2018-10-14T12:59:01Z</time>
      </trkpt>
      <trkpt lat="46.41593" lon="5.7476">
        <ele>829.27</ele>
        <time>2018-10-14T12:59:18Z</time>
      </trkpt>
      <trkpt lat="46.416" lon="5.74756">
        <ele>829.27</ele>
        <time>2018-10-14T12:59:32Z</time>
      </trkpt>
      <trkpt lat="46.41591" lon="5.74751">
        <ele>829.27</ele>
        <time>2018-10-14T12:59:47Z</time>
      </trkpt>
      <trkpt lat="46.41591" lon="5.74749">
        <ele>828.79</ele>
        <time>2018-10-14T13:00:04Z</time>
      </trkpt>
      <trkpt lat="46.41591" lon="5.74751">
        <ele>828.79</ele>
        <time>2018-10-14T13:00:23Z</time>
      </trkpt>
      <trkpt lat="46.41591" lon="5.74748">
        <ele>828.79</ele>
        <time>2018-10-14T13:00:40Z</time>
      </trkpt>
      <trkpt lat="46.41589" lon="5.74748">
        <ele>828.79</ele>
        <time>2018-10-14T13:01:03Z</time>
      </trkpt>
      <trkpt lat="46.4159" lon="5.7475">
        <ele>828.79</ele>
        <time>2018-10-14T13:01:16Z</time>
      </trkpt>
      <trkpt lat="46.41591" lon="5.74749">
        <ele>828.31</ele>
        <time>2018-10-14T13:01:35Z</time>
      </trkpt>
      <trkpt lat="46.41588" lon="5.74753">
        <ele>828.31</ele>
        <time>2018-10-14T13:01:56Z</time>
      </trkpt>
      <trkpt lat="46.41588" lon="5.74751">
        <ele>827.35</ele>
        <time>2018-10-14T13:02:24Z</time>
      </trkpt>
      <trkpt lat="46.41587" lon="5.74753">
        <ele>827.35</ele>
        <time>2018-10-14T13:02:44Z</time>
      </trkpt>
      <trkpt lat="46.41587" lon="5.74748">
        <ele>826.87</ele>
        <time>2018-10-14T13:02:58Z</time>
      </trkpt>
      <trkpt lat="46.41584" lon="5.7474">
        <ele>826.87</ele>
        <time>2018-10-14T13:03:11Z</time>
      </trkpt>
      <trkpt lat="46.41582" lon="5.74732">
        <ele>826.87</ele>
        <time>2018-10-14T13:03:19Z</time>
      </trkpt>
      <trkpt lat="46.41579" lon="5.7472">
        <ele>826.87</ele>
        <time>2018-10-14T13:03:31Z</time>
      </trkpt>
      <trkpt lat="46.41573" lon="5.74698">
        <ele>828.79</ele>
        <time>2018-10-14T13:03:47Z</time>
      </trkpt>
      <trkpt lat="46.41573" lon="5.74696">
        <ele>828.79</ele>
        <time>2018-10-14T13:03:48Z</time>
      </trkpt>
      <trkpt lat="46.41573" lon="5.7468">
        <ele>827.35</ele>
        <time>2018-10-14T13:04:05Z</time>
      </trkpt>
      <trkpt lat="46.41575" lon="5.74676">
        <ele>827.35</ele>
        <time>2018-10-14T13:04:22Z</time>
      </trkpt>
      <trkpt lat="46.41571" lon="5.74671">
        <ele>827.35</ele>
        <time>2018-10-14T13:04:36Z</time>
      </trkpt>
      <trkpt lat="46.41572" lon="5.74672">
        <ele>827.83</ele>
        <time>2018-10-14T13:05:06Z</time>
      </trkpt>
      <trkpt lat="46.41573" lon="5.74675">
        <ele>827.83</ele>
        <time>2018-10-14T13:05:30Z</time>
      </trkpt>
      <trkpt lat="46.41574" lon="5.74672">
        <ele>827.83</ele>
        <time>2018-10-14T13:05:43Z</time>
      </trkpt>
      <trkpt lat="46.41575" lon="5.74669">
        <ele>827.35</ele>
        <time>2018-10-14T13:06:03Z</time>
      </trkpt>
      <trkpt lat="46.41573" lon="5.74671">
        <ele>827.35</ele>
        <time>2018-10-14T13:06:25Z</time>
      </trkpt>
      <trkpt lat="46.41574" lon="5.74671">
        <ele>827.35</ele>
        <time>2018-10-14T13:06:42Z</time>
      </trkpt>
      <trkpt lat="46.41575" lon="5.7467">
        <ele>827.35</ele>
        <time>2018-10-14T13:07:02Z</time>
      </trkpt>
      <trkpt lat="46.41574" lon="5.74659">
        <ele>826.39</ele>
        <time>2018-10-14T13:07:14Z</time>
      </trkpt>
      <trkpt lat="46.41573" lon="5.74656">
        <ele>825.91</ele>
        <time>2018-10-14T13:07:29Z</time>
      </trkpt>
      <trkpt lat="46.41569" lon="5.74647">
        <ele>825.43</ele>
        <time>2018-10-14T13:07:46Z</time>
      </trkpt>
      <trkpt lat="46.41563" lon="5.74635">
        <ele>823.99</ele>
        <time>2018-10-14T13:08:01Z</time>
      </trkpt>
      <trkpt lat="46.41562" lon="5.74634">
        <ele>823.99</ele>
        <time>2018-10-14T13:08:02Z</time>
      </trkpt>
      <trkpt lat="46.41555" lon="5.74607">
        <ele>823.03</ele>
        <time>2018-10-14T13:08:20Z</time>
      </trkpt>
      <trkpt lat="46.41555" lon="5.74603">
        <ele>823.03</ele>
        <time>2018-10-14T13:08:22Z</time>
      </trkpt>
      <trkpt lat="46.41551" lon="5.74577">
        <ele>822.55</ele>
        <time>2018-10-14T13:08:39Z</time>
      </trkpt>
      <trkpt lat="46.41542" lon="5.74555">
        <ele>820.62</ele>
        <time>2018-10-14T13:08:57Z</time>
      </trkpt>
      <trkpt lat="46.41532" lon="5.74538">
        <ele>818.7</ele>
        <time>2018-10-14T13:09:12Z</time>
      </trkpt>
      <trkpt lat="46.41522" lon="5.74515">
        <ele>818.22</ele>
        <time>2018-10-14T13:09:27Z</time>
      </trkpt>
      <trkpt lat="46.41517" lon="5.74503">
        <ele>818.22</ele>
        <time>2018-10-14T13:09:35Z</time>
      </trkpt>
      <trkpt lat="46.4151" lon="5.74487">
        <ele>817.74</ele>
        <time>2018-10-14T13:09:46Z</time>
      </trkpt>
      <trkpt lat="46.41506" lon="5.74483">
        <ele>817.74</ele>
        <time>2018-10-14T13:09:50Z</time>
      </trkpt>
      <trkpt lat="46.41501" lon="5.74477">
        <ele>817.74</ele>
        <time>2018-10-14T13:09:55Z</time>
      </trkpt>
      <trkpt lat="46.41488" lon="5.74467">
        <ele>816.78</ele>
        <time>2018-10-14T13:10:07Z</time>
      </trkpt>
      <trkpt lat="46.41472" lon="5.74457">
        <ele>815.82</ele>
        <time>2018-10-14T13:10:23Z</time>
      </trkpt>
      <trkpt lat="46.41463" lon="5.74451">
        <ele>814.85</ele>
        <time>2018-10-14T13:10:31Z</time>
      </trkpt>
      <trkpt lat="46.41443" lon="5.74433">
        <ele>813.41</ele>
        <time>2018-10-14T13:10:51Z</time>
      </trkpt>
      <trkpt lat="46.41427" lon="5.74409">
        <ele>811.01</ele>
        <time>2018-10-14T13:11:11Z</time>
      </trkpt>
      <trkpt lat="46.41421" lon="5.74397">
        <ele>809.57</ele>
        <time>2018-10-14T13:11:22Z</time>
      </trkpt>
      <trkpt lat="46.41421" lon="5.74395">
        <ele>809.57</ele>
        <time>2018-10-14T13:11:24Z</time>
      </trkpt>
      <trkpt lat="46.41414" lon="5.7438">
        <ele>808.13</ele>
        <time>2018-10-14T13:11:36Z</time>
      </trkpt>
      <trkpt lat="46.41405" lon="5.74366">
        <ele>806.68</ele>
        <time>2018-10-14T13:11:49Z</time>
      </trkpt>
      <trkpt lat="46.41393" lon="5.74349">
        <ele>804.76</ele>
        <time>2018-10-14T13:12:05Z</time>
      </trkpt>
      <trkpt lat="46.41391" lon="5.74338">
        <ele>804.28</ele>
        <time>2018-10-14T13:12:11Z</time>
      </trkpt>
      <trkpt lat="46.41387" lon="5.74328">
        <ele>803.8</ele>
        <time>2018-10-14T13:12:17Z</time>
      </trkpt>
      <trkpt lat="46.41381" lon="5.74297">
        <ele>801.4</ele>
        <time>2018-10-14T13:12:34Z</time>
      </trkpt>
      <trkpt lat="46.4138" lon="5.74284">
        <ele>800.92</ele>
        <time>2018-10-14T13:12:46Z</time>
      </trkpt>
      <trkpt lat="46.41374" lon="5.74261">
        <ele>798.99</ele>
        <time>2018-10-14T13:13:02Z</time>
      </trkpt>
      <trkpt lat="46.41365" lon="5.74239">
        <ele>797.07</ele>
        <time>2018-10-14T13:13:19Z</time>
      </trkpt>
      <trkpt lat="46.41365" lon="5.74227">
        <ele>796.11</ele>
        <time>2018-10-14T13:13:34Z</time>
      </trkpt>
      <trkpt lat="46.41366" lon="5.74227">
        <ele>796.11</ele>
        <time>2018-10-14T13:14:00Z</time>
      </trkpt>
      <trkpt lat="46.41366" lon="5.74229">
        <ele>796.11</ele>
        <time>2018-10-14T13:14:19Z</time>
      </trkpt>
      <trkpt lat="46.41364" lon="5.74228">
        <ele>796.11</ele>
        <time>2018-10-14T13:14:42Z</time>
      </trkpt>
      <trkpt lat="46.41365" lon="5.74228">
        <ele>796.11</ele>
        <time>2018-10-14T13:15:05Z</time>
      </trkpt>
      <trkpt lat="46.41366" lon="5.74229">
        <ele>795.63</ele>
        <time>2018-10-14T13:15:28Z</time>
      </trkpt>
      <trkpt lat="46.41365" lon="5.74233">
        <ele>795.63</ele>
        <time>2018-10-14T13:15:48Z</time>
      </trkpt>
      <trkpt lat="46.41366" lon="5.74232">
        <ele>795.63</ele>
        <time>2018-10-14T13:16:03Z</time>
      </trkpt>
      <trkpt lat="46.41368" lon="5.74233">
        <ele>795.63</ele>
        <time>2018-10-14T13:16:24Z</time>
      </trkpt>
      <trkpt lat="46.41364" lon="5.74233">
        <ele>795.63</ele>
        <time>2018-10-14T13:16:51Z</time>
      </trkpt>
      <trkpt lat="46.4136" lon="5.74234">
        <ele>795.15</ele>
        <time>2018-10-14T13:17:02Z</time>
      </trkpt>
      <trkpt lat="46.41353" lon="5.74231">
        <ele>795.15</ele>
        <time>2018-10-14T13:17:15Z</time>
      </trkpt>
      <trkpt lat="46.41341" lon="5.74221">
        <ele>793.22</ele>
        <time>2018-10-14T13:17:31Z</time>
      </trkpt>
      <trkpt lat="46.41327" lon="5.74207">
        <ele>791.3</ele>
        <time>2018-10-14T13:17:48Z</time>
      </trkpt>
      <trkpt lat="46.41325" lon="5.74204">
        <ele>790.82</ele>
        <time>2018-10-14T13:17:51Z</time>
      </trkpt>
      <trkpt lat="46.41319" lon="5.74183">
        <ele>789.38</ele>
        <time>2018-10-14T13:18:07Z</time>
      </trkpt>
      <trkpt lat="46.4131" lon="5.74166">
        <ele>787.46</ele>
        <time>2018-10-14T13:18:22Z</time>
      </trkpt>
      <trkpt lat="46.41304" lon="5.74156">
        <ele>786.98</ele>
        <time>2018-10-14T13:18:30Z</time>
      </trkpt>
      <trkpt lat="46.41291" lon="5.7414">
        <ele>786.02</ele>
        <time>2018-10-14T13:18:46Z</time>
      </trkpt>
      <trkpt lat="46.41285" lon="5.74135">
        <ele>786.02</ele>
        <time>2018-10-14T13:18:59Z</time>
      </trkpt>
      <trkpt lat="46.41273" lon="5.74126">
        <ele>785.53</ele>
        <time>2018-10-14T13:19:15Z</time>
      </trkpt>
      <trkpt lat="46.41259" lon="5.74118">
        <ele>784.09</ele>
        <time>2018-10-14T13:19:30Z</time>
      </trkpt>
      <trkpt lat="46.41247" lon="5.74108">
        <ele>782.65</ele>
        <time>2018-10-14T13:19:46Z</time>
      </trkpt>
      <trkpt lat="46.41239" lon="5.74099">
        <ele>780.73</ele>
        <time>2018-10-14T13:19:59Z</time>
      </trkpt>
      <trkpt lat="46.41228" lon="5.7409">
        <ele>778.81</ele>
        <time>2018-10-14T13:20:14Z</time>
      </trkpt>
      <trkpt lat="46.4122" lon="5.7408">
        <ele>776.88</ele>
        <time>2018-10-14T13:20:28Z</time>
      </trkpt>
      <trkpt lat="46.41217" lon="5.74065">
        <ele>775.44</ele>
        <time>2018-10-14T13:20:41Z</time>
      </trkpt>
      <trkpt lat="46.41218" lon="5.74049">
        <ele>773.04</ele>
        <time>2018-10-14T13:20:55Z</time>
      </trkpt>
      <trkpt lat="46.41219" lon="5.74038">
        <ele>771.11</ele>
        <time>2018-10-14T13:21:08Z</time>
      </trkpt>
      <trkpt lat="46.41222" lon="5.74032">
        <ele>770.63</ele>
        <time>2018-10-14T13:21:30Z</time>
      </trkpt>
      <trkpt lat="46.41225" lon="5.7403">
        <ele>769.67</ele>
        <time>2018-10-14T13:21:35Z</time>
      </trkpt>
      <trkpt lat="46.41228" lon="5.74027">
        <ele>769.19</ele>
        <time>2018-10-14T13:21:48Z</time>
      </trkpt>
      <trkpt lat="46.41228" lon="5.74027">
        <ele>769.19</ele>
        <time>2018-10-14T13:22:03Z</time>
      </trkpt>
      <trkpt lat="46.41228" lon="5.74026">
        <ele>769.19</ele>
        <time>2018-10-14T13:22:20Z</time>
      </trkpt>
      <trkpt lat="46.41228" lon="5.74025">
        <ele>769.19</ele>
        <time>2018-10-14T13:22:33Z</time>
      </trkpt>
      <trkpt lat="46.41229" lon="5.74023">
        <ele>769.19</ele>
        <time>2018-10-14T13:22:55Z</time>
      </trkpt>
      <trkpt lat="46.4123" lon="5.7402">
        <ele>768.71</ele>
        <time>2018-10-14T13:23:05Z</time>
      </trkpt>
      <trkpt lat="46.41235" lon="5.74013">
        <ele>766.79</ele>
        <time>2018-10-14T13:23:17Z</time>
      </trkpt>
      <trkpt lat="46.41241" lon="5.74009">
        <ele>765.83</ele>
        <time>2018-10-14T13:23:25Z</time>
      </trkpt>
      <trkpt lat="46.41253" lon="5.74007">
        <ele>763.42</ele>
        <time>2018-10-14T13:23:38Z</time>
      </trkpt>
      <trkpt lat="46.41265" lon="5.74005">
        <ele>761.98</ele>
        <time>2018-10-14T13:23:52Z</time>
      </trkpt>
      <trkpt lat="46.41278" lon="5.74003">
        <ele>759.1</ele>
        <time>2018-10-14T13:24:07Z</time>
      </trkpt>
      <trkpt lat="46.41288" lon="5.73998">
        <ele>757.18</ele>
        <time>2018-10-14T13:24:21Z</time>
      </trkpt>
      <trkpt lat="46.413" lon="5.73995">
        <ele>754.77</ele>
        <time>2018-10-14T13:24:36Z</time>
      </trkpt>
      <trkpt lat="46.41308" lon="5.73991">
        <ele>753.33</ele>
        <time>2018-10-14T13:24:46Z</time>
      </trkpt>
      <trkpt lat="46.41309" lon="5.7399">
        <ele>752.85</ele>
        <time>2018-10-14T13:24:47Z</time>
      </trkpt>
      <trkpt lat="46.41312" lon="5.73985">
        <ele>751.89</ele>
        <time>2018-10-14T13:24:52Z</time>
      </trkpt>
      <trkpt lat="46.41324" lon="5.73981">
        <ele>749.97</ele>
        <time>2018-10-14T13:25:06Z</time>
      </trkpt>
      <trkpt lat="46.41334" lon="5.7398">
        <ele>748.52</ele>
        <time>2018-10-14T13:25:18Z</time>
      </trkpt>
      <trkpt lat="46.41346" lon="5.73978">
        <ele>746.12</ele>
        <time>2018-10-14T13:25:33Z</time>
      </trkpt>
      <trkpt lat="46.41359" lon="5.73975">
        <ele>743.24</ele>
        <time>2018-10-14T13:25:49Z</time>
      </trkpt>
      <trkpt lat="46.41363" lon="5.73973">
        <ele>742.76</ele>
        <time>2018-10-14T13:26:04Z</time>
      </trkpt>
      <trkpt lat="46.4137" lon="5.7397">
        <ele>741.79</ele>
        <time>2018-10-14T13:26:15Z</time>
      </trkpt>
      <trkpt lat="46.41377" lon="5.73968">
        <ele>740.83</ele>
        <time>2018-10-14T13:26:28Z</time>
      </trkpt>
      <trkpt lat="46.41385" lon="5.73972">
        <ele>738.91</ele>
        <time>2018-10-14T13:26:43Z</time>
      </trkpt>
      <trkpt lat="46.41394" lon="5.73972">
        <ele>736.99</ele>
        <time>2018-10-14T13:27:00Z</time>
      </trkpt>
      <trkpt lat="46.41405" lon="5.73976">
        <ele>735.07</ele>
        <time>2018-10-14T13:27:16Z</time>
      </trkpt>
      <trkpt lat="46.41413" lon="5.73977">
        <ele>733.62</ele>
        <time>2018-10-14T13:27:30Z</time>
      </trkpt>
      <trkpt lat="46.4142" lon="5.73974">
        <ele>731.7</ele>
        <time>2018-10-14T13:27:43Z</time>
      </trkpt>
      <trkpt lat="46.41425" lon="5.73973">
        <ele>731.22</ele>
        <time>2018-10-14T13:27:57Z</time>
      </trkpt>
      <trkpt lat="46.41432" lon="5.73965">
        <ele>730.74</ele>
        <time>2018-10-14T13:28:12Z</time>
      </trkpt>
      <trkpt lat="46.41443" lon="5.73968">
        <ele>729.3</ele>
        <time>2018-10-14T13:28:26Z</time>
      </trkpt>
      <trkpt lat="46.41455" lon="5.73967">
        <ele>726.89</ele>
        <time>2018-10-14T13:28:41Z</time>
      </trkpt>
      <trkpt lat="46.41466" lon="5.73963">
        <ele>725.45</ele>
        <time>2018-10-14T13:28:55Z</time>
      </trkpt>
      <trkpt lat="46.41477" lon="5.73959">
        <ele>724.01</ele>
        <time>2018-10-14T13:29:10Z</time>
      </trkpt>
      <trkpt lat="46.41486" lon="5.73959">
        <ele>722.09</ele>
        <time>2018-10-14T13:29:22Z</time>
      </trkpt>
      <trkpt lat="46.41496" lon="5.73957">
        <ele>720.65</ele>
        <time>2018-10-14T13:29:34Z</time>
      </trkpt>
      <trkpt lat="46.41507" lon="5.73943">
        <ele>717.76</ele>
        <time>2018-10-14T13:29:51Z</time>
      </trkpt>
      <trkpt lat="46.41514" lon="5.73937">
        <ele>716.8</ele>
        <time>2018-10-14T13:30:08Z</time>
      </trkpt>
      <trkpt lat="46.41523" lon="5.73925">
        <ele>714.4</ele>
        <time>2018-10-14T13:30:23Z</time>
      </trkpt>
      <trkpt lat="46.41529" lon="5.73923">
        <ele>712.95</ele>
        <time>2018-10-14T13:30:34Z</time>
      </trkpt>
      <trkpt lat="46.41537" lon="5.73916">
        <ele>711.03</ele>
        <time>2018-10-14T13:30:48Z</time>
      </trkpt>
      <trkpt lat="46.41542" lon="5.73897">
        <ele>708.15</ele>
        <time>2018-10-14T13:31:05Z</time>
      </trkpt>
      <trkpt lat="46.41544" lon="5.73901">
        <ele>708.63</ele>
        <time>2018-10-14T13:31:17Z</time>
      </trkpt>
      <trkpt lat="46.41547" lon="5.73906">
        <ele>709.59</ele>
        <time>2018-10-14T13:31:28Z</time>
      </trkpt>
      <trkpt lat="46.41547" lon="5.73906">
        <ele>710.07</ele>
        <time>2018-10-14T13:31:50Z</time>
      </trkpt>
      <trkpt lat="46.41548" lon="5.73908">
        <ele>710.07</ele>
        <time>2018-10-14T13:32:07Z</time>
      </trkpt>
      <trkpt lat="46.41546" lon="5.73902">
        <ele>708.63</ele>
        <time>2018-10-14T13:32:14Z</time>
      </trkpt>
      <trkpt lat="46.41542" lon="5.73885">
        <ele>705.75</ele>
        <time>2018-10-14T13:32:30Z</time>
      </trkpt>
      <trkpt lat="46.41545" lon="5.73871">
        <ele>703.82</ele>
        <time>2018-10-14T13:32:45Z</time>
      </trkpt>
      <trkpt lat="46.41557" lon="5.73875">
        <ele>705.26</ele>
        <time>2018-10-14T13:33:01Z</time>
      </trkpt>
      <trkpt lat="46.41572" lon="5.73886">
        <ele>706.23</ele>
        <time>2018-10-14T13:33:16Z</time>
      </trkpt>
      <trkpt lat="46.41584" lon="5.73896">
        <ele>707.19</ele>
        <time>2018-10-14T13:33:31Z</time>
      </trkpt>
      <trkpt lat="46.41594" lon="5.73905">
        <ele>708.15</ele>
        <time>2018-10-14T13:33:42Z</time>
      </trkpt>
      <trkpt lat="46.4161" lon="5.7392">
        <ele>709.11</ele>
        <time>2018-10-14T13:33:59Z</time>
      </trkpt>
      <trkpt lat="46.41624" lon="5.73933">
        <ele>709.59</ele>
        <time>2018-10-14T13:34:15Z</time>
      </trkpt>
      <trkpt lat="46.41638" lon="5.73936">
        <ele>709.59</ele>
        <time>2018-10-14T13:34:30Z</time>
      </trkpt>
      <trkpt lat="46.41642" lon="5.73934">
        <ele>708.15</ele>
        <time>2018-10-14T13:34:36Z</time>
      </trkpt>
      <trkpt lat="46.41646" lon="5.73933">
        <ele>708.15</ele>
        <time>2018-10-14T13:34:39Z</time>
      </trkpt>
      <trkpt lat="46.41661" lon="5.73932">
        <ele>707.67</ele>
        <time>2018-10-14T13:34:53Z</time>
      </trkpt>
      <trkpt lat="46.41678" lon="5.73931">
        <ele>706.23</ele>
        <time>2018-10-14T13:35:07Z</time>
      </trkpt>
      <trkpt lat="46.41697" lon="5.73935">
        <ele>704.78</ele>
        <time>2018-10-14T13:35:24Z</time>
      </trkpt>
      <trkpt lat="46.41711" lon="5.73943">
        <ele>704.3</ele>
        <time>2018-10-14T13:35:38Z</time>
      </trkpt>
      <trkpt lat="46.41722" lon="5.73951">
        <ele>703.34</ele>
        <time>2018-10-14T13:35:48Z</time>
      </trkpt>
      <trkpt lat="46.41741" lon="5.73966">
        <ele>702.86</ele>
        <time>2018-10-14T13:36:07Z</time>
      </trkpt>
      <trkpt lat="46.41756" lon="5.73976">
        <ele>702.86</ele>
        <time>2018-10-14T13:36:22Z</time>
      </trkpt>
      <trkpt lat="46.41768" lon="5.73983">
        <ele>702.86</ele>
        <time>2018-10-14T13:36:36Z</time>
      </trkpt>
      <trkpt lat="46.41777" lon="5.73986">
        <ele>704.3</ele>
        <time>2018-10-14T13:36:44Z</time>
      </trkpt>
      <trkpt lat="46.41783" lon="5.73986">
        <ele>704.78</ele>
        <time>2018-10-14T13:36:50Z</time>
      </trkpt>
      <trkpt lat="46.41798" lon="5.73986">
        <ele>706.71</ele>
        <time>2018-10-14T13:37:06Z</time>
      </trkpt>
      <trkpt lat="46.41812" lon="5.73984">
        <ele>707.19</ele>
        <time>2018-10-14T13:37:20Z</time>
      </trkpt>
      <trkpt lat="46.41819" lon="5.73964">
        <ele>707.19</ele>
        <time>2018-10-14T13:37:36Z</time>
      </trkpt>
      <trkpt lat="46.41819" lon="5.73962">
        <ele>705.75</ele>
        <time>2018-10-14T13:37:38Z</time>
      </trkpt>
      <trkpt lat="46.41822" lon="5.73961">
        <ele>705.75</ele>
        <time>2018-10-14T13:37:44Z</time>
      </trkpt>
      <trkpt lat="46.41826" lon="5.73944">
        <ele>705.26</ele>
        <time>2018-10-14T13:37:59Z</time>
      </trkpt>
      <trkpt lat="46.41826" lon="5.73933">
        <ele>704.78</ele>
        <time>2018-10-14T13:38:12Z</time>
      </trkpt>
      <trkpt lat="46.41823" lon="5.7392">
        <ele>703.82</ele>
        <time>2018-10-14T13:38:24Z</time>
      </trkpt>
      <trkpt lat="46.4182" lon="5.73904">
        <ele>702.86</ele>
        <time>2018-10-14T13:38:37Z</time>
      </trkpt>
      <trkpt lat="46.41812" lon="5.73889">
        <ele>700.94</ele>
        <time>2018-10-14T13:38:52Z</time>
      </trkpt>
      <trkpt lat="46.4181" lon="5.73873">
        <ele>699.5</ele>
        <time>2018-10-14T13:39:03Z</time>
      </trkpt>
      <trkpt lat="46.41809" lon="5.73871">
        <ele>699.02</ele>
        <time>2018-10-14T13:39:05Z</time>
      </trkpt>
      <trkpt lat="46.41801" lon="5.73863">
        <ele>697.09</ele>
        <time>2018-10-14T13:39:17Z</time>
      </trkpt>
      <trkpt lat="46.41799" lon="5.73859">
        <ele>696.61</ele>
        <time>2018-10-14T13:39:21Z</time>
      </trkpt>
      <trkpt lat="46.41799" lon="5.73834">
        <ele>695.17</ele>
        <time>2018-10-14T13:39:33Z</time>
      </trkpt>
      <trkpt lat="46.41797" lon="5.73814">
        <ele>693.25</ele>
        <time>2018-10-14T13:39:47Z</time>
      </trkpt>
      <trkpt lat="46.41794" lon="5.73794">
        <ele>691.33</ele>
        <time>2018-10-14T13:40:01Z</time>
      </trkpt>
      <trkpt lat="46.41794" lon="5.73774">
        <ele>688.92</ele>
        <time>2018-10-14T13:40:16Z</time>
      </trkpt>
      <trkpt lat="46.41796" lon="5.73759">
        <ele>687.96</ele>
        <time>2018-10-14T13:40:28Z</time>
      </trkpt>
      <trkpt lat="46.41796" lon="5.73753">
        <ele>687</ele>
        <time>2018-10-14T13:40:32Z</time>
      </trkpt>
      <trkpt lat="46.41791" lon="5.73732">
        <ele>685.08</ele>
        <time>2018-10-14T13:40:47Z</time>
      </trkpt>
      <trkpt lat="46.41792" lon="5.73712">
        <ele>684.12</ele>
        <time>2018-10-14T13:41:02Z</time>
      </trkpt>
      <trkpt lat="46.41793" lon="5.7369">
        <ele>683.63</ele>
        <time>2018-10-14T13:41:19Z</time>
      </trkpt>
      <trkpt lat="46.41793" lon="5.73686">
        <ele>683.63</ele>
        <time>2018-10-14T13:41:34Z</time>
      </trkpt>
      <trkpt lat="46.41794" lon="5.73685">
        <ele>683.15</ele>
        <time>2018-10-14T13:41:48Z</time>
      </trkpt>
      <trkpt lat="46.41794" lon="5.73684">
        <ele>683.15</ele>
        <time>2018-10-14T13:42:12Z</time>
      </trkpt>
      <trkpt lat="46.41791" lon="5.73668">
        <ele>681.71</ele>
        <time>2018-10-14T13:42:27Z</time>
      </trkpt>
      <trkpt lat="46.4179" lon="5.73647">
        <ele>679.31</ele>
        <time>2018-10-14T13:42:45Z</time>
      </trkpt>
      <trkpt lat="46.41791" lon="5.7364">
        <ele>678.83</ele>
        <time>2018-10-14T13:42:51Z</time>
      </trkpt>
      <trkpt lat="46.41794" lon="5.73619">
        <ele>676.42</ele>
        <time>2018-10-14T13:43:07Z</time>
      </trkpt>
      <trkpt lat="46.41797" lon="5.73601">
        <ele>674.98</ele>
        <time>2018-10-14T13:43:21Z</time>
      </trkpt>
      <trkpt lat="46.41802" lon="5.73584">
        <ele>672.58</ele>
        <time>2018-10-14T13:43:36Z</time>
      </trkpt>
      <trkpt lat="46.4181" lon="5.73571">
        <ele>669.7</ele>
        <time>2018-10-14T13:43:52Z</time>
      </trkpt>
      <trkpt lat="46.41818" lon="5.73562">
        <ele>668.25</ele>
        <time>2018-10-14T13:44:06Z</time>
      </trkpt>
      <trkpt lat="46.41831" lon="5.73558">
        <ele>665.37</ele>
        <time>2018-10-14T13:44:21Z</time>
      </trkpt>
      <trkpt lat="46.4184" lon="5.73559">
        <ele>663.93</ele>
        <time>2018-10-14T13:44:36Z</time>
      </trkpt>
      <trkpt lat="46.41851" lon="5.73559">
        <ele>661.52</ele>
        <time>2018-10-14T13:44:51Z</time>
      </trkpt>
      <trkpt lat="46.41862" lon="5.73559">
        <ele>658.64</ele>
        <time>2018-10-14T13:45:08Z</time>
      </trkpt>
      <trkpt lat="46.41866" lon="5.73567">
        <ele>660.08</ele>
        <time>2018-10-14T13:45:17Z</time>
      </trkpt>
      <trkpt lat="46.41872" lon="5.73582">
        <ele>662.01</ele>
        <time>2018-10-14T13:45:31Z</time>
      </trkpt>
      <trkpt lat="46.41873" lon="5.73584">
        <ele>662.01</ele>
        <time>2018-10-14T13:45:40Z</time>
      </trkpt>
      <trkpt lat="46.41874" lon="5.73587">
        <ele>662.01</ele>
        <time>2018-10-14T13:45:43Z</time>
      </trkpt>
      <trkpt lat="46.41883" lon="5.73605">
        <ele>664.89</ele>
        <time>2018-10-14T13:45:59Z</time>
      </trkpt>
      <trkpt lat="46.41896" lon="5.73618">
        <ele>665.37</ele>
        <time>2018-10-14T13:46:14Z</time>
      </trkpt>
      <trkpt lat="46.41898" lon="5.73621">
        <ele>665.85</ele>
        <time>2018-10-14T13:46:27Z</time>
      </trkpt>
      <trkpt lat="46.41902" lon="5.73624">
        <ele>666.33</ele>
        <time>2018-10-14T13:46:41Z</time>
      </trkpt>
      <trkpt lat="46.41903" lon="5.73625">
        <ele>666.33</ele>
        <time>2018-10-14T13:46:43Z</time>
      </trkpt>
      <trkpt lat="46.41912" lon="5.73637">
        <ele>667.77</ele>
        <time>2018-10-14T13:46:57Z</time>
      </trkpt>
      <trkpt lat="46.41913" lon="5.73638">
        <ele>667.77</ele>
        <time>2018-10-14T13:46:58Z</time>
      </trkpt>
      <trkpt lat="46.41913" lon="5.73663">
        <ele>670.66</ele>
        <time>2018-10-14T13:47:16Z</time>
      </trkpt>
      <trkpt lat="46.4191" lon="5.73671">
        <ele>672.1</ele>
        <time>2018-10-14T13:47:29Z</time>
      </trkpt>
      <trkpt lat="46.41907" lon="5.7367">
        <ele>672.58</ele>
        <time>2018-10-14T13:47:32Z</time>
      </trkpt>
      <trkpt lat="46.419" lon="5.73638">
        <ele>673.06</ele>
        <time>2018-10-14T13:47:55Z</time>
      </trkpt>
      <trkpt lat="46.41903" lon="5.7363">
        <ele>673.06</ele>
        <time>2018-10-14T13:48:01Z</time>
      </trkpt>
      <trkpt lat="46.41909" lon="5.73604">
        <ele>672.58</ele>
        <time>2018-10-14T13:48:19Z</time>
      </trkpt>
      <trkpt lat="46.4191" lon="5.73602">
        <ele>672.58</ele>
        <time>2018-10-14T13:48:21Z</time>
      </trkpt>
      <trkpt lat="46.41911" lon="5.73594">
        <ele>672.58</ele>
        <time>2018-10-14T13:48:26Z</time>
      </trkpt>
      <trkpt lat="46.41914" lon="5.73567">
        <ele>672.58</ele>
        <time>2018-10-14T13:48:43Z</time>
      </trkpt>
      <trkpt lat="46.41913" lon="5.73537">
        <ele>671.62</ele>
        <time>2018-10-14T13:49:01Z</time>
      </trkpt>
      <trkpt lat="46.41904" lon="5.73509">
        <ele>671.14</ele>
        <time>2018-10-14T13:49:19Z</time>
      </trkpt>
      <trkpt lat="46.41889" lon="5.73483">
        <ele>670.18</ele>
        <time>2018-10-14T13:49:40Z</time>
      </trkpt>
      <trkpt lat="46.41873" lon="5.73466">
        <ele>669.7</ele>
        <time>2018-10-14T13:49:56Z</time>
      </trkpt>
      <trkpt lat="46.41848" lon="5.73451">
        <ele>669.22</ele>
        <time>2018-10-14T13:50:16Z</time>
      </trkpt>
      <trkpt lat="46.41824" lon="5.73438">
        <ele>668.73</ele>
        <time>2018-10-14T13:50:37Z</time>
      </trkpt>
      <trkpt lat="46.41799" lon="5.73427">
        <ele>667.77</ele>
        <time>2018-10-14T13:50:58Z</time>
      </trkpt>
      <trkpt lat="46.41775" lon="5.73414">
        <ele>667.29</ele>
        <time>2018-10-14T13:51:19Z</time>
      </trkpt>
      <trkpt lat="46.41756" lon="5.73397">
        <ele>666.33</ele>
        <time>2018-10-14T13:51:38Z</time>
      </trkpt>
      <trkpt lat="46.41751" lon="5.73399">
        <ele>666.33</ele>
        <time>2018-10-14T13:51:50Z</time>
      </trkpt>
      <trkpt lat="46.4175" lon="5.73393">
        <ele>665.85</ele>
        <time>2018-10-14T13:52:07Z</time>
      </trkpt>
      <trkpt lat="46.41747" lon="5.73388">
        <ele>665.85</ele>
        <time>2018-10-14T13:52:19Z</time>
      </trkpt>
      <trkpt lat="46.41753" lon="5.73385">
        <ele>665.37</ele>
        <time>2018-10-14T13:52:34Z</time>
      </trkpt>
      <trkpt lat="46.41746" lon="5.73389">
        <ele>665.37</ele>
        <time>2018-10-14T13:52:46Z</time>
      </trkpt>
      <trkpt lat="46.41747" lon="5.7339">
        <ele>665.37</ele>
        <time>2018-10-14T13:53:03Z</time>
      </trkpt>
      <trkpt lat="46.41745" lon="5.73389">
        <ele>665.37</ele>
        <time>2018-10-14T13:53:19Z</time>
      </trkpt>
      <trkpt lat="46.41745" lon="5.7339">
        <ele>664.89</ele>
        <time>2018-10-14T13:53:39Z</time>
      </trkpt>
      <trkpt lat="46.41744" lon="5.73385">
        <ele>664.89</ele>
        <time>2018-10-14T13:53:49Z</time>
      </trkpt>
      <trkpt lat="46.41742" lon="5.7338">
        <ele>664.89</ele>
        <time>2018-10-14T13:53:54Z</time>
      </trkpt>
      <trkpt lat="46.4173" lon="5.73359">
        <ele>663.93</ele>
        <time>2018-10-14T13:54:11Z</time>
      </trkpt>
      <trkpt lat="46.41723" lon="5.73346">
        <ele>663.45</ele>
        <time>2018-10-14T13:54:24Z</time>
      </trkpt>
      <trkpt lat="46.41708" lon="5.73316">
        <ele>662.01</ele>
        <time>2018-10-14T13:54:48Z</time>
      </trkpt>
      <trkpt lat="46.41706" lon="5.73314">
        <ele>662.01</ele>
        <time>2018-10-14T13:55:01Z</time>
      </trkpt>
      <trkpt lat="46.41705" lon="5.73314">
        <ele>662.01</ele>
        <time>2018-10-14T13:55:19Z</time>
      </trkpt>
      <trkpt lat="46.41697" lon="5.73301">
        <ele>662.01</ele>
        <time>2018-10-14T13:55:34Z</time>
      </trkpt>
      <trkpt lat="46.41683" lon="5.73279">
        <ele>661.52</ele>
        <time>2018-10-14T13:55:52Z</time>
      </trkpt>
      <trkpt lat="46.4168" lon="5.73273">
        <ele>661.04</ele>
        <time>2018-10-14T13:56:08Z</time>
      </trkpt>
      <trkpt lat="46.41676" lon="5.73265">
        <ele>661.04</ele>
        <time>2018-10-14T13:56:20Z</time>
      </trkpt>
      <trkpt lat="46.41676" lon="5.73264">
        <ele>661.04</ele>
        <time>2018-10-14T13:56:21Z</time>
      </trkpt>
      <trkpt lat="46.4166" lon="5.7324">
        <ele>660.56</ele>
        <time>2018-10-14T13:56:41Z</time>
      </trkpt>
      <trkpt lat="46.41647" lon="5.7322">
        <ele>660.56</ele>
        <time>2018-10-14T13:56:58Z</time>
      </trkpt>
      <trkpt lat="46.4164" lon="5.73207">
        <ele>660.56</ele>
        <time>2018-10-14T13:57:13Z</time>
      </trkpt>
      <trkpt lat="46.41634" lon="5.73187">
        <ele>660.56</ele>
        <time>2018-10-14T13:57:30Z</time>
      </trkpt>
      <trkpt lat="46.41636" lon="5.73185">
        <ele>660.56</ele>
        <time>2018-10-14T13:57:47Z</time>
      </trkpt>
      <trkpt lat="46.41638" lon="5.7318">
        <ele>660.56</ele>
        <time>2018-10-14T13:57:59Z</time>
      </trkpt>
      <trkpt lat="46.41637" lon="5.7318">
        <ele>660.56</ele>
        <time>2018-10-14T13:58:01Z</time>
      </trkpt>
      <trkpt lat="46.41636" lon="5.73179">
        <ele>660.56</ele>
        <time>2018-10-14T13:58:03Z</time>
      </trkpt>
      <trkpt lat="46.41627" lon="5.73168">
        <ele>660.08</ele>
        <time>2018-10-14T13:58:21Z</time>
      </trkpt>
      <trkpt lat="46.41625" lon="5.73166">
        <ele>661.04</ele>
        <time>2018-10-14T13:58:34Z</time>
      </trkpt>
      <trkpt lat="46.41626" lon="5.73166">
        <ele>661.04</ele>
        <time>2018-10-14T13:58:50Z</time>
      </trkpt>
      <trkpt lat="46.41624" lon="5.73166">
        <ele>661.04</ele>
        <time>2018-10-14T13:59:08Z</time>
      </trkpt>
    </trkseg>
  </trk>
</gpx>